Air Quality Table

TIMESTAMP NO2 SO2 O3 PM10 PM2.5 CO TEMP HUM AIRPRES WS WD NO BENZENE
2022-11-26 10:00 36.01 µg/m3 0.52 µg/m3 38.13 µg/m3 8.62 µg/m3 6.92 µg/m3 0.22 mg/m3 15.52 °C 87.13 % 1,013.97 mbar 1.79 m/s 165.62 Deg 7.46 µg/m3 0 µg/m3
2022-11-26 09:00 21.54 µg/m3 0.49 µg/m3 55.22 µg/m3 12.36 µg/m3 8.79 µg/m3 0.23 mg/m3 17.21 °C 84.46 % 1,013.81 mbar 2.59 m/s 188.42 Deg 5.14 µg/m3 0 µg/m3
2022-11-26 08:00 29.37 µg/m3 0.55 µg/m3 48.96 µg/m3 15.14 µg/m3 10.22 µg/m3 0.29 mg/m3 19.27 °C 77.46 % 1,013.97 mbar 1.57 m/s 136.03 Deg 9.91 µg/m3 0 µg/m3
2022-11-26 07:00 29.64 µg/m3 0.56 µg/m3 48.67 µg/m3 11.25 µg/m3 7.64 µg/m3 0.25 mg/m3 18.79 °C 77.02 % 1,015.08 mbar 1.02 m/s 171.4 Deg 5.45 µg/m3 0 µg/m3
2022-11-26 06:00 24.32 µg/m3 0.53 µg/m3 48.45 µg/m3 11.17 µg/m3 7.83 µg/m3 0.21 mg/m3 18.11 °C 78.08 % 1,015.15 mbar 0.81 m/s 173.23 Deg 2.57 µg/m3 0 µg/m3
2022-11-26 05:00 51.43 µg/m3 1.07 µg/m3 8.15 µg/m3 19.91 µg/m3 13.33 µg/m3 0.48 mg/m3 17.28 °C 77.38 % 1,016.01 mbar 0.19 m/s 217.75 Deg 30.31 µg/m3 0 µg/m3
2022-11-26 04:00 48.85 µg/m3 0.9 µg/m3 11.52 µg/m3 17.79 µg/m3 12.01 µg/m3 0.4 mg/m3 17.17 °C 75.98 % 1,017.00 mbar 0.31 m/s 234.26 Deg 17.67 µg/m3 0 µg/m3
2022-11-26 03:00 47.08 µg/m3 0.87 µg/m3 10.3 µg/m3 20.49 µg/m3 13.93 µg/m3 0.65 mg/m3 16.43 °C 77.23 % 1,018.12 mbar 0.53 m/s 231.02 Deg 11.67 µg/m3 0 µg/m3
2022-11-26 02:00 54.65 µg/m3 1.06 µg/m3 5.93 µg/m3 32.7 µg/m3 22.04 µg/m3 0.76 mg/m3 16.04 °C 77.26 % 1,018.46 mbar 0.6 m/s 229.6 Deg 36.87 µg/m3 0 µg/m3
2022-11-26 01:00 61.23 µg/m3 1.11 µg/m3 5.79 µg/m3 35.57 µg/m3 24.04 µg/m3 0.77 mg/m3 15.99 °C 76.42 % 1,018.74 mbar 0.59 m/s 231.78 Deg 32.03 µg/m3 0 µg/m3
2022-11-26 00:00 60.85 µg/m3 1.59 µg/m3 6.81 µg/m3 39.66 µg/m3 26.5 µg/m3 0.95 mg/m3 16.01 °C 76.88 % 1,019.41 mbar 0.65 m/s 230.2 Deg 65.19 µg/m3 0 µg/m3
2022-11-25 23:00 65.98 µg/m3 2.15 µg/m3 7.46 µg/m3 44.69 µg/m3 29.84 µg/m3 1.2 mg/m3 16.19 °C 76.33 % 1,019.89 mbar 0.62 m/s 233.2 Deg 111.73 µg/m3 0 µg/m3
2022-11-25 22:00 69.93 µg/m3 1.63 µg/m3 6.35 µg/m3 42.08 µg/m3 28.08 µg/m3 0.93 mg/m3 16.28 °C 75.11 % 1,020.35 mbar 0.51 m/s 241.02 Deg 78.89 µg/m3 0 µg/m3
2022-11-25 21:00 75.83 µg/m3 1.35 µg/m3 5.65 µg/m3 34.91 µg/m3 23.28 µg/m3 0.79 mg/m3 16.44 °C 74.05 % 1,020.53 mbar 0.68 m/s 231.28 Deg 54.01 µg/m3 0 µg/m3
2022-11-25 20:00 80.87 µg/m3 1.6 µg/m3 6.09 µg/m3 44.89 µg/m3 27.2 µg/m3 1 mg/m3 17 °C 71.75 % 1,020.23 mbar 0.68 m/s 227.3 Deg 75.41 µg/m3 0 µg/m3
2022-11-25 19:00 80.15 µg/m3 1.02 µg/m3 7.91 µg/m3 50.94 µg/m3 21.53 µg/m3 0.67 mg/m3 17.61 °C 68.38 % 1,020.12 mbar 0.8 m/s 219.88 Deg 35.77 µg/m3 0 µg/m3
2022-11-25 18:00 77.2 µg/m3 0.85 µg/m3 14.31 µg/m3 43.89 µg/m3 15.6 µg/m3 0.59 mg/m3 18.1 °C 65.42 % 1,020.16 mbar 0.83 m/s 269.98 Deg 28.22 µg/m3 0 µg/m3
2022-11-25 17:00 42.14 µg/m3 0.54 µg/m3 45.22 µg/m3 24.99 µg/m3 10.05 µg/m3 0.31 mg/m3 18.61 °C 62.15 % 1,019.94 mbar 1.41 m/s 307.28 Deg 11.72 µg/m3 0 µg/m3
2022-11-25 16:00 35.55 µg/m3 0.51 µg/m3 51.73 µg/m3 36.2 µg/m3 11.28 µg/m3 0.26 mg/m3 19.29 °C 59.65 % 1,019.98 mbar 1.56 m/s 314.03 Deg 13.78 µg/m3 0 µg/m3
2022-11-25 15:00 25.99 µg/m3 0.42 µg/m3 65.38 µg/m3 26.46 µg/m3 9.93 µg/m3 0.21 mg/m3 19.51 °C 57.73 % 1,019.72 mbar 1.76 m/s 314.05 Deg 9.55 µg/m3 0 µg/m3
2022-11-25 14:00 25.48 µg/m3 0.59 µg/m3 61.62 µg/m3 27.85 µg/m3 10.42 µg/m3 0.22 mg/m3 20.02 °C 54.33 % 1,020.30 mbar 1.77 m/s 295.3 Deg 14.01 µg/m3 0 µg/m3
2022-11-25 13:00 25.17 µg/m3 0.6 µg/m3 63.74 µg/m3 37.5 µg/m3 10.92 µg/m3 0.25 mg/m3 19.7 °C 57.28 % 1,020.72 mbar 1.74 m/s 314.02 Deg 10.76 µg/m3 0 µg/m3
2022-11-25 12:00 23.92 µg/m3 0.51 µg/m3 59.26 µg/m3 27.51 µg/m3 9.6 µg/m3 0.21 mg/m3 19.44 °C 57.7 % 1,020.99 mbar 1.98 m/s 294.17 Deg 9.46 µg/m3 0 µg/m3
2022-11-25 11:00 25.81 µg/m3 0.48 µg/m3 57.95 µg/m3 28.6 µg/m3 10.02 µg/m3 0.24 mg/m3 19.19 °C 60.29 % 1,021.35 mbar 1.85 m/s 271.33 Deg 8.85 µg/m3 0 µg/m3
2022-11-25 10:00 41.85 µg/m3 0.72 µg/m3 38.85 µg/m3 38.64 µg/m3 12.97 µg/m3 0.3 mg/m3 18.71 °C 63.9 % 1,021.36 mbar 1.65 m/s 256.37 Deg 17.99 µg/m3 0 µg/m3
2022-11-25 09:00 67.76 µg/m3 1.24 µg/m3 15.24 µg/m3 53.5 µg/m3 18.4 µg/m3 0.56 mg/m3 17.39 °C 69.71 % 1,020.99 mbar 1.09 m/s 229.4 Deg 53.09 µg/m3 0 µg/m3
2022-11-25 08:00 77.71 µg/m3 1.92 µg/m3 6.54 µg/m3 29.74 µg/m3 19.36 µg/m3 0.89 mg/m3 15.86 °C 75.6 % 1,020.55 mbar 0.79 m/s 225.95 Deg 95.62 µg/m3 0 µg/m3
2022-11-25 07:00 72.88 µg/m3 1.95 µg/m3 5.3 µg/m3 25.98 µg/m3 17.32 µg/m3 0.9 mg/m3 15.69 °C 76.99 % 1,019.96 mbar 0.78 m/s 238.48 Deg 103.87 µg/m3 1.82 µg/m3
2022-11-25 06:00 55.49 µg/m3 0.9 µg/m3 9.47 µg/m3 17.7 µg/m3 11.84 µg/m3 0.51 mg/m3 16.21 °C 74.85 % 1,019.49 mbar 0.83 m/s 242.45 Deg 32.68 µg/m3 2.41 µg/m3
2022-11-25 05:00 28.68 µg/m3 0.47 µg/m3 29.77 µg/m3 13.9 µg/m3 9.36 µg/m3 0.24 mg/m3 15.99 °C 78.95 % 1,019.27 mbar 0.84 m/s 241.53 Deg 2.2 µg/m3 2.41 µg/m3
2022-11-25 04:00 19.07 µg/m3 0.42 µg/m3 43.4 µg/m3 13.63 µg/m3 9.16 µg/m3 0.19 mg/m3 16.01 °C 79.54 % 1,019.09 mbar 0.82 m/s 233.16 Deg 2.06 µg/m3 2.41 µg/m3
2022-11-25 03:00 11.54 µg/m3 0.41 µg/m3 50.48 µg/m3 13.36 µg/m3 8.98 µg/m3 0.2 mg/m3 16.27 °C 78.2 % 1,018.90 mbar 0.95 m/s 239.15 Deg -0.21 µg/m3 2.41 µg/m3
2022-11-25 02:00 15 µg/m3 0.39 µg/m3 51.91 µg/m3 14.2 µg/m3 9.53 µg/m3 0.22 mg/m3 16.63 °C 76.48 % 1,018.65 mbar 1.03 m/s 244.83 Deg 0.79 µg/m3 2.41 µg/m3
2022-11-25 01:00 19.55 µg/m3 0.37 µg/m3 49.05 µg/m3 16.05 µg/m3 10.75 µg/m3 0.26 mg/m3 16.85 °C 76.13 % 1,018.62 mbar 1.19 m/s 243.67 Deg 1.2 µg/m3 2.41 µg/m3
2022-11-25 00:00 27.31 µg/m3 0.45 µg/m3 43.18 µg/m3 20.62 µg/m3 13.84 µg/m3 0.31 mg/m3 16.95 °C 76.48 % 1,018.49 mbar 1.36 m/s 242.03 Deg 3.44 µg/m3 2.41 µg/m3
2022-11-24 23:00 27.29 µg/m3 0.44 µg/m3 45.97 µg/m3 21.64 µg/m3 14.55 µg/m3 0.31 mg/m3 17.31 °C 75.91 % 1,018.16 mbar 1.59 m/s 241.93 Deg 4.88 µg/m3 2.41 µg/m3
2022-11-24 22:00 22.57 µg/m3 0.38 µg/m3 54.11 µg/m3 21.46 µg/m3 14.45 µg/m3 0.25 mg/m3 17.56 °C 75.35 % 1,017.90 mbar 1.77 m/s 250.68 Deg 2.42 µg/m3 2.41 µg/m3
2022-11-24 21:00 34.75 µg/m3 0.4 µg/m3 46.58 µg/m3 23.03 µg/m3 15.47 µg/m3 0.3 mg/m3 17.67 °C 74.99 % 1,017.47 mbar 1.81 m/s 246.62 Deg 5.56 µg/m3 2.41 µg/m3
2022-11-24 20:00 37.08 µg/m3 0.43 µg/m3 47.02 µg/m3 26.79 µg/m3 18.17 µg/m3 0.34 mg/m3 17.89 °C 74.15 % 1,016.89 mbar 1.58 m/s 257.53 Deg 5.63 µg/m3 2.26 µg/m3
2022-11-24 19:00 44.17 µg/m3 0.54 µg/m3 39.03 µg/m3 28.11 µg/m3 17.43 µg/m3 0.35 mg/m3 18.15 °C 72.89 % 1,016.40 mbar 2.1 m/s 259.9 Deg 12.59 µg/m3 2.47 µg/m3
2022-11-24 18:00 43.82 µg/m3 0.5 µg/m3 42.65 µg/m3 34.01 µg/m3 18.14 µg/m3 0.36 mg/m3 18.49 °C 69.88 % 1,016.01 mbar 2.28 m/s 256.3 Deg 10.22 µg/m3 2.41 µg/m3
2022-11-24 17:00 37.62 µg/m3 0.47 µg/m3 46.79 µg/m3 30.7 µg/m3 14.15 µg/m3 0.28 mg/m3 19.03 °C 67.03 % 1,015.37 mbar 2.98 m/s 259.8 Deg 8.92 µg/m3 1.78 µg/m3
2022-11-24 16:00 34.92 µg/m3 0.45 µg/m3 50.1 µg/m3 33.23 µg/m3 14.01 µg/m3 0.26 mg/m3 19.71 °C 65.75 % 1,014.80 mbar 3.34 m/s 265.97 Deg 9.81 µg/m3 1.47 µg/m3
2022-11-24 15:00 29.46 µg/m3 0.43 µg/m3 55.15 µg/m3 32.37 µg/m3 12.54 µg/m3 0.23 mg/m3 20.09 °C 64.73 % 1,014.66 mbar 3.21 m/s 268.78 Deg 8.37 µg/m3 1.31 µg/m3
2022-11-24 14:00 21.44 µg/m3 0.39 µg/m3 60.75 µg/m3 26.17 µg/m3 10.4 µg/m3 0.21 mg/m3 20.45 °C 61.92 % 1,014.66 mbar 3.92 m/s 262.32 Deg 6.75 µg/m3 1.05 µg/m3
2022-11-24 13:00 22.75 µg/m3 0.49 µg/m3 54.58 µg/m3 28.13 µg/m3 10.21 µg/m3 0.21 mg/m3 20.4 °C 62.81 % 1,014.81 mbar 3.74 m/s 269.53 Deg 8.28 µg/m3 1.26 µg/m3
2022-11-24 12:00 21.11 µg/m3 0.39 µg/m3 52.34 µg/m3 28.4 µg/m3 12.08 µg/m3 0.21 mg/m3 20.26 °C 69.41 % 1,015.18 mbar 3.52 m/s 260.82 Deg 7.91 µg/m3 1.31 µg/m3
2022-11-24 11:00 20.85 µg/m3 0.44 µg/m3 49.09 µg/m3 27.54 µg/m3 11.23 µg/m3 0.23 mg/m3 20.25 °C 72.52 % 1,015.28 mbar 3.43 m/s 258.68 Deg 8.2 µg/m3 1.68 µg/m3
2022-11-24 10:00 27.71 µg/m3 0.58 µg/m3 37.23 µg/m3 26.91 µg/m3 10.97 µg/m3 0.29 mg/m3 20.03 °C 73.92 % 1,015.21 mbar 2.63 m/s 274.48 Deg 14.3 µg/m3 2.05 µg/m3
2022-11-24 09:00 37.85 µg/m3 0.63 µg/m3 26.52 µg/m3 24.46 µg/m3 11.76 µg/m3 0.33 mg/m3 19.44 °C 75.56 % 1,014.72 mbar 2.27 m/s 261.35 Deg 21.78 µg/m3 2.15 µg/m3
2022-11-24 08:00 38.12 µg/m3 0.5 µg/m3 23.57 µg/m3 17.05 µg/m3 11.7 µg/m3 0.35 mg/m3 18.83 °C 77.76 % 1,013.78 mbar 2.19 m/s 266.03 Deg 17.82 µg/m3 1.89 µg/m3
2022-11-24 07:00 31.39 µg/m3 0.48 µg/m3 27.71 µg/m3 19.4 µg/m3 13.87 µg/m3 0.3 mg/m3 18.73 °C 81.61 % 1,012.86 mbar 2.37 m/s 262.93 Deg 13.43 µg/m3 0.84 µg/m3
2022-11-24 06:00 13.95 µg/m3 0.33 µg/m3 44.24 µg/m3 20.51 µg/m3 14.69 µg/m3 0.19 mg/m3 18.97 °C 81.92 % 1,011.84 mbar 2.14 m/s 262.03 Deg 2.08 µg/m3 0.58 µg/m3
2022-11-24 05:00 5.98 µg/m3 0.27 µg/m3 51.2 µg/m3 18.55 µg/m3 13.74 µg/m3 0.17 mg/m3 18.79 °C 84.94 % 1,011.39 mbar 2.39 m/s 262.87 Deg 0.17 µg/m3 0.47 µg/m3
2022-11-24 04:00 3.5 µg/m3 0.27 µg/m3 53.89 µg/m3 15.63 µg/m3 12.21 µg/m3 0.16 mg/m3 18.51 °C 86.22 % 1,011.26 mbar 2.65 m/s 264.25 Deg -0.36 µg/m3 0.47 µg/m3
2022-11-24 03:00 3.63 µg/m3 0.39 µg/m3 53.44 µg/m3 15.71 µg/m3 11.77 µg/m3 0.15 mg/m3 18.58 °C 84.43 % 1,011.20 mbar 2.55 m/s 274.97 Deg -0.3 µg/m3 0.58 µg/m3
2022-11-24 02:00 3.85 µg/m3 0.38 µg/m3 54.63 µg/m3 13.96 µg/m3 10.73 µg/m3 0.17 mg/m3 18.43 °C 87.08 % 1,011.07 mbar 2.67 m/s 265.33 Deg 0.12 µg/m3 0.58 µg/m3
2022-11-24 01:00 4.3 µg/m3 0.38 µg/m3 55.33 µg/m3 10.81 µg/m3 8.18 µg/m3 0.17 mg/m3 18.14 °C 86.82 % 1,011.10 mbar 2.63 m/s 255.4 Deg 0.09 µg/m3 0.89 µg/m3
2022-11-24 00:00 8.09 µg/m3 0.35 µg/m3 51.7 µg/m3 8.13 µg/m3 6.38 µg/m3 0.2 mg/m3 18.21 °C 86.09 % 1,011.42 mbar 2.18 m/s 256.87 Deg 0.85 µg/m3 1.15 µg/m3
2022-11-23 23:00 12.06 µg/m3 0.4 µg/m3 48.21 µg/m3 5.49 µg/m3 4.23 µg/m3 0.21 mg/m3 17.58 °C 86.89 % 1,011.46 mbar 2.09 m/s 248.65 Deg 2.34 µg/m3 0.84 µg/m3
2022-11-23 22:00 8.64 µg/m3 0.4 µg/m3 54.95 µg/m3 4.04 µg/m3 3.49 µg/m3 0.19 mg/m3 17.17 °C 86.21 % 1,011.50 mbar 3.06 m/s 246.57 Deg 1.87 µg/m3 0.89 µg/m3
2022-11-23 21:00 12.79 µg/m3 0.46 µg/m3 58.26 µg/m3 9.5 µg/m3 6.7 µg/m3 0.21 mg/m3 18.77 °C 77.26 % 1,011.27 mbar 3.43 m/s 249 Deg 2.67 µg/m3 1.26 µg/m3
2022-11-23 20:00 19.34 µg/m3 0.48 µg/m3 57.31 µg/m3 14.21 µg/m3 8.09 µg/m3 0.24 mg/m3 19.27 °C 69.37 % 1,010.80 mbar 3.69 m/s 257.1 Deg 4.7 µg/m3 1.57 µg/m3
2022-11-23 19:00 27.97 µg/m3 0.53 µg/m3 51.1 µg/m3 17.97 µg/m3 8.95 µg/m3 0.27 mg/m3 19.1 °C 67.56 % 1,010.62 mbar 2.93 m/s 251.45 Deg 7.12 µg/m3 1.94 µg/m3
2022-11-23 18:00 30.01 µg/m3 0.53 µg/m3 51.66 µg/m3 18.12 µg/m3 9.16 µg/m3 0.28 mg/m3 18.72 °C 68.17 % 1,010.41 mbar 3.13 m/s 249.57 Deg 6.87 µg/m3 1.73 µg/m3
2022-11-23 17:00 26.79 µg/m3 0.49 µg/m3 53.04 µg/m3 13.9 µg/m3 7.69 µg/m3 0.26 mg/m3 18.56 °C 69.12 % 1,010.06 mbar 3.46 m/s 255.4 Deg 6.15 µg/m3 1.36 µg/m3
2022-11-23 16:00 25.43 µg/m3 0.52 µg/m3 54.69 µg/m3 19.38 µg/m3 7.58 µg/m3 0.21 mg/m3 19.12 °C 64.68 % 1,009.54 mbar 3.89 m/s 247.75 Deg 7.84 µg/m3 1.21 µg/m3
2022-11-23 15:00 24.69 µg/m3 0.54 µg/m3 58.88 µg/m3 23.53 µg/m3 8.85 µg/m3 0.2 mg/m3 19.48 °C 62.3 % 1,009.27 mbar 3.9 m/s 248.62 Deg 7.88 µg/m3 1.31 µg/m3
2022-11-23 14:00 21.9 µg/m3 0.52 µg/m3 59.64 µg/m3 24.49 µg/m3 9.22 µg/m3 0.2 mg/m3 19.66 °C 61.35 % 1,009.48 mbar 4.18 m/s 249.93 Deg 7.35 µg/m3 1.26 µg/m3
2022-11-23 13:00 20.56 µg/m3 0.58 µg/m3 60.43 µg/m3 25.13 µg/m3 9.19 µg/m3 0.17 mg/m3 19.65 °C 58.11 % 1,009.70 mbar 4.12 m/s 247.97 Deg 8.26 µg/m3 1.05 µg/m3
2022-11-23 12:00 17.47 µg/m3 0.5 µg/m3 61.12 µg/m3 20.81 µg/m3 7.88 µg/m3 0.17 mg/m3 18.82 °C 62.87 % 1,010.19 mbar 4.76 m/s 253.73 Deg 7.06 µg/m3 1.15 µg/m3
2022-11-23 11:00 21.27 µg/m3 0.56 µg/m3 58.03 µg/m3 22.76 µg/m3 8.63 µg/m3 0.18 mg/m3 19.08 °C 58.58 % 1,010.47 mbar 4.21 m/s 252.05 Deg 8.76 µg/m3 1.31 µg/m3
2022-11-23 10:00 28.86 µg/m3 0.59 µg/m3 50.82 µg/m3 25.37 µg/m3 9.19 µg/m3 0.22 mg/m3 18.79 °C 56.26 % 1,010.72 mbar 3.52 m/s 249.5 Deg 12.34 µg/m3 1.52 µg/m3
2022-11-23 09:00 34.59 µg/m3 0.61 µg/m3 46.97 µg/m3 27.56 µg/m3 9.05 µg/m3 0.24 mg/m3 17.92 °C 57.88 % 1,010.43 mbar 3.5 m/s 254.47 Deg 13.37 µg/m3 1.73 µg/m3
2022-11-23 08:00 43.12 µg/m3 0.68 µg/m3 39.68 µg/m3 µg/m3 µg/m3 0.29 mg/m3 17.15 °C 59.63 % 1,010.07 mbar 3.14 m/s 252.91 Deg 15.6 µg/m3 2.13 µg/m3
2022-11-23 07:00 34.81 µg/m3 0.6 µg/m3 46.18 µg/m3 µg/m3 µg/m3 0.24 mg/m3 16.72 °C 59.92 % 1,009.77 mbar 2.9 m/s 253.55 Deg 8.32 µg/m3 1.05 µg/m3
2022-11-23 06:00 15.15 µg/m3 0.43 µg/m3 62.27 µg/m3 µg/m3 µg/m3 0.15 mg/m3 16.43 °C 60.47 % 1,009.78 mbar 2.25 m/s 249.63 Deg 1.63 µg/m3 0.63 µg/m3
2022-11-23 05:00 5.95 µg/m3 0.4 µg/m3 69.1 µg/m3 µg/m3 µg/m3 0.12 mg/m3 16.28 °C 62.26 % 1,009.98 mbar 2.15 m/s 250.83 Deg 0.13 µg/m3 0.58 µg/m3
2022-11-23 04:00 2.41 µg/m3 0.53 µg/m3 69.6 µg/m3 µg/m3 µg/m3 0.11 mg/m3 15.73 °C 67.41 % 1,010.18 mbar 1.88 m/s 246.07 Deg -0.44 µg/m3 0.58 µg/m3
2022-11-23 03:00 2.06 µg/m3 0.45 µg/m3 70.73 µg/m3 µg/m3 µg/m3 0.12 mg/m3 15.26 °C 71.87 % 1,010.53 mbar 2.23 m/s 249.33 Deg -0.43 µg/m3 0.68 µg/m3
2022-11-23 02:00 6.81 µg/m3 0.43 µg/m3 66.84 µg/m3 µg/m3 µg/m3 0.14 mg/m3 14.75 °C 75.39 % 1,010.91 mbar 1.25 m/s 249.85 Deg 0.15 µg/m3 0.63 µg/m3
2022-11-23 01:00 2.65 µg/m3 0.47 µg/m3 75.31 µg/m3 µg/m3 µg/m3 0.12 mg/m3 14.61 °C 72.06 % 1,011.53 mbar 3.03 m/s 251.9 Deg -0.26 µg/m3 0.58 µg/m3
2022-11-23 00:00 4.25 µg/m3 0.43 µg/m3 74.36 µg/m3 µg/m3 µg/m3 0.11 mg/m3 17.1 °C 56.85 % 1,011.54 mbar 3.6 m/s 248.02 Deg 0.07 µg/m3 0.84 µg/m3
2022-11-22 23:00 8.74 µg/m3 0.43 µg/m3 70.27 µg/m3 µg/m3 µg/m3 0.14 mg/m3 16.93 °C 61.1 % 1,011.47 mbar 2.64 m/s 245.07 Deg 0.76 µg/m3 0.84 µg/m3
2022-11-22 22:00 10.01 µg/m3 0.39 µg/m3 70.49 µg/m3 µg/m3 µg/m3 0.13 mg/m3 17.41 °C 56.64 % 1,011.50 mbar 2.67 m/s 243 Deg 1.06 µg/m3 0.89 µg/m3
2022-11-22 21:00 15.78 µg/m3 0.44 µg/m3 66.83 µg/m3 µg/m3 µg/m3 0.13 mg/m3 17.48 °C 54.43 % 1,011.11 mbar 2.8 m/s 243.23 Deg 3.01 µg/m3 1.15 µg/m3
2022-11-22 20:00 21.87 µg/m3 0.52 µg/m3 61.21 µg/m3 µg/m3 µg/m3 0.16 mg/m3 17.44 °C 54.5 % 1,010.82 mbar 2.83 m/s 248.1 Deg 4.09 µg/m3 1.21 µg/m3
2022-11-22 19:00 21.13 µg/m3 0.48 µg/m3 61.36 µg/m3 µg/m3 µg/m3 0.17 mg/m3 17.52 °C 55.14 % 1,010.59 mbar 3.64 m/s 254.8 Deg 3.81 µg/m3 1.47 µg/m3
2022-11-22 18:00 24.09 µg/m3 0.49 µg/m3 58.58 µg/m3 µg/m3 µg/m3 0.18 mg/m3 17.52 °C 56.11 % 1,010.33 mbar 3.79 m/s 255.25 Deg 5.07 µg/m3 1.47 µg/m3
2022-11-22 17:00 26.88 µg/m3 0.47 µg/m3 56.1 µg/m3 µg/m3 µg/m3 0.21 mg/m3 17.36 °C 60.91 % 1,009.68 mbar 3.7 m/s 254.87 Deg 5.95 µg/m3 1.26 µg/m3
2022-11-22 16:00 25.06 µg/m3 0.41 µg/m3 59.16 µg/m3 µg/m3 µg/m3 0.18 mg/m3 18.32 °C 58.25 % 1,009.09 mbar 4.21 m/s 256.93 Deg 6.26 µg/m3 1.15 µg/m3
2022-11-22 15:00 22.27 µg/m3 0.45 µg/m3 59.87 µg/m3 µg/m3 µg/m3 0.16 mg/m3 18.93 °C 57.27 % 1,008.30 mbar 4.44 m/s 243.83 Deg 6.6 µg/m3 1.42 µg/m3
2022-11-22 14:00 25.13 µg/m3 0.46 µg/m3 52.2 µg/m3 44.41 µg/m3 18.54 µg/m3 0.21 mg/m3 18.23 °C 70.19 % 1,008.58 mbar 3.6 m/s 241.57 Deg 6.56 µg/m3 1.1 µg/m3
2022-11-22 13:00 19.67 µg/m3 0.47 µg/m3 62.69 µg/m3 59.36 µg/m3 20.39 µg/m3 0.15 mg/m3 20.12 °C 56.4 % 1,008.55 mbar 4.8 m/s 229.67 Deg 5.75 µg/m3 0.89 µg/m3
2022-11-22 12:00 12.36 µg/m3 0.4 µg/m3 73.43 µg/m3 59.91 µg/m3 21.37 µg/m3 0.13 mg/m3 20.46 °C 57.48 % 1,008.77 mbar 7.18 m/s 223.72 Deg 3.11 µg/m3 0.89 µg/m3
2022-11-22 11:00 11.76 µg/m3 0.42 µg/m3 72.82 µg/m3 64.02 µg/m3 21.03 µg/m3 0.13 mg/m3 19.99 °C 57.53 % 1,008.94 mbar 7.17 m/s 222.93 Deg 2.34 µg/m3 0.94 µg/m3
2022-11-22 10:00 14.75 µg/m3 0.38 µg/m3 70.31 µg/m3 52.44 µg/m3 16.64 µg/m3 0.15 mg/m3 19.67 °C 59.91 % 1,008.62 mbar 6.71 m/s 220.3 Deg 2.96 µg/m3 1.05 µg/m3
2022-11-22 09:00 18.35 µg/m3 0.42 µg/m3 66.2 µg/m3 40.78 µg/m3 14.3 µg/m3 0.16 mg/m3 19.25 °C 60.74 % 1,008.94 mbar 5.23 m/s 217.8 Deg 3.41 µg/m3 1.15 µg/m3
2022-11-22 08:00 21.82 µg/m3 0.47 µg/m3 62.59 µg/m3 29.14 µg/m3 10.99 µg/m3 0.16 mg/m3 18.55 °C 61.11 % 1,009.46 mbar 4.23 m/s 214.98 Deg 3.1 µg/m3 1.05 µg/m3
2022-11-22 07:00 16.72 µg/m3 0.41 µg/m3 69.69 µg/m3 25.73 µg/m3 10.28 µg/m3 0.14 mg/m3 18.31 °C 58.57 % 1,010.41 mbar 3.97 m/s 213.75 Deg 2.33 µg/m3 0.73 µg/m3
2022-11-22 06:00 5.65 µg/m3 0.41 µg/m3 80.53 µg/m3 24.27 µg/m3 10.2 µg/m3 0.1 mg/m3 18.23 °C 55.12 % 1,010.99 mbar 3.54 m/s 214.67 Deg 0.02 µg/m3 0.52 µg/m3
2022-11-22 05:00 1.83 µg/m3 0.38 µg/m3 84.06 µg/m3 20.53 µg/m3 9.04 µg/m3 0.07 mg/m3 18.41 °C 50.32 % 1,011.68 mbar 3.65 m/s 214.5 Deg -0.4 µg/m3 0.58 µg/m3
2022-11-22 04:00 1.59 µg/m3 0.42 µg/m3 85.12 µg/m3 18.62 µg/m3 8.11 µg/m3 0.07 mg/m3 18.62 °C 51.8 % 1,012.82 mbar 3.66 m/s 218 Deg -0.42 µg/m3 0.52 µg/m3
2022-11-22 03:00 1.07 µg/m3 0.45 µg/m3 83.78 µg/m3 22.18 µg/m3 8.85 µg/m3 0.07 mg/m3 18.92 °C 53.03 % 1,013.67 mbar 3.79 m/s 221 Deg -0.45 µg/m3 0.63 µg/m3
2022-11-22 02:00 3.4 µg/m3 0.4 µg/m3 80.69 µg/m3 18.87 µg/m3 7.04 µg/m3 0.08 mg/m3 18.64 °C 53.31 % 1,014.18 mbar 2.68 m/s 218.92 Deg -0.4 µg/m3 0.63 µg/m3
2022-11-22 01:00 4.96 µg/m3 0.41 µg/m3 77.26 µg/m3 9.33 µg/m3 3.55 µg/m3 0.09 mg/m3 18.22 °C 56.55 % 1,015.22 mbar 2.02 m/s 217.77 Deg -0.29 µg/m3 0.84 µg/m3
2022-11-22 00:00 11.36 µg/m3 0.4 µg/m3 70.74 µg/m3 13.23 µg/m3 4.51 µg/m3 0.13 mg/m3 17.77 °C 59.78 % 1,015.89 mbar 1.7 m/s 219.47 Deg 0.15 µg/m3 1.99 µg/m3
2022-11-21 23:00 30.51 µg/m3 0.48 µg/m3 48.06 µg/m3 22.45 µg/m3 7.09 µg/m3 0.26 mg/m3 17.46 °C 63.98 % 1,016.33 mbar 1.22 m/s 216.92 Deg 3.48 µg/m3 1.36 µg/m3
2022-11-21 22:00 24.05 µg/m3 0.42 µg/m3 55.65 µg/m3 19.69 µg/m3 6.66 µg/m3 0.2 mg/m3 17.61 °C 63.22 % 1,016.57 mbar 1.77 m/s 224.05 Deg 2.03 µg/m3 1.78 µg/m3
2022-11-21 21:00 34.92 µg/m3 0.47 µg/m3 46.28 µg/m3 24.36 µg/m3 8.12 µg/m3 0.28 mg/m3 17.45 °C 65.62 % 1,016.43 mbar 1.44 m/s 222.97 Deg 5.54 µg/m3 3.62 µg/m3
2022-11-21 20:00 61.61 µg/m3 0.66 µg/m3 21.72 µg/m3 20.77 µg/m3 8.56 µg/m3 0.45 mg/m3 17.49 °C 65.65 % 1,016.50 mbar 0.95 m/s 228.23 Deg 15.28 µg/m3 3.25 µg/m3
2022-11-21 19:00 60.89 µg/m3 0.56 µg/m3 23.7 µg/m3 16.99 µg/m3 7.43 µg/m3 0.37 mg/m3 17.54 °C 66.44 % 1,016.77 mbar 1.28 m/s 236.58 Deg 14.9 µg/m3 2.62 µg/m3
2022-11-21 18:00 50.82 µg/m3 0.55 µg/m3 34.99 µg/m3 14.25 µg/m3 7.23 µg/m3 0.36 mg/m3 17.82 °C 65.78 % 1,016.58 mbar 2.19 m/s 250.53 Deg 12.9 µg/m3 2.2 µg/m3
2022-11-21 17:00 37.46 µg/m3 0.47 µg/m3 47.04 µg/m3 14.24 µg/m3 7.39 µg/m3 0.29 mg/m3 18.11 °C 66.49 % 1,016.39 mbar 2.48 m/s 258.65 Deg 6.76 µg/m3 1.73 µg/m3
2022-11-21 16:00 38.35 µg/m3 0.45 µg/m3 45.31 µg/m3 15.14 µg/m3 9.25 µg/m3 0.26 mg/m3 17.77 °C 72.15 % 1,016.40 mbar 2.53 m/s 274.05 Deg 9.3 µg/m3 1.63 µg/m3
2022-11-21 15:00 36.52 µg/m3 0.55 µg/m3 48.17 µg/m3 14.74 µg/m3 9.58 µg/m3 0.24 mg/m3 17.2 °C 76.57 % 1,016.55 mbar 2.29 m/s 267.92 Deg 11.18 µg/m3 1.47 µg/m3
2022-11-21 14:00 34.58 µg/m3 0.56 µg/m3 49.01 µg/m3 17.18 µg/m3 9.15 µg/m3 0.24 mg/m3 18.2 °C 69.03 % 1,016.65 mbar 2.78 m/s 262.22 Deg 10.5 µg/m3 1.68 µg/m3
2022-11-21 13:00 35.08 µg/m3 0.6 µg/m3 46.15 µg/m3 15.33 µg/m3 10.39 µg/m3 0.23 mg/m3 16.73 °C 78.73 % 1,016.98 mbar 2.2 m/s 272.37 Deg 11.07 µg/m3 1.36 µg/m3
2022-11-21 12:00 29.99 µg/m3 0.57 µg/m3 52.27 µg/m3 12.47 µg/m3 8.31 µg/m3 0.21 mg/m3 16.68 °C 77.73 % 1,017.73 mbar 2.4 m/s 275.62 Deg 8.84 µg/m3 1.57 µg/m3
2022-11-21 11:00 32.92 µg/m3 0.54 µg/m3 49.27 µg/m3 21.1 µg/m3 9.5 µg/m3 0.2 mg/m3 17.2 °C 69.84 % 1,017.90 mbar 2.48 m/s 252.88 Deg 9.62 µg/m3 1.36 µg/m3
2022-11-21 10:00 35.16 µg/m3 0.56 µg/m3 49.35 µg/m3 41.73 µg/m3 12 µg/m3 0.19 mg/m3 18.76 °C 51.48 % 1,017.47 mbar 3.07 m/s 261.58 Deg 11.74 µg/m3 1.78 µg/m3
2022-11-21 09:00 44.28 µg/m3 0.8 µg/m3 39.28 µg/m3 24.89 µg/m3 9.3 µg/m3 0.26 mg/m3 17.83 °C 51.98 % 1,017.12 mbar 2.53 m/s 264.28 Deg 17.64 µg/m3 2.2 µg/m3
2022-11-21 08:00 50.2 µg/m3 0.79 µg/m3 33.2 µg/m3 19.78 µg/m3 9.16 µg/m3 0.26 mg/m3 16.86 °C 59.65 % 1,016.62 mbar 2.22 m/s 265.78 Deg 16.11 µg/m3 1.73 µg/m3
2022-11-21 07:00 32.68 µg/m3 0.48 µg/m3 46.27 µg/m3 14.73 µg/m3 8.91 µg/m3 0.21 mg/m3 16.21 °C 71.13 % 1,015.99 mbar 2.58 m/s 270.33 Deg 8.45 µg/m3 1.05 µg/m3
2022-11-21 06:00 20.48 µg/m3 0.44 µg/m3 55.11 µg/m3 9.29 µg/m3 6.5 µg/m3 0.14 mg/m3 15.9 °C 73.62 % 1,015.44 mbar 1.77 m/s 270.33 Deg 2.26 µg/m3 0.79 µg/m3
2022-11-21 05:00 10.08 µg/m3 0.38 µg/m3 63.86 µg/m3 9.39 µg/m3 5.12 µg/m3 0.1 mg/m3 16.29 °C 67.34 % 1,014.95 mbar 1.49 m/s 255.98 Deg 0.21 µg/m3 0.63 µg/m3
2022-11-21 04:00 4.42 µg/m3 0.34 µg/m3 71.89 µg/m3 8.9 µg/m3 5.03 µg/m3 0.08 mg/m3 16.26 °C 67.64 % 1,014.65 mbar 2.08 m/s 253.92 Deg -0.06 µg/m3 0.58 µg/m3
2022-11-21 03:00 1.64 µg/m3 0.43 µg/m3 75.56 µg/m3 8.93 µg/m3 5.13 µg/m3 0.15 mg/m3 16.74 °C 66.49 % 1,014.49 mbar 2.63 m/s 259.47 Deg -0.32 µg/m3 0.58 µg/m3
2022-11-21 02:00 4.67 µg/m3 0.47 µg/m3 75.71 µg/m3 9.09 µg/m3 5 µg/m3 0.15 mg/m3 16.58 °C 65.07 % 1,014.60 mbar 2.41 m/s 259.57 Deg 0.14 µg/m3 0.63 µg/m3
2022-11-21 01:00 4.78 µg/m3 0.43 µg/m3 72.42 µg/m3 11.89 µg/m3 7.25 µg/m3 0.16 mg/m3 16.62 °C 66.75 % 1,014.74 mbar 2.21 m/s 268.87 Deg -0.1 µg/m3 0.68 µg/m3
2022-11-21 00:00 6.05 µg/m3 0.5 µg/m3 72.71 µg/m3 14.13 µg/m3 8.75 µg/m3 0.17 mg/m3 17.55 °C 62.64 % 1,014.59 mbar 3.16 m/s 255.07 Deg 0.37 µg/m3 1 µg/m3
2022-11-20 23:00 11.97 µg/m3 0.44 µg/m3 66.45 µg/m3 17.83 µg/m3 9.57 µg/m3 0.18 mg/m3 17.74 °C 59.3 % 1,014.28 mbar 2.53 m/s 257.65 Deg 1.73 µg/m3 0.94 µg/m3
2022-11-20 22:00 9.08 µg/m3 0.37 µg/m3 69.17 µg/m3 17.59 µg/m3 9.9 µg/m3 0.17 mg/m3 17.99 °C 57.28 % 1,013.73 mbar 3.07 m/s 257.78 Deg 0.82 µg/m3 1 µg/m3
2022-11-20 21:00 12.33 µg/m3 0.41 µg/m3 67.74 µg/m3 16.01 µg/m3 9.81 µg/m3 0.19 mg/m3 17.78 °C 61.32 % 1,012.97 mbar 2.69 m/s 263.4 Deg 0.96 µg/m3 1.1 µg/m3
2022-11-20 20:00 14.93 µg/m3 0.51 µg/m3 65.52 µg/m3 13.38 µg/m3 7.78 µg/m3 0.22 mg/m3 17.61 °C 62.8 % 1,012.33 mbar 2.86 m/s 259.83 Deg 1.6 µg/m3 1.21 µg/m3
2022-11-20 19:00 17.07 µg/m3 0.63 µg/m3 63.41 µg/m3 12.27 µg/m3 7.75 µg/m3 0.22 mg/m3 17.4 °C 63.59 % 1,011.63 mbar 2.91 m/s 255.32 Deg 2.15 µg/m3 1.36 µg/m3
2022-11-20 18:00 20 µg/m3 0.59 µg/m3 60.49 µg/m3 10.98 µg/m3 6.31 µg/m3 0.23 mg/m3 16.64 °C 65.73 % 1,010.79 mbar 2.32 m/s 255.47 Deg 2.27 µg/m3 1.1 µg/m3
2022-11-20 17:00 13.53 µg/m3 0.58 µg/m3 67.76 µg/m3 8.24 µg/m3 4.73 µg/m3 0.18 mg/m3 16.61 °C 66.06 % 1,010.26 mbar 3.22 m/s 252.6 Deg 1.63 µg/m3 1 µg/m3
2022-11-20 16:00 11.02 µg/m3 0.55 µg/m3 68.45 µg/m3 7.12 µg/m3 4.53 µg/m3 0.18 mg/m3 16.45 °C 71.28 % 1,009.52 mbar 2.97 m/s 245.82 Deg 1.4 µg/m3 1 µg/m3
2022-11-20 15:00 11.42 µg/m3 0.53 µg/m3 67.1 µg/m3 10.66 µg/m3 5.22 µg/m3 0.18 mg/m3 17.17 °C 67.68 % 1,009.14 mbar 2.88 m/s 244.03 Deg 2.24 µg/m3 1 µg/m3
2022-11-20 14:00 10.32 µg/m3 0.47 µg/m3 66.84 µg/m3 8.65 µg/m3 5.33 µg/m3 0.18 mg/m3 16.28 °C 74.52 % 1,009.33 mbar 2.03 m/s 229.85 Deg 1.58 µg/m3 1 µg/m3
2022-11-20 13:00 10.55 µg/m3 0.43 µg/m3 71.33 µg/m3 10.93 µg/m3 5.14 µg/m3 0.18 mg/m3 16.64 °C 67.58 % 1,009.48 mbar 3.06 m/s 251.8 Deg 2.19 µg/m3 1.05 µg/m3
2022-11-20 12:00 13.3 µg/m3 0.44 µg/m3 71.32 µg/m3 10.07 µg/m3 6.72 µg/m3 0.17 mg/m3 13.65 °C 78.69 % 1,010.19 mbar 3.5 m/s 254.3 Deg 2.35 µg/m3 1.1 µg/m3
2022-11-20 11:00 13.93 µg/m3 0.49 µg/m3 64.32 µg/m3 17.38 µg/m3 6.84 µg/m3 0.21 mg/m3 17.39 °C 71.07 % 1,009.35 mbar 3.18 m/s 269.92 Deg 3.02 µg/m3 1.05 µg/m3
2022-11-20 10:00 12.75 µg/m3 0.44 µg/m3 62.59 µg/m3 30.15 µg/m3 12.67 µg/m3 0.2 mg/m3 18.28 °C 70.56 % 1,008.85 mbar 3.49 m/s 259.2 Deg 2.52 µg/m3 0.89 µg/m3
2022-11-20 09:00 5.48 µg/m3 0.41 µg/m3 69.18 µg/m3 132.56 µg/m3 44.89 µg/m3 0.12 mg/m3 20.25 °C 54.26 % 1,007.53 mbar 4.55 m/s 218.27 Deg 0.22 µg/m3 0.73 µg/m3
2022-11-20 08:00 11.62 µg/m3 0.47 µg/m3 63.17 µg/m3 211.14 µg/m3 78.44 µg/m3 0.15 mg/m3 19.7 °C 65.14 % 1,007.35 mbar 3 m/s 190.07 Deg 1.13 µg/m3 2.26 µg/m3
2022-11-20 07:00 49.81 µg/m3 0.72 µg/m3 10.12 µg/m3 16.72 µg/m3 11.21 µg/m3 0.3 mg/m3 18.69 °C 76.44 % 1,007.36 mbar 0.63 m/s 167.01 Deg 19.7 µg/m3 2.05 µg/m3
2022-11-20 06:00 40.17 µg/m3 0.53 µg/m3 22.35 µg/m3 13.11 µg/m3 8.76 µg/m3 0.28 mg/m3 18.76 °C 75.03 % 1,008.08 mbar 0.49 m/s 210.11 Deg 11.2 µg/m3 1.1 µg/m3
2022-11-20 05:00 17.32 µg/m3 0.47 µg/m3 48.85 µg/m3 10.77 µg/m3 7.21 µg/m3 0.15 mg/m3 18.82 °C 74.54 % 1,008.66 mbar 0.94 m/s 252.2 Deg 2.07 µg/m3 1 µg/m3
2022-11-20 04:00 14.58 µg/m3 0.43 µg/m3 50.9 µg/m3 12.14 µg/m3 8.12 µg/m3 0.17 mg/m3 19.02 °C 75.31 % 1,008.78 mbar 0.85 m/s 233.42 Deg 0.04 µg/m3 1.21 µg/m3
2022-11-20 03:00 12.97 µg/m3 0.42 µg/m3 53.15 µg/m3 12.85 µg/m3 8.59 µg/m3 0.17 mg/m3 19.31 °C 74.5 % 1,009.16 mbar 0.77 m/s 235.1 Deg -0.05 µg/m3 1.36 µg/m3
2022-11-20 02:00 15.87 µg/m3 0.35 µg/m3 54.87 µg/m3 14.81 µg/m3 10.03 µg/m3 0.19 mg/m3 19.69 °C 73.21 % 1,009.75 mbar 0.87 m/s 259.97 Deg 0.05 µg/m3 1.21 µg/m3
2022-11-20 01:00 17.56 µg/m3 0.4 µg/m3 55.99 µg/m3 16.87 µg/m3 8.82 µg/m3 0.21 mg/m3 19.97 °C 72.97 % 1,009.82 mbar 1.09 m/s 289.18 Deg 0.45 µg/m3 1.21 µg/m3
2022-11-20 00:00 21.04 µg/m3 0.45 µg/m3 50.68 µg/m3 16.35 µg/m3 10.48 µg/m3 0.2 mg/m3 20.42 °C 76.05 % 1,010.16 mbar 1.21 m/s 289.48 Deg 2.81 µg/m3 1.47 µg/m3
2022-11-19 23:00 16.98 µg/m3 0.46 µg/m3 43.99 µg/m3 120.54 µg/m3 41.17 µg/m3 0.2 mg/m3 21.59 °C 69.79 % 1,010.08 mbar 1.49 m/s 261.75 Deg 3.03 µg/m3 1.57 µg/m3
2022-11-19 22:00 12.83 µg/m3 0.35 µg/m3 47.09 µg/m3 79.38 µg/m3 29.83 µg/m3 0.18 mg/m3 22.39 °C 69.16 % 1,009.83 mbar 2.13 m/s 231.02 Deg 1.96 µg/m3 1.42 µg/m3
2022-11-19 21:00 12.87 µg/m3 0.38 µg/m3 53.39 µg/m3 150.15 µg/m3 54.05 µg/m3 0.17 mg/m3 22.77 °C 70.89 % 1,009.33 mbar 2.67 m/s 218.73 Deg 0.84 µg/m3 2.26 µg/m3
2022-11-19 20:00 16.56 µg/m3 0.39 µg/m3 57.63 µg/m3 131.26 µg/m3 47.04 µg/m3 0.19 mg/m3 22.78 °C 71.75 % 1,009.04 mbar 2.32 m/s 214.12 Deg 1.36 µg/m3 2.47 µg/m3
2022-11-19 19:00 21.7 µg/m3 0.28 µg/m3 68.99 µg/m3 41.78 µg/m3 27.86 µg/m3 0.25 mg/m3 22.74 °C 75.28 % 1,008.65 mbar 2.27 m/s 204.38 Deg 2.46 µg/m3 2.36 µg/m3
2022-11-19 18:00 22.01 µg/m3 0.24 µg/m3 61.82 µg/m3 38.67 µg/m3 20.85 µg/m3 0.23 mg/m3 22.85 °C 74.15 % 1,008.47 mbar 1.88 m/s 194.05 Deg 3.25 µg/m3 1.84 µg/m3
2022-11-19 17:00 17.65 µg/m3 0.25 µg/m3 62.84 µg/m3 25.33 µg/m3 16.02 µg/m3 0.2 mg/m3 22.89 °C 74.66 % 1,008.35 mbar 1.91 m/s 185.52 Deg 3.37 µg/m3 1.73 µg/m3
2022-11-19 16:00 16.08 µg/m3 0.3 µg/m3 55.98 µg/m3 36.1 µg/m3 14.03 µg/m3 0.19 mg/m3 23.41 °C 73.48 % 1,008.38 mbar 2.05 m/s 190.7 Deg 6.3 µg/m3 1.42 µg/m3
2022-11-19 15:00 12.1 µg/m3 0.26 µg/m3 55.45 µg/m3 30.47 µg/m3 11.38 µg/m3 0.14 mg/m3 23.71 °C 71.71 % 1,008.80 mbar 2.63 m/s 201.83 Deg 2.62 µg/m3 1.21 µg/m3
2022-11-19 14:00 13.77 µg/m3 0.27 µg/m3 52.98 µg/m3 29.59 µg/m3 10.32 µg/m3 0.14 mg/m3 24.01 °C 68.49 % 1,008.96 mbar 2.73 m/s 198.97 Deg 4.21 µg/m3 1.42 µg/m3
2022-11-19 13:00 11.96 µg/m3 0.32 µg/m3 56.47 µg/m3 29.29 µg/m3 10.08 µg/m3 0.14 mg/m3 24.01 °C 70.12 % 1,009.19 mbar 3.25 m/s 206.32 Deg 3.42 µg/m3 2.31 µg/m3
2022-11-19 12:00 15.52 µg/m3 0.28 µg/m3 67.74 µg/m3 38.69 µg/m3 14.64 µg/m3 0.2 mg/m3 23.93 °C 70.27 % 1,009.65 mbar 3.59 m/s 212.17 Deg 2.86 µg/m3 3.15 µg/m3
2022-11-19 11:00 17.35 µg/m3 0.35 µg/m3 60.35 µg/m3 46.12 µg/m3 18.71 µg/m3 0.26 mg/m3 23.69 °C 76.25 % 1,010.11 mbar 2.9 m/s 215.53 Deg 3.36 µg/m3 3.25 µg/m3
2022-11-19 10:00 19.16 µg/m3 0.37 µg/m3 54.33 µg/m3 55.87 µg/m3 24.53 µg/m3 0.29 mg/m3 23.22 °C 77.04 % 1,010.09 mbar 2.6 m/s 186.02 Deg 6.02 µg/m3 1.99 µg/m3
2022-11-19 09:00 23.77 µg/m3 0.51 µg/m3 52.79 µg/m3 39.74 µg/m3 26.49 µg/m3 0.27 mg/m3 22.64 °C 78.86 % 1,009.87 mbar 1.71 m/s 182.55 Deg 9.28 µg/m3 2.36 µg/m3
2022-11-19 08:00 31.28 µg/m3 0.49 µg/m3 39.85 µg/m3 32.13 µg/m3 21.42 µg/m3 0.3 mg/m3 21.6 °C 82.91 % 1,009.78 mbar 1.25 m/s 200 Deg 7.85 µg/m3 2.1 µg/m3
2022-11-19 07:00 36.13 µg/m3 0.67 µg/m3 29.06 µg/m3 30.56 µg/m3 20.37 µg/m3 0.3 mg/m3 20.9 °C 84.19 % 1,009.73 mbar 1.09 m/s 215.77 Deg 9.84 µg/m3 3.15 µg/m3
2022-11-19 06:00 37.11 µg/m3 0.66 µg/m3 21.58 µg/m3 36.95 µg/m3 24.63 µg/m3 0.36 mg/m3 20.65 °C 83.64 % 1,009.63 mbar 0.76 m/s 226.67 Deg 13.79 µg/m3 1.57 µg/m3
2022-11-19 05:00 16.76 µg/m3 0.43 µg/m3 39.96 µg/m3 37.78 µg/m3 25.19 µg/m3 0.17 mg/m3 20.94 °C 83.38 % 1,009.68 mbar 1.03 m/s 207.15 Deg 3.65 µg/m3 1.05 µg/m3
2022-11-19 04:00 10.08 µg/m3 0.34 µg/m3 50.17 µg/m3 33.14 µg/m3 22.09 µg/m3 0.17 mg/m3 20.67 °C 85.21 % 1,009.93 mbar 1.3 m/s 211.93 Deg -0.19 µg/m3 2.1 µg/m3
2022-11-19 03:00 27.11 µg/m3 0.82 µg/m3 23.23 µg/m3 31.51 µg/m3 21.01 µg/m3 0.51 mg/m3 20.05 °C 86.07 % 1,010.12 mbar 1 m/s 230.03 Deg 8.84 µg/m3 11.23 µg/m3
2022-11-19 02:00 53.08 µg/m3 1.52 µg/m3 4.9 µg/m3 32.41 µg/m3 21.61 µg/m3 1.13 mg/m3 19.44 °C 85.55 % 1,010.47 mbar 0.48 m/s 249.05 Deg 97.26 µg/m3 11.91 µg/m3
2022-11-19 01:00 55.84 µg/m3 1.59 µg/m3 5.46 µg/m3 33.97 µg/m3 22.65 µg/m3 1.08 mg/m3 19.58 °C 84.24 % 1,010.70 mbar 0.62 m/s 242.59 Deg 76.2 µg/m3 12.07 µg/m3
2022-11-19 00:00 57.85 µg/m3 1.57 µg/m3 5.05 µg/m3 33.85 µg/m3 22.58 µg/m3 1.1 mg/m3 19.8 °C 83.19 % 1,011.09 mbar 0.82 m/s 237 Deg 80.82 µg/m3 13.28 µg/m3
2022-11-18 23:00 61.85 µg/m3 1.91 µg/m3 6.04 µg/m3 39.02 µg/m3 26.01 µg/m3 1.2 mg/m3 20.27 °C 80.29 % 1,011.26 mbar 0.65 m/s 234.6 Deg 105.97 µg/m3 11.18 µg/m3
2022-11-18 22:00 66.59 µg/m3 1.14 µg/m3 6.24 µg/m3 34.71 µg/m3 23.14 µg/m3 0.93 mg/m3 20.89 °C 76 % 1,011.38 mbar 0.52 m/s 229.5 Deg 53.54 µg/m3 4.25 µg/m3
2022-11-18 21:00 38.13 µg/m3 0.43 µg/m3 31.06 µg/m3 20.2 µg/m3 13.47 µg/m3 0.35 mg/m3 21.26 °C 74.2 % 1,011.45 mbar 0.96 m/s 215.68 Deg 4.55 µg/m3 2.78 µg/m3
2022-11-18 20:00 32.69 µg/m3 0.37 µg/m3 32.92 µg/m3 26.71 µg/m3 17.81 µg/m3 0.34 mg/m3 21.38 °C 79.36 % 1,011.25 mbar 1.24 m/s 223.57 Deg 4.75 µg/m3 2.57 µg/m3
2022-11-18 19:00 30.58 µg/m3 0.39 µg/m3 36.44 µg/m3 29.94 µg/m3 19.96 µg/m3 0.32 mg/m3 21.65 °C 79.29 % 1,010.92 mbar 1.6 m/s 216.65 Deg 3.4 µg/m3 2.52 µg/m3
2022-11-18 18:00 35.03 µg/m3 0.44 µg/m3 33.01 µg/m3 33.43 µg/m3 22.29 µg/m3 0.35 mg/m3 21.92 °C 77.88 % 1,010.47 mbar 1.5 m/s 221.57 Deg 5.7 µg/m3 1.94 µg/m3
2022-11-18 17:00 26.39 µg/m3 0.37 µg/m3 47.64 µg/m3 38.52 µg/m3 20.7 µg/m3 0.25 mg/m3 22.57 °C 74.18 % 1,010.20 mbar 2.72 m/s 221.62 Deg 4.13 µg/m3 1.57 µg/m3
2022-11-18 16:00 25.86 µg/m3 0.34 µg/m3 50.47 µg/m3 48.91 µg/m3 16.16 µg/m3 0.2 mg/m3 23.26 °C 68.69 % 1,010.02 mbar 3.11 m/s 224.38 Deg 6.99 µg/m3 1.31 µg/m3
2022-11-18 15:00 20.14 µg/m3 0.34 µg/m3 57.91 µg/m3 31.89 µg/m3 10.9 µg/m3 0.18 mg/m3 23.71 °C 66.47 % 1,010.07 mbar 3.44 m/s 226.2 Deg 5.05 µg/m3 1.57 µg/m3
2022-11-18 14:00 21.9 µg/m3 0.32 µg/m3 55.16 µg/m3 29.27 µg/m3 9.15 µg/m3 0.19 mg/m3 24.12 °C 61.75 % 1,009.94 mbar 3.24 m/s 239.12 Deg 6.95 µg/m3 1.36 µg/m3
2022-11-18 13:00 18.25 µg/m3 0.37 µg/m3 59.2 µg/m3 26.23 µg/m3 8.62 µg/m3 0.17 mg/m3 24.06 °C 61.33 % 1,010.14 mbar 3.86 m/s 245.77 Deg 5.87 µg/m3 1.42 µg/m3
2022-11-18 12:00 21.07 µg/m3 0.36 µg/m3 56.25 µg/m3 30.94 µg/m3 9.03 µg/m3 0.17 mg/m3 24.02 °C 61.67 % 1,010.70 mbar 3.56 m/s 238.98 Deg 6.99 µg/m3 1.36 µg/m3
2022-11-18 11:00 23.68 µg/m3 0.36 µg/m3 53.28 µg/m3 30.7 µg/m3 8.93 µg/m3 0.19 mg/m3 23.69 °C 63.73 % 1,011.12 mbar 3.31 m/s 234.77 Deg 7.98 µg/m3 1.31 µg/m3
2022-11-18 10:00 21.46 µg/m3 0.4 µg/m3 56.42 µg/m3 24.9 µg/m3 8.27 µg/m3 0.22 mg/m3 23.02 °C 68.37 % 1,010.91 mbar 3.31 m/s 223.5 Deg 6.05 µg/m3 1.84 µg/m3
2022-11-18 09:00 33.59 µg/m3 0.42 µg/m3 43.33 µg/m3 23.54 µg/m3 8.8 µg/m3 0.28 mg/m3 22.25 °C 72.38 % 1,010.71 mbar 2.32 m/s 222.15 Deg 10.04 µg/m3 2.89 µg/m3
2022-11-18 08:00 47.77 µg/m3 0.52 µg/m3 25.68 µg/m3 14.28 µg/m3 9.53 µg/m3 0.41 mg/m3 21.25 °C 74.65 % 1,010.20 mbar 1.67 m/s 220.68 Deg 19.45 µg/m3 2.05 µg/m3
2022-11-18 07:00 40.89 µg/m3 0.44 µg/m3 25.47 µg/m3 11.8 µg/m3 7.91 µg/m3 0.31 mg/m3 20.42 °C 78.17 % 1,009.88 mbar 1.44 m/s 216.5 Deg 11.31 µg/m3 2.15 µg/m3
2022-11-18 06:00 32.67 µg/m3 0.33 µg/m3 26.04 µg/m3 12.39 µg/m3 8.32 µg/m3 0.29 mg/m3 20.22 °C 76.64 % 1,009.63 mbar 1.03 m/s 230.12 Deg 7.51 µg/m3 1.05 µg/m3
2022-11-18 05:00 10.32 µg/m3 0.22 µg/m3 50.8 µg/m3 10.18 µg/m3 6.98 µg/m3 0.16 mg/m3 20.45 °C 75.9 % 1,009.65 mbar 1.62 m/s 243.72 Deg 0.44 µg/m3 0.68 µg/m3
2022-11-18 04:00 4.56 µg/m3 0.27 µg/m3 64.81 µg/m3 7.82 µg/m3 5.37 µg/m3 0.14 mg/m3 20.75 °C 76.43 % 1,009.60 mbar 1.86 m/s 231.9 Deg 0.14 µg/m3 0.79 µg/m3
2022-11-18 03:00 6.73 µg/m3 0.31 µg/m3 65.76 µg/m3 8.46 µg/m3 5.77 µg/m3 0.15 mg/m3 20.33 °C 75.5 % 1,009.89 mbar 1.45 m/s 222.82 Deg -0.26 µg/m3 1.52 µg/m3
2022-11-18 02:00 38.67 µg/m3 0.61 µg/m3 28.45 µg/m3 14.43 µg/m3 9.71 µg/m3 0.32 mg/m3 19.33 °C 78.47 % 1,009.99 mbar 0.78 m/s 218.26 Deg 17.27 µg/m3 6.14 µg/m3
2022-11-18 01:00 52.45 µg/m3 1 µg/m3 9.15 µg/m3 22.94 µg/m3 15.36 µg/m3 0.6 mg/m3 18.94 °C 78.16 % 1,010.34 mbar 0.36 m/s 244.98 Deg 36.09 µg/m3 5.93 µg/m3
2022-11-18 00:00 56.67 µg/m3 0.86 µg/m3 7.02 µg/m3 23.51 µg/m3 15.67 µg/m3 0.65 mg/m3 18.94 °C 78.77 % 1,010.63 mbar 0.51 m/s 221.33 Deg 32.61 µg/m3 4.36 µg/m3
2022-11-17 23:00 44.08 µg/m3 0.61 µg/m3 21.29 µg/m3 20.6 µg/m3 13.73 µg/m3 0.4 mg/m3 19.48 °C 77.13 % 1,010.77 mbar 0.6 m/s 217.47 Deg 14.15 µg/m3 3.57 µg/m3
2022-11-17 22:00 47.78 µg/m3 0.41 µg/m3 23.25 µg/m3 22.81 µg/m3 15.21 µg/m3 0.4 mg/m3 19.87 °C 76.15 % 1,010.68 mbar 0.61 m/s 219.53 Deg 7.98 µg/m3 3.25 µg/m3
2022-11-17 21:00 41.48 µg/m3 0.31 µg/m3 33.68 µg/m3 18.6 µg/m3 12.41 µg/m3 0.33 mg/m3 19.95 °C 74.79 % 1,010.47 mbar 0.85 m/s 216.6 Deg 3.2 µg/m3 2.78 µg/m3
2022-11-17 20:00 53.06 µg/m3 0.43 µg/m3 27.71 µg/m3 22.98 µg/m3 15.52 µg/m3 0.41 mg/m3 20.25 °C 74.79 % 1,010.22 mbar 1.23 m/s 244.58 Deg 9.64 µg/m3 3.83 µg/m3
2022-11-17 19:00 56.22 µg/m3 0.52 µg/m3 21.73 µg/m3 20.89 µg/m3 13.98 µg/m3 0.44 mg/m3 20.5 °C 76.25 % 1,009.83 mbar 1.29 m/s 240.78 Deg 13.64 µg/m3 3.99 µg/m3
2022-11-17 18:00 57.41 µg/m3 0.6 µg/m3 18.56 µg/m3 20.13 µg/m3 13.43 µg/m3 0.48 mg/m3 20.79 °C 75.46 % 1,009.43 mbar 1.15 m/s 237.2 Deg 18.19 µg/m3 2.89 µg/m3
2022-11-17 17:00 48.12 µg/m3 0.53 µg/m3 29.62 µg/m3 21.7 µg/m3 11.17 µg/m3 0.37 mg/m3 20.99 °C 72.82 % 1,009.02 mbar 1.82 m/s 240.12 Deg 13.85 µg/m3 2.36 µg/m3
2022-11-17 16:00 36.91 µg/m3 0.43 µg/m3 42.45 µg/m3 20.23 µg/m3 9.06 µg/m3 0.27 mg/m3 21.77 °C 69.31 % 1,008.74 mbar 2.66 m/s 245.82 Deg 12.62 µg/m3 1.73 µg/m3
2022-11-17 15:00 26.63 µg/m3 0.34 µg/m3 48.74 µg/m3 17.92 µg/m3 8.54 µg/m3 0.25 mg/m3 21.93 °C 73.07 % 1,008.46 mbar 2.89 m/s 252.16 Deg 7.55 µg/m3 1.78 µg/m3
2022-11-17 14:00 32.58 µg/m3 0.48 µg/m3 38.02 µg/m3 14.39 µg/m3 8.43 µg/m3 0.27 mg/m3 20.8 °C 78.6 % 1,008.75 mbar 2.08 m/s 236.47 Deg 13.24 µg/m3 1.73 µg/m3
2022-11-17 13:00 25.85 µg/m3 0.43 µg/m3 52.86 µg/m3 µg/m3 µg/m3 0.22 mg/m3 20.95 °C 73.97 % 1,008.93 mbar 3.22 m/s 232.6 Deg 6.35 µg/m3 1.73 µg/m3
2022-11-17 12:00 24.71 µg/m3 0.35 µg/m3 65.6 µg/m3 µg/m3 µg/m3 0.21 mg/m3 23.02 °C 62.85 % 1,008.98 mbar 2.75 m/s 223.52 Deg 5.1 µg/m3 1.89 µg/m3
2022-11-17 11:00 28.44 µg/m3 0.49 µg/m3 59.33 µg/m3 µg/m3 µg/m3 0.23 mg/m3 22.91 °C 61.69 % 1,009.40 mbar 2.39 m/s 223.77 Deg 6.37 µg/m3 3.2 µg/m3
2022-11-17 10:00 64.46 µg/m3 1.21 µg/m3 30.35 µg/m3 µg/m3 µg/m3 0.54 mg/m3 22 °C 67.77 % 1,009.33 mbar 1.39 m/s 221.48 Deg 47.27 µg/m3 14.28 µg/m3
2022-11-17 09:00 91.46 µg/m3 2.69 µg/m3 10.07 µg/m3 µg/m3 µg/m3 1.22 mg/m3 19.51 °C 74.7 % 1,009.10 mbar 1.02 m/s 226.4 Deg 152.39 µg/m3 15.33 µg/m3
2022-11-17 08:00 82.4 µg/m3 2.83 µg/m3 7.8 µg/m3 µg/m3 µg/m3 1.27 mg/m3 18.26 °C 79.16 % 1,008.75 mbar 0.89 m/s 234.77 Deg 168.51 µg/m3 14.07 µg/m3
2022-11-17 07:00 62.92 µg/m3 1.77 µg/m3 6.69 µg/m3 µg/m3 µg/m3 0.84 mg/m3 17.34 °C 83.1 % 1,008.23 mbar 1.11 m/s 233.83 Deg 100.89 µg/m3 6.4 µg/m3
2022-11-17 06:00 44.61 µg/m3 0.82 µg/m3 6.23 µg/m3 µg/m3 µg/m3 0.5 mg/m3 17.31 °C 85.6 % 1,008.04 mbar 0.91 m/s 239.85 Deg 36.63 µg/m3 3.52 µg/m3
2022-11-17 05:00 26.53 µg/m3 0.48 µg/m3 14.41 µg/m3 µg/m3 µg/m3 0.26 mg/m3 17.43 °C 86.35 % 1,008.13 mbar 0.95 m/s 234.38 Deg 7.59 µg/m3 2.36 µg/m3
2022-11-17 04:00 18.29 µg/m3 0.43 µg/m3 22.84 µg/m3 µg/m3 µg/m3 0.2 mg/m3 17.5 °C 86.1 % 1,008.31 mbar 1 m/s 233.68 Deg 0.78 µg/m3 3.62 µg/m3
2022-11-17 03:00 29.37 µg/m3 0.59 µg/m3 11.13 µg/m3 µg/m3 µg/m3 0.35 mg/m3 17.87 °C 84.17 % 1,008.46 mbar 0.48 m/s 244.68 Deg 6.46 µg/m3 4.99 µg/m3
2022-11-17 02:00 43.62 µg/m3 0.7 µg/m3 4.8 µg/m3 µg/m3 µg/m3 0.46 mg/m3 18.3 °C 82.64 % 1,008.55 mbar 0.23 m/s 252.83 Deg 23.45 µg/m3 7.4 µg/m3
2022-11-17 01:00 51.46 µg/m3 1.15 µg/m3 5.83 µg/m3 µg/m3 µg/m3 0.78 mg/m3 18.66 °C 81.17 % 1,008.69 mbar 0.25 m/s 217.08 Deg 48.72 µg/m3 7.98 µg/m3
2022-11-17 00:00 54.56 µg/m3 0.95 µg/m3 5.8 µg/m3 µg/m3 µg/m3 0.72 mg/m3 18.74 °C 81.16 % 1,009.06 mbar 0.46 m/s 243.7 Deg 39.85 µg/m3 7.09 µg/m3
2022-11-16 23:00 57.11 µg/m3 1.01 µg/m3 6.79 µg/m3 µg/m3 µg/m3 0.78 mg/m3 18.91 °C 81.04 % 1,009.26 mbar 0.88 m/s 237.95 Deg 43.5 µg/m3 8.98 µg/m3
2022-11-16 22:00 61.19 µg/m3 1.1 µg/m3 5.91 µg/m3 µg/m3 µg/m3 0.78 mg/m3 19.09 °C 80.22 % 1,009.50 mbar 0.95 m/s 240.33 Deg 52.41 µg/m3 8.24 µg/m3
2022-11-16 21:00 68.75 µg/m3 1.46 µg/m3 5.7 µg/m3 µg/m3 µg/m3 1.02 mg/m3 19.51 °C 79.04 % 1,009.54 mbar 0.96 m/s 241.35 Deg 81.03 µg/m3 12.28 µg/m3
2022-11-16 20:00 73.63 µg/m3 1.44 µg/m3 7.8 µg/m3 µg/m3 µg/m3 0.98 mg/m3 20.16 °C 76.73 % 1,009.45 mbar 0.66 m/s 232.32 Deg 82.37 µg/m3 5.09 µg/m3
2022-11-16 19:00 61.34 µg/m3 0.48 µg/m3 14.76 µg/m3 µg/m3 µg/m3 0.47 mg/m3 20.73 °C 74.84 % 1,009.48 mbar 0.61 m/s 174.62 Deg 12.13 µg/m3 4.57 µg/m3
2022-11-16 18:00 62.11 µg/m3 0.51 µg/m3 18.42 µg/m3 µg/m3 µg/m3 0.43 mg/m3 21.38 °C 71.38 % 1,009.51 mbar 0.71 m/s 229.35 Deg 11.78 µg/m3 2.78 µg/m3
2022-11-16 17:00 35.15 µg/m3 0.36 µg/m3 46.03 µg/m3 µg/m3 µg/m3 0.26 mg/m3 22.05 °C 67.51 % 1,009.31 mbar 1.86 m/s 220.65 Deg 4.78 µg/m3 1.89 µg/m3
2022-11-16 16:00 32.32 µg/m3 0.31 µg/m3 53.29 µg/m3 µg/m3 µg/m3 0.19 mg/m3 22.94 °C 60.29 % 1,009.40 mbar 2.48 m/s 221.82 Deg 7.34 µg/m3 1.47 µg/m3
2022-11-16 15:00 23.37 µg/m3 0.3 µg/m3 58.01 µg/m3 µg/m3 µg/m3 0.16 mg/m3 23.28 °C 60.35 % 1,009.58 mbar 2.85 m/s 222.18 Deg 5.97 µg/m3 1.42 µg/m3
2022-11-16 14:00 20.99 µg/m3 0.31 µg/m3 57.18 µg/m3 µg/m3 µg/m3 0.15 mg/m3 23.57 °C 58.25 % 1,010.04 mbar 2.96 m/s 223.75 Deg 6.1 µg/m3 1.31 µg/m3
2022-11-16 13:00 20.9 µg/m3 0.43 µg/m3 56.77 µg/m3 µg/m3 µg/m3 0.15 mg/m3 23.67 °C 57.61 % 1,010.67 mbar 3.17 m/s 218.15 Deg 5.72 µg/m3 2.15 µg/m3
2022-11-16 12:00 20.06 µg/m3 0.34 µg/m3 67.89 µg/m3 µg/m3 µg/m3 0.2 mg/m3 23.6 °C 61.2 % 1,011.72 mbar 2.89 m/s 210.7 Deg 4.39 µg/m3 2.99 µg/m3
2022-11-16 11:00 22.49 µg/m3 0.36 µg/m3 64.08 µg/m3 µg/m3 µg/m3 0.21 mg/m3 23.49 °C 61 % 1,012.49 mbar 2.55 m/s 206.5 Deg 5.09 µg/m3 2.73 µg/m3
2022-11-16 10:00 27.52 µg/m3 0.38 µg/m3 54.61 µg/m3 28.11 µg/m3 11.36 µg/m3 0.25 mg/m3 23.03 °C 63.24 % 1,012.81 mbar 2.23 m/s 205.67 Deg 6.2 µg/m3 3.94 µg/m3
2022-11-16 09:00 47.28 µg/m3 0.54 µg/m3 37.58 µg/m3 34.32 µg/m3 12.05 µg/m3 0.36 mg/m3 22.27 °C 67.89 % 1,012.92 mbar 1.27 m/s 205.3 Deg 12.63 µg/m3 5.93 µg/m3
2022-11-16 08:00 73.07 µg/m3 0.98 µg/m3 17.86 µg/m3 27.44 µg/m3 14.49 µg/m3 0.58 mg/m3 20.86 °C 72.38 % 1,012.98 mbar 1.1 m/s 219.73 Deg 42.08 µg/m3 8.4 µg/m3
2022-11-16 07:00 79.04 µg/m3 1.13 µg/m3 10.48 µg/m3 22.05 µg/m3 14.88 µg/m3 0.74 mg/m3 20.05 °C 73.28 % 1,013.32 mbar 0.99 m/s 225.18 Deg 60.27 µg/m3 4.62 µg/m3
2022-11-16 06:00 38.02 µg/m3 0.43 µg/m3 39.19 µg/m3 14.16 µg/m3 9.12 µg/m3 0.3 mg/m3 20.12 °C 71.01 % 1,013.56 mbar 1.42 m/s 224.33 Deg 7.84 µg/m3 2.31 µg/m3
2022-11-16 05:00 31.33 µg/m3 0.45 µg/m3 30.92 µg/m3 10.79 µg/m3 7.77 µg/m3 0.19 mg/m3 19.84 °C 71.59 % 1,013.72 mbar 0.55 m/s 273.8 Deg 7.56 µg/m3 1.99 µg/m3
2022-11-16 04:00 18.98 µg/m3 0.5 µg/m3 36.54 µg/m3 9.73 µg/m3 7.32 µg/m3 0.17 mg/m3 19.63 °C 72.88 % 1,014.26 mbar 0.88 m/s 235.7 Deg 5.91 µg/m3 1.68 µg/m3
2022-11-16 03:00 13 µg/m3 0.35 µg/m3 50.09 µg/m3 9.86 µg/m3 7.74 µg/m3 0.16 mg/m3 19.66 °C 71.65 % 1,014.86 mbar 1.35 m/s 228.98 Deg -0.15 µg/m3 2.41 µg/m3
2022-11-16 02:00 37.05 µg/m3 0.62 µg/m3 22.38 µg/m3 13.01 µg/m3 9.6 µg/m3 0.3 mg/m3 19.53 °C 68.85 % 1,015.44 mbar 0.9 m/s 225.93 Deg 13.89 µg/m3 5.88 µg/m3
2022-11-16 01:00 54.3 µg/m3 1.11 µg/m3 5.56 µg/m3 21.82 µg/m3 15.34 µg/m3 0.72 mg/m3 18.45 °C 77.35 % 1,016.13 mbar 0.93 m/s 239.5 Deg 47.11 µg/m3 12.28 µg/m3
2022-11-16 00:00 61.97 µg/m3 1.65 µg/m3 5.8 µg/m3 32.94 µg/m3 22.32 µg/m3 1.06 mg/m3 18.28 °C 79.02 % 1,016.74 mbar 0.81 m/s 245.88 Deg 80.97 µg/m3 14.49 µg/m3
2022-11-15 23:00 65.82 µg/m3 2.32 µg/m3 7.76 µg/m3 42.74 µg/m3 28.68 µg/m3 1.34 mg/m3 18.11 °C 81.24 % 1,017.21 mbar 0.95 m/s 240.18 Deg 133.85 µg/m3 19.74 µg/m3
2022-11-15 22:00 73.07 µg/m3 2.62 µg/m3 7.95 µg/m3 49.66 µg/m3 33.1 µg/m3 1.44 mg/m3 19.02 °C 77.87 % 1,017.70 mbar 0.55 m/s 246.18 Deg 153.68 µg/m3 21.21 µg/m3
2022-11-15 21:00 78.58 µg/m3 3 µg/m3 7.7 µg/m3 50.53 µg/m3 33.69 µg/m3 1.61 mg/m3 19.27 °C 77.56 % 1,017.84 mbar 0.69 m/s 238.17 Deg 183.76 µg/m3 22.1 µg/m3
2022-11-15 20:00 79.48 µg/m3 3.31 µg/m3 8.75 µg/m3 52.75 µg/m3 35.17 µg/m3 1.79 mg/m3 19.76 °C 76.06 % 1,017.94 mbar 0.61 m/s 235.27 Deg 205.86 µg/m3 23.78 µg/m3
2022-11-15 19:00 79.15 µg/m3 2.61 µg/m3 6.95 µg/m3 49.75 µg/m3 31.67 µg/m3 1.54 mg/m3 20.69 °C 71.21 % 1,017.96 mbar 0.45 m/s 214.18 Deg 155.48 µg/m3 10.92 µg/m3
2022-11-15 18:00 68.1 µg/m3 0.83 µg/m3 6.64 µg/m3 40.7 µg/m3 14.87 µg/m3 0.59 mg/m3 21.28 °C 67.75 % 1,017.79 mbar 0.58 m/s 192.63 Deg 28.04 µg/m3 4.09 µg/m3
2022-11-15 17:00 50.06 µg/m3 0.59 µg/m3 22.61 µg/m3 24.9 µg/m3 8.98 µg/m3 0.33 mg/m3 21.94 °C 64.35 % 1,017.89 mbar 1.29 m/s 211.83 Deg 11.81 µg/m3 2.26 µg/m3
2022-11-15 16:00 29.3 µg/m3 0.49 µg/m3 42.55 µg/m3 14 µg/m3 5.39 µg/m3 0.21 mg/m3 22.51 °C 61.1 % 1,018.20 mbar 1.97 m/s 215 Deg 8.45 µg/m3 1.47 µg/m3
2022-11-15 15:00 24.96 µg/m3 0.49 µg/m3 46.5 µg/m3 12.32 µg/m3 4.71 µg/m3 0.16 mg/m3 22.82 °C 59.52 % 1,018.39 mbar 2.25 m/s 220.97 Deg 8.03 µg/m3 1.42 µg/m3
2022-11-15 14:00 21.87 µg/m3 0.47 µg/m3 49.74 µg/m3 11.41 µg/m3 4.48 µg/m3 0.16 mg/m3 22.92 °C 59.08 % 1,018.88 mbar 2.28 m/s 218.68 Deg 6.62 µg/m3 1.57 µg/m3
2022-11-15 13:00 23.53 µg/m3 0.47 µg/m3 49.97 µg/m3 13.58 µg/m3 5.17 µg/m3 0.16 mg/m3 22.87 °C 59.43 % 1,019.47 mbar 1.97 m/s 221.07 Deg 6.94 µg/m3 1.73 µg/m3
2022-11-15 12:00 27.45 µg/m3 0.52 µg/m3 56.83 µg/m3 16.95 µg/m3 7.2 µg/m3 0.2 mg/m3 22.59 °C 63.79 % 1,020.19 mbar 1.88 m/s 224.13 Deg 5.9 µg/m3 2.41 µg/m3
2022-11-15 11:00 38.97 µg/m3 0.64 µg/m3 51.38 µg/m3 18.99 µg/m3 8.32 µg/m3 0.24 mg/m3 22.41 °C 63.74 % 1,020.61 mbar 1.76 m/s 219.28 Deg 7.95 µg/m3 7.4 µg/m3
2022-11-15 10:00 94.64 µg/m3 1.91 µg/m3 14.37 µg/m3 58.53 µg/m3 24.21 µg/m3 0.87 mg/m3 21.89 °C 69.8 % 1,020.77 mbar 0.8 m/s 195.78 Deg 96.03 µg/m3 20.31 µg/m3
2022-11-15 09:00 105.01 µg/m3 3.49 µg/m3 9.84 µg/m3 59.35 µg/m3 33.25 µg/m3 1.71 mg/m3 19.58 °C 77.87 % 1,020.71 mbar 0.35 m/s 222.44 Deg 204.65 µg/m3 25.19 µg/m3
2022-11-15 08:00 82.97 µg/m3 4.6 µg/m3 12.2 µg/m3 46.02 µg/m3 31.04 µg/m3 2.03 mg/m3 16.7 °C 86.68 % 1,020.54 mbar 0.61 m/s 241.35 Deg 288.44 µg/m3 26.19 µg/m3
2022-11-15 07:00 57.3 µg/m3 3.14 µg/m3 10.55 µg/m3 31.06 µg/m3 22.09 µg/m3 1.42 mg/m3 15.74 °C 89.19 % 1,020.36 mbar 0.7 m/s 242.15 Deg 185.81 µg/m3 12.28 µg/m3
2022-11-15 06:00 39.14 µg/m3 1.76 µg/m3 6.81 µg/m3 22.52 µg/m3 17.03 µg/m3 0.74 mg/m3 15.78 °C 89.1 % 1,020.41 mbar 0.64 m/s 247.88 Deg 86.54 µg/m3 7.14 µg/m3
2022-11-15 05:00 34.67 µg/m3 1.02 µg/m3 5.99 µg/m3 18.4 µg/m3 14.18 µg/m3 0.43 mg/m3 16.04 °C 88.72 % 1,020.50 mbar 0.54 m/s 244.55 Deg 37.48 µg/m3 6.14 µg/m3
2022-11-15 04:00 32.3 µg/m3 0.84 µg/m3 6.93 µg/m3 18.91 µg/m3 14.24 µg/m3 0.37 mg/m3 16.21 °C 88.38 % 1,020.66 mbar 0.2 m/s 257.73 Deg 15.31 µg/m3 6.09 µg/m3
2022-11-15 03:00 35.4 µg/m3 0.89 µg/m3 6.64 µg/m3 19.71 µg/m3 14.53 µg/m3 0.47 mg/m3 16.26 °C 88.07 % 1,020.85 mbar 0.57 m/s 252.79 Deg 16.05 µg/m3 6.51 µg/m3
2022-11-15 02:00 39.07 µg/m3 1.07 µg/m3 6.23 µg/m3 22.43 µg/m3 15.82 µg/m3 0.59 mg/m3 16.39 °C 87.87 % 1,021.15 mbar 0.4 m/s 252.89 Deg 34.55 µg/m3 9.08 µg/m3
2022-11-15 01:00 45 µg/m3 1.77 µg/m3 6.82 µg/m3 26.76 µg/m3 18.32 µg/m3 0.92 mg/m3 16.51 °C 88.2 % 1,021.34 mbar 0.47 m/s 245.77 Deg 75.33 µg/m3 13.65 µg/m3
2022-11-15 00:00 46.26 µg/m3 1.86 µg/m3 7.24 µg/m3 28.26 µg/m3 19.18 µg/m3 0.99 mg/m3 16.87 °C 88.15 % 1,021.63 mbar 0.63 m/s 241.68 Deg 83.74 µg/m3 16.01 µg/m3
2022-11-14 23:00 48.3 µg/m3 2.29 µg/m3 7.88 µg/m3 36.67 µg/m3 24.62 µg/m3 1.21 mg/m3 17.18 °C 87.98 % 1,021.85 mbar 0.78 m/s 246.73 Deg 115.1 µg/m3 17.53 µg/m3
2022-11-14 22:00 57.27 µg/m3 2.89 µg/m3 8.25 µg/m3 44.28 µg/m3 29.54 µg/m3 1.48 mg/m3 17.68 °C 85.75 % 1,022.04 mbar 0.72 m/s 247.75 Deg 165.72 µg/m3 19.11 µg/m3
2022-11-14 21:00 65.56 µg/m3 3.06 µg/m3 6.89 µg/m3 44.18 µg/m3 29.45 µg/m3 1.63 mg/m3 17.93 °C 84.04 % 1,022.05 mbar 0.97 m/s 237.35 Deg 174.58 µg/m3 26.66 µg/m3
2022-11-14 20:00 78.87 µg/m3 3.94 µg/m3 7.83 µg/m3 48.89 µg/m3 32.6 µg/m3 2 mg/m3 18.13 °C 82.36 % 1,021.92 mbar 0.74 m/s 238.48 Deg 253.04 µg/m3 18.58 µg/m3
2022-11-14 19:00 81.74 µg/m3 2.95 µg/m3 5.33 µg/m3 39.56 µg/m3 26.37 µg/m3 1.56 mg/m3 18.71 °C 78.52 % 1,021.75 mbar 0.99 m/s 235.03 Deg 171.21 µg/m3 20.73 µg/m3
2022-11-14 18:00 84.71 µg/m3 2.68 µg/m3 5.4 µg/m3 39.8 µg/m3 22.56 µg/m3 1.43 mg/m3 19.74 °C 72.19 % 1,021.39 mbar 0.56 m/s 236.96 Deg 164.74 µg/m3 5.25 µg/m3
2022-11-14 17:00 66.85 µg/m3 0.88 µg/m3 10.49 µg/m3 27.62 µg/m3 10.45 µg/m3 0.55 mg/m3 20.64 °C 66.5 % 1,021.27 mbar 0.57 m/s 184.51 Deg 33.92 µg/m3 4.41 µg/m3
2022-11-14 16:00 60.9 µg/m3 0.79 µg/m3 19.39 µg/m3 18.48 µg/m3 8.61 µg/m3 0.39 mg/m3 21.41 °C 62.47 % 1,021.42 mbar 0.68 m/s 156.58 Deg 32.47 µg/m3 3.62 µg/m3
2022-11-14 15:00 60.51 µg/m3 0.91 µg/m3 26.09 µg/m3 14.24 µg/m3 7.46 µg/m3 0.42 mg/m3 20.53 °C 68.25 % 1,021.46 mbar 0.8 m/s 139.92 Deg 43.89 µg/m3 7.93 µg/m3
2022-11-14 14:00 54.62 µg/m3 0.84 µg/m3 21.07 µg/m3 13.98 µg/m3 9.74 µg/m3 0.42 mg/m3 19.11 °C 77.38 % 1,021.66 mbar 0.75 m/s 162.13 Deg 34.53 µg/m3 2.68 µg/m3
2022-11-14 13:00 50.71 µg/m3 1.07 µg/m3 31.56 µg/m3 11.56 µg/m3 8.35 µg/m3 0.4 mg/m3 18.03 °C 81.56 % 1,022.39 mbar 1.49 m/s 78.33 Deg 43.89 µg/m3 30.23 µg/m3
2022-11-14 12:00 38.41 µg/m3 0.6 µg/m3 36.82 µg/m3 14.16 µg/m3 9.93 µg/m3 0.23 mg/m3 17.99 °C 81.81 % 1,023.35 mbar 1.67 m/s 111.38 Deg 5.72 µg/m3 58.05 µg/m3
2022-11-14 11:00 0 µg/m3 0 µg/m3 0 µg/m3 15.33 µg/m3 9.62 µg/m3 0 mg/m3 18.58 °C 77.81 % 1,023.07 mbar 2.04 m/s 160.1 Deg 0 µg/m3 57.68 µg/m3
2022-11-14 10:00 0 µg/m3 0 µg/m3 0 µg/m3 35.26 µg/m3 13.23 µg/m3 0 mg/m3 20.54 °C 76.68 % 1,022.55 mbar 2.29 m/s 47.02 Deg 0 µg/m3 29.08 µg/m3
2022-11-14 09:00 0 µg/m3 0 µg/m3 0 µg/m3 54.58 µg/m3 30.79 µg/m3 0 mg/m3 19.91 °C 79.07 % 1,022.10 mbar 0.24 m/s 121.75 Deg 0 µg/m3 42.25 µg/m3
2022-11-14 08:00 100.9 µg/m3 6.76 µg/m3 6.07 µg/m3 50.64 µg/m3 33.86 µg/m3 2.62 mg/m3 18.14 °C 84.23 % 1,021.55 mbar 0.47 m/s 217.67 Deg 479.75 µg/m3 26.3 µg/m3
2022-11-14 07:00 64.76 µg/m3 3.78 µg/m3 4.83 µg/m3 35.3 µg/m3 24.26 µg/m3 1.61 mg/m3 17.08 °C 87.1 % 1,021.17 mbar 1.04 m/s 241.33 Deg 245.85 µg/m3 11.23 µg/m3
2022-11-14 06:00 42.22 µg/m3 1.77 µg/m3 3.75 µg/m3 23.5 µg/m3 16.43 µg/m3 0.74 mg/m3 17.02 °C 87.42 % 1,021.06 mbar 1.25 m/s 243.58 Deg 89.78 µg/m3 6.3 µg/m3
2022-11-14 05:00 32.16 µg/m3 1.08 µg/m3 4.8 µg/m3 19.22 µg/m3 14.78 µg/m3 0.4 mg/m3 16.75 °C 87.89 % 1,021.05 mbar 0.88 m/s 243.6 Deg 34.3 µg/m3 5.98 µg/m3
2022-11-14 04:00 25.93 µg/m3 0.76 µg/m3 8.72 µg/m3 17.25 µg/m3 12.96 µg/m3 0.37 mg/m3 16.79 °C 87.78 % 1,021.04 mbar 0.45 m/s 245.23 Deg 12.66 µg/m3 6.14 µg/m3
2022-11-14 03:00 32.24 µg/m3 0.79 µg/m3 7.22 µg/m3 17.43 µg/m3 13.3 µg/m3 0.45 mg/m3 17.02 °C 86.76 % 1,021.19 mbar 0.55 m/s 252.48 Deg 13.11 µg/m3 6.14 µg/m3
2022-11-14 02:00 39.88 µg/m3 0.79 µg/m3 3.29 µg/m3 17.52 µg/m3 12.68 µg/m3 0.46 mg/m3 17.37 °C 84.72 % 1,021.40 mbar 0.62 m/s 248.13 Deg 11.13 µg/m3 6.09 µg/m3
2022-11-14 01:00 46.94 µg/m3 1.02 µg/m3 2.9 µg/m3 18.37 µg/m3 13.14 µg/m3 0.58 mg/m3 17.9 °C 81.87 % 1,021.35 mbar 0.98 m/s 244.55 Deg 26.28 µg/m3 11.28 µg/m3
2022-11-14 00:00 55.64 µg/m3 1.65 µg/m3 1.99 µg/m3 29.51 µg/m3 19.76 µg/m3 0.93 mg/m3 17.69 °C 82.28 % 1,021.44 mbar 0.59 m/s 249.45 Deg 70.9 µg/m3 12.65 µg/m3
2022-11-13 23:00 51.71 µg/m3 1.85 µg/m3 3.49 µg/m3 40.65 µg/m3 27.33 µg/m3 1.14 mg/m3 17.62 °C 83.57 % 1,021.81 mbar 0.38 m/s 255.78 Deg 85.3 µg/m3 19.16 µg/m3
2022-11-13 22:00 57.31 µg/m3 2.31 µg/m3 3.71 µg/m3 46.63 µg/m3 31.38 µg/m3 1.44 mg/m3 17.79 °C 83.9 % 1,022.17 mbar 0.52 m/s 229.72 Deg 117.32 µg/m3 21.36 µg/m3
2022-11-13 21:00 64.86 µg/m3 2.69 µg/m3 4.24 µg/m3 51.2 µg/m3 34.18 µg/m3 1.71 mg/m3 18.12 °C 83.06 % 1,022.12 mbar 0.65 m/s 237.48 Deg 148.3 µg/m3 28.24 µg/m3
2022-11-13 20:00 86.04 µg/m3 3.48 µg/m3 3.07 µg/m3 56.73 µg/m3 37.82 µg/m3 2.02 mg/m3 18.73 °C 79.83 % 1,021.80 mbar 0.12 m/s 235.67 Deg 220.68 µg/m3 22.52 µg/m3
2022-11-13 19:00 83.77 µg/m3 2.58 µg/m3 3.81 µg/m3 47.57 µg/m3 31.72 µg/m3 1.58 mg/m3 19.34 °C 76.73 % 1,021.56 mbar 0.25 m/s 244.61 Deg 153.37 µg/m3 14.43 µg/m3
2022-11-13 18:00 78.85 µg/m3 1.43 µg/m3 10.04 µg/m3 47.74 µg/m3 21.73 µg/m3 0.93 mg/m3 20.27 °C 69.58 % 1,020.98 mbar 0.21 m/s 121.59 Deg 74.32 µg/m3 5.77 µg/m3
2022-11-13 17:00 43.79 µg/m3 0.77 µg/m3 54.09 µg/m3 39.72 µg/m3 12.68 µg/m3 0.45 mg/m3 20.71 °C 65.54 % 1,020.86 mbar 1.31 m/s 51.32 Deg 28.61 µg/m3 2.62 µg/m3
2022-11-13 16:00 28.73 µg/m3 0.59 µg/m3 66.62 µg/m3 27.36 µg/m3 10.66 µg/m3 0.26 mg/m3 20.75 °C 65.59 % 1,020.86 mbar 1.82 m/s 57.47 Deg 20.29 µg/m3 2.94 µg/m3
2022-11-13 15:00 30.7 µg/m3 0.58 µg/m3 63.95 µg/m3 29.74 µg/m3 11.99 µg/m3 0.29 mg/m3 20.85 °C 66.95 % 1,020.60 mbar 1.6 m/s 46.45 Deg 17.83 µg/m3 2.94 µg/m3
2022-11-13 14:00 22.05 µg/m3 0.51 µg/m3 63.72 µg/m3 29.59 µg/m3 10.76 µg/m3 0.21 mg/m3 21.72 °C 63.17 % 1,020.34 mbar 1.33 m/s 168.13 Deg 13.12 µg/m3 1.47 µg/m3
2022-11-13 13:00 15.79 µg/m3 0.44 µg/m3 67.07 µg/m3 22.49 µg/m3 8.97 µg/m3 0.08 mg/m3 21.34 °C 63.72 % 1,020.64 mbar 0.83 m/s 243.22 Deg 5.52 µg/m3 2.15 µg/m3
2022-11-13 12:00 27.61 µg/m3 0.49 µg/m3 50 µg/m3 24.39 µg/m3 9.9 µg/m3 0.14 mg/m3 20.59 °C 69.53 % 1,021.04 mbar 0.61 m/s 212.45 Deg 6.44 µg/m3 3.46 µg/m3
2022-11-13 11:00 46.33 µg/m3 0.72 µg/m3 32.68 µg/m3 20.92 µg/m3 10.59 µg/m3 0.23 mg/m3 20.19 °C 70.88 % 1,021.12 mbar 0.39 m/s 222.09 Deg 15.23 µg/m3 8.87 µg/m3
2022-11-13 10:00 56.19 µg/m3 0.95 µg/m3 14.37 µg/m3 18.3 µg/m3 13.69 µg/m3 0.63 mg/m3 19.46 °C 78.39 % 1,020.71 mbar 0.64 m/s 243.45 Deg 31.15 µg/m3 6.19 µg/m3
2022-11-13 09:00 47.87 µg/m3 0.81 µg/m3 14.65 µg/m3 14.5 µg/m3 11.12 µg/m3 0.49 mg/m3 18.05 °C 84.52 % 1,020.38 mbar 0.71 m/s 235.97 Deg 24.41 µg/m3 5.77 µg/m3
2022-11-13 08:00 47.87 µg/m3 1.03 µg/m3 6.7 µg/m3 12.27 µg/m3 9.26 µg/m3 0.52 mg/m3 16.83 °C 88.39 % 1,019.87 mbar 0.67 m/s 233.97 Deg 26.69 µg/m3 4.88 µg/m3
2022-11-13 07:00 52.57 µg/m3 0.75 µg/m3 5.69 µg/m3 9.42 µg/m3 7.25 µg/m3 0.38 mg/m3 16.92 °C 86.94 % 1,019.39 mbar 0.88 m/s 238.55 Deg 19.06 µg/m3 2.89 µg/m3
2022-11-13 06:00 35.23 µg/m3 0.54 µg/m3 30.63 µg/m3 7.46 µg/m3 5.54 µg/m3 0.32 mg/m3 17.43 °C 85.03 % 1,018.89 mbar 0.71 m/s 196.28 Deg 6.37 µg/m3 1.52 µg/m3
2022-11-13 05:00 4.72 µg/m3 0.37 µg/m3 74.53 µg/m3 3.81 µg/m3 3 µg/m3 0.17 mg/m3 17.56 °C 81.54 % 1,018.83 mbar 2.49 m/s 44.75 Deg 2.33 µg/m3 0.94 µg/m3
2022-11-13 04:00 8.46 µg/m3 0.38 µg/m3 64.82 µg/m3 6.05 µg/m3 4.83 µg/m3 0.16 mg/m3 17.39 °C 85.08 % 1,018.76 mbar 1.36 m/s 260.5 Deg 1.39 µg/m3 9.66 µg/m3
2022-11-13 03:00 24.41 µg/m3 0.55 µg/m3 42.59 µg/m3 8.84 µg/m3 7.26 µg/m3 0.26 mg/m3 17.79 °C 84.73 % 1,018.72 mbar 0.79 m/s 280.83 Deg 1.15 µg/m3 1.21 µg/m3
2022-11-13 02:00 17.43 µg/m3 0.44 µg/m3 54.05 µg/m3 7.61 µg/m3 6.21 µg/m3 0.24 mg/m3 17.52 °C 85.38 % 1,018.94 mbar 0.8 m/s 198.18 Deg 2.75 µg/m3 1.36 µg/m3
2022-11-13 01:00 18.84 µg/m3 0.48 µg/m3 57.41 µg/m3 7.07 µg/m3 5.74 µg/m3 0.27 mg/m3 17.3 °C 85.73 % 1,019.23 mbar 1.07 m/s 192.42 Deg 5.54 µg/m3 1.1 µg/m3
2022-11-13 00:00 41.99 µg/m3 0.58 µg/m3 36.28 µg/m3 7.41 µg/m3 6.2 µg/m3 0.25 mg/m3 17.23 °C 87.38 % 1,019.71 mbar 1.73 m/s 134.05 Deg 12.84 µg/m3 2.52 µg/m3
2022-11-12 23:00 49.77 µg/m3 0.51 µg/m3 19.55 µg/m3 14.76 µg/m3 13.06 µg/m3 0.39 mg/m3 17.14 °C 89.09 % 1,020.07 mbar 0.62 m/s 266.13 Deg 6.3 µg/m3 1.94 µg/m3
2022-11-12 22:00 42.73 µg/m3 0.53 µg/m3 30.55 µg/m3 12.67 µg/m3 11.82 µg/m3 0.33 mg/m3 16.86 °C 89.32 % 1,020.25 mbar 0.68 m/s 211.27 Deg 8.08 µg/m3 1.68 µg/m3
2022-11-12 21:00 33.42 µg/m3 0.49 µg/m3 39.29 µg/m3 11.25 µg/m3 10.43 µg/m3 0.34 mg/m3 16.37 °C 90.24 % 1,020.26 mbar 0.81 m/s 229.37 Deg 4.25 µg/m3 2.15 µg/m3
2022-11-12 20:00 29.58 µg/m3 0.48 µg/m3 45.09 µg/m3 14.59 µg/m3 13.08 µg/m3 0.34 mg/m3 16.74 °C 90.05 % 1,020.47 mbar 1.66 m/s 212.87 Deg 2.52 µg/m3 2.78 µg/m3
2022-11-12 19:00 41.02 µg/m3 0.54 µg/m3 32.25 µg/m3 17.1 µg/m3 15.32 µg/m3 0.4 mg/m3 17.3 °C 88.63 % 1,020.69 mbar 0.99 m/s 230.69 Deg 4.75 µg/m3 2.89 µg/m3
2022-11-12 18:00 50.42 µg/m3 0.55 µg/m3 18.19 µg/m3 18.02 µg/m3 15.04 µg/m3 0.44 mg/m3 17.31 °C 87.91 % 1,020.78 mbar 0.93 m/s 235.58 Deg 10.21 µg/m3 2.94 µg/m3
2022-11-12 17:00 37.76 µg/m3 0.51 µg/m3 36.95 µg/m3 14.66 µg/m3 11.79 µg/m3 0.35 mg/m3 16.77 °C 89.18 % 1,021.16 mbar 1.26 m/s 215.02 Deg 3.58 µg/m3 2.26 µg/m3
2022-11-12 16:00 25.57 µg/m3 0.47 µg/m3 54.6 µg/m3 16.92 µg/m3 13.95 µg/m3 0.29 mg/m3 17.12 °C 88.62 % 1,021.81 mbar 1.83 m/s 193.1 Deg 5.24 µg/m3 2.2 µg/m3
2022-11-12 15:00 25.26 µg/m3 0.63 µg/m3 61.47 µg/m3 15.35 µg/m3 12.93 µg/m3 0.35 mg/m3 18.81 °C 81.13 % 1,021.92 mbar 2.77 m/s 51.92 Deg 19.37 µg/m3 2.99 µg/m3
2022-11-12 14:00 46.17 µg/m3 0.87 µg/m3 42.1 µg/m3 18.79 µg/m3 16.07 µg/m3 0.44 mg/m3 18.93 °C 80.01 % 1,022.56 mbar 1.79 m/s 54.18 Deg 35.29 µg/m3 4.3 µg/m3
2022-11-12 13:00 51.65 µg/m3 0.76 µg/m3 30.95 µg/m3 28.89 µg/m3 19.51 µg/m3 0.44 mg/m3 19.41 °C 75.27 % 1,023.44 mbar 1.25 m/s 240.67 Deg 27.02 µg/m3 2.52 µg/m3
2022-11-12 12:00 41.93 µg/m3 0.91 µg/m3 47.82 µg/m3 26.96 µg/m3 13.44 µg/m3 0.42 mg/m3 20.63 °C 66.27 % 1,024.16 mbar 1.03 m/s 65.1 Deg 37.26 µg/m3 3.57 µg/m3
2022-11-12 11:00 29.35 µg/m3 0.8 µg/m3 59.39 µg/m3 23.67 µg/m3 11.98 µg/m3 0.43 mg/m3 20.75 °C 65.79 % 1,024.81 mbar 1.31 m/s 121.38 Deg 27.18 µg/m3 2.47 µg/m3
2022-11-12 10:00 30.6 µg/m3 0.93 µg/m3 59.24 µg/m3 20.32 µg/m3 11.17 µg/m3 0.38 mg/m3 20.72 °C 65.65 % 1,024.85 mbar 1.89 m/s 60.43 Deg 35.42 µg/m3 4.3 µg/m3
2022-11-12 09:00 43.54 µg/m3 0.93 µg/m3 43.34 µg/m3 28.92 µg/m3 14.44 µg/m3 0.52 mg/m3 20.36 °C 68.36 % 1,024.87 mbar 1.15 m/s 120.32 Deg 37.27 µg/m3 4.25 µg/m3
2022-11-12 08:00 62.21 µg/m3 1.24 µg/m3 25.73 µg/m3 34.25 µg/m3 16.23 µg/m3 0.61 mg/m3 19.93 °C 68.9 % 1,024.56 mbar 0.76 m/s 82.42 Deg 58.92 µg/m3 4.99 µg/m3
2022-11-12 07:00 33.62 µg/m3 0.67 µg/m3 45.97 µg/m3 25.39 µg/m3 13.19 µg/m3 0.39 mg/m3 19.65 °C 68.86 % 1,024.40 mbar 1.23 m/s 34.12 Deg 24.38 µg/m3 1.73 µg/m3
2022-11-12 06:00 11.63 µg/m3 0.44 µg/m3 69.24 µg/m3 11.78 µg/m3 8.9 µg/m3 0.22 mg/m3 19.83 °C 69.71 % 1,024.64 mbar 2.3 m/s 42.42 Deg 6.89 µg/m3 1.84 µg/m3
2022-11-12 05:00 17.81 µg/m3 0.53 µg/m3 64.69 µg/m3 11.64 µg/m3 8.94 µg/m3 0.23 mg/m3 19.75 °C 70.46 % 1,024.93 mbar 1.65 m/s 54.22 Deg 8.9 µg/m3 1.36 µg/m3
2022-11-12 04:00 13.15 µg/m3 0.51 µg/m3 71.23 µg/m3 10.94 µg/m3 8.09 µg/m3 0.21 mg/m3 19.9 °C 69.48 % 1,025.31 mbar 1.64 m/s 47.28 Deg 5.13 µg/m3 1.1 µg/m3
2022-11-12 03:00 3.81 µg/m3 0.44 µg/m3 79.1 µg/m3 9.21 µg/m3 7.37 µg/m3 0.16 mg/m3 20.15 °C 68.6 % 1,025.85 mbar 3.15 m/s 47.97 Deg 2.4 µg/m3 1.31 µg/m3
2022-11-12 02:00 7.93 µg/m3 0.49 µg/m3 76.89 µg/m3 11.06 µg/m3 8.16 µg/m3 0.18 mg/m3 20.21 °C 69.71 % 1,026.29 mbar 2.63 m/s 45.82 Deg 4.56 µg/m3 1.57 µg/m3
2022-11-12 01:00 10.56 µg/m3 0.46 µg/m3 74.53 µg/m3 12.4 µg/m3 8.66 µg/m3 0.2 mg/m3 20.16 °C 69.51 % 1,026.51 mbar 2.57 m/s 46.6 Deg 7.9 µg/m3 2.05 µg/m3
2022-11-12 00:00 15.3 µg/m3 0.54 µg/m3 72.8 µg/m3 12.45 µg/m3 8.85 µg/m3 0.25 mg/m3 20.3 °C 69.81 % 1,026.58 mbar 2.93 m/s 47.3 Deg 9.18 µg/m3 1.99 µg/m3
2022-11-11 23:00 14.55 µg/m3 0.55 µg/m3 74.52 µg/m3 12.49 µg/m3 8.55 µg/m3 0.25 mg/m3 20.45 °C 70.77 % 1,026.73 mbar 3.15 m/s 49.38 Deg 11.91 µg/m3 1.99 µg/m3
2022-11-11 22:00 20.11 µg/m3 0.59 µg/m3 71.5 µg/m3 14.4 µg/m3 9.4 µg/m3 0.3 mg/m3 20.56 °C 69.67 % 1,026.83 mbar 2.67 m/s 45.73 Deg 13.66 µg/m3 2.31 µg/m3
2022-11-11 21:00 24.18 µg/m3 0.63 µg/m3 66.66 µg/m3 15.03 µg/m3 9.73 µg/m3 0.33 mg/m3 20.63 °C 70.04 % 1,026.56 mbar 3.19 m/s 50.03 Deg 18.41 µg/m3 2.73 µg/m3
2022-11-11 20:00 23.67 µg/m3 0.69 µg/m3 63.17 µg/m3 13.85 µg/m3 8.8 µg/m3 0.36 mg/m3 20.6 °C 72.27 % 1,026.31 mbar 3.18 m/s 49.12 Deg 24.34 µg/m3 2.41 µg/m3
2022-11-11 19:00 30.9 µg/m3 0.7 µg/m3 57.75 µg/m3 14.52 µg/m3 6.94 µg/m3 0.39 mg/m3 20.61 °C 70.36 % 1,026.30 mbar 2.08 m/s 41.42 Deg 25.3 µg/m3 3.1 µg/m3
2022-11-11 18:00 32.96 µg/m3 0.82 µg/m3 60.23 µg/m3 15.04 µg/m3 6.44 µg/m3 0.42 mg/m3 20.54 °C 68.74 % 1,026.07 mbar 2.9 m/s 51.98 Deg 35.47 µg/m3 3.1 µg/m3
2022-11-11 17:00 29.6 µg/m3 0.8 µg/m3 62.93 µg/m3 15.36 µg/m3 5.88 µg/m3 0.35 mg/m3 20.85 °C 66.89 % 1,026.01 mbar 3.2 m/s 54.32 Deg 33.83 µg/m3 2.26 µg/m3
2022-11-11 16:00 27.46 µg/m3 0.79 µg/m3 64.7 µg/m3 10.78 µg/m3 4.6 µg/m3 0.34 mg/m3 21.05 °C 65.24 % 1,026.08 mbar 3.16 m/s 54.72 Deg 34.38 µg/m3 2.2 µg/m3
2022-11-11 15:00 29.96 µg/m3 0.73 µg/m3 69.88 µg/m3 10.14 µg/m3 4.65 µg/m3 0.33 mg/m3 21.17 °C 64.23 % 1,026.13 mbar 3.71 m/s 57.85 Deg 31.28 µg/m3 1.78 µg/m3
2022-11-11 14:00 27.77 µg/m3 0.78 µg/m3 72.38 µg/m3 7.62 µg/m3 3.78 µg/m3 0.26 mg/m3 21.22 °C 64.12 % 1,026.17 mbar 4.13 m/s 56.53 Deg 31.21 µg/m3 2.05 µg/m3
2022-11-11 13:00 20.93 µg/m3 0.71 µg/m3 71.76 µg/m3 6.34 µg/m3 3.36 µg/m3 0.29 mg/m3 21.21 °C 63.08 % 1,026.44 mbar 4 m/s 55.22 Deg 25.58 µg/m3 1.89 µg/m3
2022-11-11 12:00 26.35 µg/m3 0.73 µg/m3 71.58 µg/m3 8.54 µg/m3 4.04 µg/m3 0.26 mg/m3 21.17 °C 63.19 % 1,026.74 mbar 4.06 m/s 54.82 Deg 26.11 µg/m3 1.89 µg/m3
2022-11-11 11:00 27.66 µg/m3 0.77 µg/m3 67.82 µg/m3 12.23 µg/m3 5.25 µg/m3 0.29 mg/m3 21.05 °C 65.02 % 1,026.87 mbar 4.24 m/s 53.1 Deg 29.2 µg/m3 1.78 µg/m3
2022-11-11 10:00 26.64 µg/m3 0.83 µg/m3 64.3 µg/m3 11.09 µg/m3 4.71 µg/m3 0.27 mg/m3 20.86 °C 69.85 % 1,026.85 mbar 3.83 m/s 54.45 Deg 31.14 µg/m3 2.36 µg/m3
2022-11-11 09:00 32.74 µg/m3 0.98 µg/m3 57.22 µg/m3 9.81 µg/m3 4.55 µg/m3 0.33 mg/m3 20.64 °C 72.03 % 1,026.45 mbar 3.28 m/s 52.57 Deg 29.58 µg/m3 15.01 µg/m3
2022-11-11 08:00 87.54 µg/m3 4.23 µg/m3 10.15 µg/m3 43.63 µg/m3 26.22 µg/m3 1.6 mg/m3 18.64 °C 75.32 % 1,025.93 mbar 0.81 m/s 190.4 Deg 262.97 µg/m3 16.9 µg/m3
2022-11-11 07:00 63.88 µg/m3 3.06 µg/m3 9.03 µg/m3 29.53 µg/m3 20.1 µg/m3 1.22 mg/m3 17.01 °C 78.52 % 1,025.43 mbar 1.03 m/s 240.68 Deg 182.77 µg/m3 10.08 µg/m3
2022-11-11 06:00 46.88 µg/m3 1.42 µg/m3 8.81 µg/m3 18.5 µg/m3 13.39 µg/m3 0.65 mg/m3 16.98 °C 78 % 1,025.24 mbar 1.02 m/s 242.83 Deg 60.68 µg/m3 4.78 µg/m3
2022-11-11 05:00 39.37 µg/m3 0.82 µg/m3 8.71 µg/m3 14.19 µg/m3 10.96 µg/m3 0.35 mg/m3 16.83 °C 78.06 % 1,025.27 mbar 0.82 m/s 242.42 Deg 18.25 µg/m3 4.3 µg/m3
2022-11-11 04:00 37.13 µg/m3 0.77 µg/m3 8.63 µg/m3 15.43 µg/m3 12.17 µg/m3 0.35 mg/m3 16.8 °C 77.58 % 1,025.10 mbar 0.75 m/s 243.33 Deg 8.92 µg/m3 4.93 µg/m3
2022-11-11 03:00 40.44 µg/m3 0.78 µg/m3 6.87 µg/m3 16.91 µg/m3 13.36 µg/m3 0.38 mg/m3 16.87 °C 77.08 % 1,025.09 mbar 0.75 m/s 242.18 Deg 4.88 µg/m3 5.51 µg/m3
2022-11-11 02:00 47.11 µg/m3 0.96 µg/m3 6.5 µg/m3 17.26 µg/m3 12.27 µg/m3 0.54 mg/m3 17.09 °C 76.82 % 1,025.25 mbar 0.7 m/s 236.98 Deg 26.51 µg/m3 7.87 µg/m3
2022-11-11 01:00 50.18 µg/m3 1.33 µg/m3 5.94 µg/m3 22.51 µg/m3 15.46 µg/m3 0.72 mg/m3 17.41 °C 76.09 % 1,025.20 mbar 0.68 m/s 238.25 Deg 45.85 µg/m3 8.82 µg/m3
2022-11-11 00:00 56.88 µg/m3 1.52 µg/m3 5.48 µg/m3 26.25 µg/m3 17.7 µg/m3 0.82 mg/m3 17.86 °C 74.98 % 1,025.23 mbar 0.65 m/s 230.95 Deg 57.48 µg/m3 11.23 µg/m3
2022-11-10 23:00 62.88 µg/m3 1.84 µg/m3 6.82 µg/m3 32.98 µg/m3 22.07 µg/m3 1.01 mg/m3 18.22 °C 74.42 % 1,025.08 mbar 0.57 m/s 237.4 Deg 81.88 µg/m3 14.59 µg/m3
2022-11-10 22:00 71.15 µg/m3 2.32 µg/m3 5.95 µg/m3 43.55 µg/m3 29.12 µg/m3 1.25 mg/m3 18.72 °C 73.23 % 1,024.71 mbar 0.6 m/s 237.82 Deg 118 µg/m3 15.54 µg/m3
2022-11-10 21:00 80.63 µg/m3 2.31 µg/m3 6.46 µg/m3 51.93 µg/m3 33.48 µg/m3 1.28 mg/m3 19.4 °C 70.79 % 1,024.11 mbar 0.66 m/s 235.07 Deg 120.65 µg/m3 13.7 µg/m3
2022-11-10 20:00 85.78 µg/m3 1.88 µg/m3 3.01 µg/m3 44.93 µg/m3 18.11 µg/m3 0.98 mg/m3 20.39 °C 66.95 % 1,023.64 mbar 0.22 m/s 160.66 Deg 96.65 µg/m3 5.72 µg/m3
2022-11-10 19:00 67.92 µg/m3 1.22 µg/m3 17.1 µg/m3 27.57 µg/m3 10.06 µg/m3 0.54 mg/m3 20.62 °C 65.72 % 1,023.06 mbar 0.76 m/s 71.43 Deg 56.58 µg/m3 5.62 µg/m3
2022-11-10 18:00 59.22 µg/m3 1.16 µg/m3 31.66 µg/m3 22.65 µg/m3 8.18 µg/m3 0.57 mg/m3 20.74 °C 65.17 % 1,022.60 mbar 1.36 m/s 68.23 Deg 56.57 µg/m3 4.36 µg/m3
2022-11-10 17:00 38.38 µg/m3 0.95 µg/m3 49.91 µg/m3 18.61 µg/m3 7.43 µg/m3 0.42 mg/m3 21.05 °C 64.68 % 1,022.29 mbar 2.3 m/s 60.68 Deg 40.45 µg/m3 3.2 µg/m3
2022-11-10 16:00 31.96 µg/m3 0.85 µg/m3 62.15 µg/m3 14.61 µg/m3 5.75 µg/m3 0.34 mg/m3 21.41 °C 63.16 % 1,022.11 mbar 3 m/s 51.28 Deg 35.47 µg/m3 1.89 µg/m3
2022-11-10 15:00 27.21 µg/m3 0.75 µg/m3 66.26 µg/m3 15.71 µg/m3 5.48 µg/m3 0.22 mg/m3 21.4 °C 62.86 % 1,021.98 mbar 3.76 m/s 50.87 Deg 28.09 µg/m3 2.05 µg/m3
2022-11-10 14:00 26.92 µg/m3 0.84 µg/m3 65.16 µg/m3 19.09 µg/m3 6.28 µg/m3 0.26 mg/m3 21.44 °C 63.17 % 1,021.94 mbar 3.84 m/s 50.93 Deg 32.06 µg/m3 2.05 µg/m3
2022-11-10 13:00 21.77 µg/m3 0.78 µg/m3 67.27 µg/m3 10.18 µg/m3 4.33 µg/m3 0.26 mg/m3 21.39 °C 64.49 % 1,022.15 mbar 4.04 m/s 51.32 Deg 31.32 µg/m3 1.99 µg/m3
2022-11-10 12:00 17.23 µg/m3 0.71 µg/m3 66.96 µg/m3 11.47 µg/m3 4.34 µg/m3 0.23 mg/m3 21.26 °C 65.92 % 1,022.20 mbar 3.98 m/s 51.48 Deg 25.63 µg/m3 1.84 µg/m3
2022-11-10 11:00 26.69 µg/m3 0.84 µg/m3 59.91 µg/m3 13.11 µg/m3 5.01 µg/m3 0.28 mg/m3 21.07 °C 68.28 % 1,022.15 mbar 3.17 m/s 48.4 Deg 29.12 µg/m3 2.31 µg/m3
2022-11-10 10:00 42.59 µg/m3 1.19 µg/m3 44.48 µg/m3 17.21 µg/m3 6.51 µg/m3 0.39 mg/m3 20.97 °C 69.33 % 1,021.97 mbar 2.07 m/s 118.13 Deg 43.92 µg/m3 10.66 µg/m3
2022-11-10 09:00 91.4 µg/m3 3.45 µg/m3 4.78 µg/m3 63.97 µg/m3 24.84 µg/m3 1.23 mg/m3 20.35 °C 70.29 % 1,021.65 mbar 0.46 m/s 126.8 Deg 195.08 µg/m3 18.11 µg/m3
2022-11-10 08:00 81.61 µg/m3 3.85 µg/m3 7.31 µg/m3 39.45 µg/m3 25.31 µg/m3 1.48 mg/m3 17.78 °C 77.17 % 1,021.18 mbar 0.52 m/s 226.15 Deg 228.27 µg/m3 16.32 µg/m3
2022-11-10 07:00 60.25 µg/m3 2.96 µg/m3 8.64 µg/m3 28.99 µg/m3 19.4 µg/m3 1.16 mg/m3 16.4 °C 80.45 % 1,020.74 mbar 0.63 m/s 241.18 Deg 174.48 µg/m3 8.87 µg/m3
2022-11-10 06:00 46.7 µg/m3 1.66 µg/m3 7.56 µg/m3 19.66 µg/m3 13.47 µg/m3 0.57 mg/m3 16.32 °C 80.04 % 1,020.45 mbar 0.62 m/s 242.6 Deg 73.73 µg/m3 4.78 µg/m3
2022-11-10 05:00 42.79 µg/m3 1.09 µg/m3 7.87 µg/m3 16.36 µg/m3 11.17 µg/m3 0.38 mg/m3 16.38 °C 79.28 % 1,020.39 mbar 0.63 m/s 246.98 Deg 30.6 µg/m3 4.15 µg/m3
2022-11-10 04:00 42.08 µg/m3 0.89 µg/m3 7.36 µg/m3 16.12 µg/m3 11.24 µg/m3 0.34 mg/m3 16.55 °C 78.45 % 1,020.36 mbar 0.64 m/s 242.55 Deg 14.21 µg/m3 5.2 µg/m3
2022-11-10 03:00 43.3 µg/m3 0.82 µg/m3 7.86 µg/m3 17.84 µg/m3 12.6 µg/m3 0.46 mg/m3 16.74 °C 77.76 % 1,020.44 mbar 0.65 m/s 246.42 Deg 14.23 µg/m3 5.77 µg/m3
2022-11-10 02:00 49.68 µg/m3 1.15 µg/m3 8.82 µg/m3 19.95 µg/m3 13.74 µg/m3 0.61 mg/m3 16.97 °C 77.12 % 1,020.70 mbar 0.69 m/s 242.42 Deg 37.48 µg/m3 8.5 µg/m3
2022-11-10 01:00 56.82 µg/m3 1.72 µg/m3 9.81 µg/m3 28.37 µg/m3 19.12 µg/m3 0.93 mg/m3 17.19 °C 75.35 % 1,020.71 mbar 0.7 m/s 242.95 Deg 72 µg/m3 11.39 µg/m3
2022-11-10 00:00 62.93 µg/m3 2.02 µg/m3 9.54 µg/m3 37.08 µg/m3 24.88 µg/m3 1.08 mg/m3 17.53 °C 73.28 % 1,020.88 mbar 0.72 m/s 238.6 Deg 90.02 µg/m3 13.28 µg/m3
2022-11-09 23:00 68.65 µg/m3 2.41 µg/m3 9.03 µg/m3 44.79 µg/m3 29.91 µg/m3 1.22 mg/m3 17.98 °C 70.67 % 1,020.98 mbar 0.65 m/s 235.42 Deg 117.91 µg/m3 16.22 µg/m3
2022-11-09 22:00 79.59 µg/m3 2.96 µg/m3 9.55 µg/m3 52.9 µg/m3 33.39 µg/m3 1.45 mg/m3 18.42 °C 68.24 % 1,020.95 mbar 0.65 m/s 236.42 Deg 154.67 µg/m3 19.05 µg/m3
2022-11-09 21:00 89.87 µg/m3 3.07 µg/m3 8.73 µg/m3 81.79 µg/m3 33.49 µg/m3 1.49 mg/m3 18.96 °C 65.59 % 1,020.77 mbar 0.63 m/s 235.25 Deg 165.5 µg/m3 18.58 µg/m3
2022-11-09 20:00 99.71 µg/m3 3 µg/m3 4.96 µg/m3 83.01 µg/m3 28.09 µg/m3 1.47 mg/m3 19.84 °C 62.2 % 1,020.65 mbar 0.36 m/s 236.55 Deg 174.13 µg/m3 8.29 µg/m3
2022-11-09 19:00 85.37 µg/m3 1.41 µg/m3 12.03 µg/m3 38.66 µg/m3 12.6 µg/m3 0.77 mg/m3 20.26 °C 59.15 % 1,020.44 mbar 0.7 m/s 60.07 Deg 63.75 µg/m3 7.51 µg/m3
2022-11-09 18:00 74.79 µg/m3 1.23 µg/m3 20.47 µg/m3 31.8 µg/m3 11.17 µg/m3 0.69 mg/m3 20.45 °C 60.54 % 1,020.29 mbar 1.03 m/s 69.67 Deg 55.71 µg/m3 4.25 µg/m3
2022-11-09 17:00 55.29 µg/m3 1.1 µg/m3 37.02 µg/m3 23.52 µg/m3 8.91 µg/m3 0.47 mg/m3 21.14 °C 58.02 % 1,020.30 mbar 1.59 m/s 148.73 Deg 49.05 µg/m3 3.46 µg/m3
2022-11-09 16:00 49.11 µg/m3 0.96 µg/m3 49.71 µg/m3 37.44 µg/m3 11.11 µg/m3 0.38 mg/m3 21.64 °C 55.34 % 1,020.41 mbar 1.86 m/s 255.95 Deg 43.24 µg/m3 2.26 µg/m3
2022-11-09 15:00 40.95 µg/m3 0.74 µg/m3 54.37 µg/m3 15.19 µg/m3 5.76 µg/m3 0.28 mg/m3 21.85 °C 56.29 % 1,020.54 mbar 1.81 m/s 152.52 Deg 31 µg/m3 1.89 µg/m3
2022-11-09 14:00 37.28 µg/m3 0.85 µg/m3 58.47 µg/m3 15.89 µg/m3 6.28 µg/m3 0.31 mg/m3 21.54 °C 59.85 % 1,020.65 mbar 2.31 m/s 87.07 Deg 34.69 µg/m3 1.99 µg/m3
2022-11-09 13:00 31.43 µg/m3 0.89 µg/m3 59.01 µg/m3 17.26 µg/m3 6.3 µg/m3 0.31 mg/m3 21.59 °C 60.21 % 1,021.22 mbar 2.02 m/s 181.87 Deg 34.34 µg/m3 2.15 µg/m3
2022-11-09 12:00 38.66 µg/m3 0.85 µg/m3 58.11 µg/m3 38.48 µg/m3 10.76 µg/m3 0.27 mg/m3 21.6 °C 60.35 % 1,021.75 mbar 1.95 m/s 234.65 Deg 27.62 µg/m3 1.57 µg/m3
2022-11-09 11:00 41.57 µg/m3 0.96 µg/m3 54.51 µg/m3 16.38 µg/m3 6.22 µg/m3 0.31 mg/m3 21.63 °C 60.22 % 1,021.98 mbar 1.56 m/s 165.18 Deg 32.64 µg/m3 3.25 µg/m3
2022-11-09 10:00 57.34 µg/m3 1.42 µg/m3 37.99 µg/m3 23.11 µg/m3 7.88 µg/m3 0.41 mg/m3 21.11 °C 63.09 % 1,021.84 mbar 1.49 m/s 155.43 Deg 54.31 µg/m3 11.23 µg/m3
2022-11-09 09:00 105 µg/m3 3.48 µg/m3 5.54 µg/m3 79.98 µg/m3 26.3 µg/m3 1.25 mg/m3 20.04 °C 64.87 % 1,021.65 mbar 0.27 m/s 150.07 Deg 207.66 µg/m3 12.54 µg/m3
2022-11-09 08:00 86.47 µg/m3 2.86 µg/m3 7.95 µg/m3 44.78 µg/m3 21.16 µg/m3 1.18 mg/m3 17.27 °C 70.81 % 1,021.21 mbar 0.66 m/s 224.42 Deg 158.65 µg/m3 15.38 µg/m3
2022-11-09 07:00 72.13 µg/m3 3.03 µg/m3 8.8 µg/m3 30.78 µg/m3 20.55 µg/m3 1.2 mg/m3 15.96 °C 73.79 % 1,020.93 mbar 0.53 m/s 240.08 Deg 179.52 µg/m3 8.56 µg/m3
2022-11-09 06:00 52.77 µg/m3 1.43 µg/m3 7.71 µg/m3 21.1 µg/m3 14.21 µg/m3 0.5 mg/m3 15.83 °C 74.14 % 1,020.90 mbar 0.58 m/s 239.7 Deg 60.5 µg/m3 4.72 µg/m3
2022-11-09 05:00 45 µg/m3 1 µg/m3 10.08 µg/m3 12.18 µg/m3 8.3 µg/m3 0.28 mg/m3 16.07 °C 74.51 % 1,020.95 mbar 0.59 m/s 244.8 Deg 18.76 µg/m3 2.83 µg/m3
2022-11-09 04:00 36.06 µg/m3 0.7 µg/m3 17.68 µg/m3 13.33 µg/m3 9.68 µg/m3 0.26 mg/m3 16.13 °C 76.3 % 1,020.91 mbar 0.71 m/s 237.83 Deg 3.89 µg/m3 3.67 µg/m3
2022-11-09 03:00 35.06 µg/m3 0.59 µg/m3 15.63 µg/m3 12.3 µg/m3 8.91 µg/m3 0.35 mg/m3 16.29 °C 76.92 % 1,021.10 mbar 0.74 m/s 235.55 Deg 3.03 µg/m3 3.78 µg/m3
2022-11-09 02:00 47.5 µg/m3 0.73 µg/m3 11.18 µg/m3 12.64 µg/m3 8.85 µg/m3 0.47 mg/m3 16.61 °C 76.47 % 1,021.31 mbar 0.8 m/s 236.47 Deg 8.91 µg/m3 5.77 µg/m3
2022-11-09 01:00 55.29 µg/m3 1 µg/m3 6.91 µg/m3 18.48 µg/m3 12.77 µg/m3 0.64 mg/m3 16.86 °C 76.06 % 1,021.39 mbar 0.81 m/s 230.58 Deg 26.79 µg/m3 7.56 µg/m3
2022-11-09 00:00 60 µg/m3 1.5 µg/m3 9.11 µg/m3 25.08 µg/m3 16.95 µg/m3 0.85 mg/m3 17.25 °C 75.23 % 1,021.54 mbar 0.77 m/s 231.27 Deg 54.81 µg/m3 11.49 µg/m3
2022-11-08 23:00 64.69 µg/m3 1.98 µg/m3 8.47 µg/m3 35.89 µg/m3 24 µg/m3 1.08 mg/m3 17.64 °C 74.27 % 1,021.59 mbar 0.74 m/s 233.6 Deg 98.33 µg/m3 14.07 µg/m3
2022-11-08 22:00 70.66 µg/m3 2.08 µg/m3 8.63 µg/m3 43.72 µg/m3 29.2 µg/m3 1.19 mg/m3 18.12 °C 72.78 % 1,021.40 mbar 0.68 m/s 233.42 Deg 104.22 µg/m3 14.07 µg/m3
2022-11-08 21:00 78.5 µg/m3 2.25 µg/m3 5.91 µg/m3 42.16 µg/m3 28.12 µg/m3 1.25 mg/m3 18.76 °C 70.46 % 1,021.14 mbar 0.66 m/s 233.87 Deg 114.86 µg/m3 12.33 µg/m3
2022-11-08 20:00 85.2 µg/m3 1.68 µg/m3 5.82 µg/m3 55.69 µg/m3 22.88 µg/m3 1.06 mg/m3 19.43 °C 67.46 % 1,020.99 mbar 0.63 m/s 236.23 Deg 81.03 µg/m3 6.4 µg/m3
2022-11-08 19:00 77.49 µg/m3 0.83 µg/m3 12.19 µg/m3 33.44 µg/m3 10.85 µg/m3 0.58 mg/m3 19.89 °C 64.97 % 1,020.70 mbar 0.64 m/s 225.48 Deg 21.19 µg/m3 3.57 µg/m3
2022-11-08 18:00 61.27 µg/m3 0.7 µg/m3 26.72 µg/m3 24.36 µg/m3 7.84 µg/m3 0.4 mg/m3 20.24 °C 63.79 % 1,020.46 mbar 1.26 m/s 228.85 Deg 10.52 µg/m3 2.1 µg/m3
2022-11-08 17:00 40.32 µg/m3 0.59 µg/m3 49.44 µg/m3 16.54 µg/m3 5.77 µg/m3 0.27 mg/m3 21 °C 59.21 % 1,020.37 mbar 1.79 m/s 245.48 Deg 8.59 µg/m3 1.63 µg/m3
2022-11-08 16:00 33.27 µg/m3 0.54 µg/m3 56.26 µg/m3 13.79 µg/m3 4.32 µg/m3 0.21 mg/m3 21.79 °C 55.33 % 1,020.52 mbar 1.81 m/s 245.45 Deg 9.08 µg/m3 1.15 µg/m3
2022-11-08 15:00 23.89 µg/m3 0.52 µg/m3 64.4 µg/m3 10.37 µg/m3 3.6 µg/m3 0.16 mg/m3 22.09 °C 52.2 % 1,020.63 mbar 1.89 m/s 240.38 Deg 6.93 µg/m3 1.21 µg/m3
2022-11-08 14:00 22.49 µg/m3 0.48 µg/m3 64.46 µg/m3 11.26 µg/m3 3.72 µg/m3 0.16 mg/m3 22.34 °C 53.91 % 1,020.88 mbar 2.15 m/s 249.53 Deg 6.28 µg/m3 1.31 µg/m3
2022-11-08 13:00 31.11 µg/m3 0.66 µg/m3 59.51 µg/m3 11.93 µg/m3 4.08 µg/m3 0.2 mg/m3 22.27 °C 56.01 % 1,021.31 mbar 1.8 m/s 265.28 Deg 10.88 µg/m3 1.42 µg/m3
2022-11-08 12:00 28.95 µg/m3 0.59 µg/m3 57.96 µg/m3 13.54 µg/m3 5.08 µg/m3 0.19 mg/m3 21.82 °C 57.75 % 1,021.90 mbar 1.44 m/s 251.97 Deg 8.32 µg/m3 1.36 µg/m3
2022-11-08 11:00 23.22 µg/m3 0.56 µg/m3 60.3 µg/m3 13.75 µg/m3 4.67 µg/m3 0.2 mg/m3 21.97 °C 57.59 % 1,022.16 mbar 1.48 m/s 263.34 Deg 8.38 µg/m3 1.42 µg/m3
2022-11-08 10:00 30.28 µg/m3 0.69 µg/m3 54.08 µg/m3 15.11 µg/m3 4.95 µg/m3 0.22 mg/m3 21.36 °C 60.09 % 1,021.96 mbar 1.24 m/s 243.88 Deg 9.08 µg/m3 6.51 µg/m3
2022-11-08 09:00 82.04 µg/m3 2.06 µg/m3 12.71 µg/m3 55.3 µg/m3 17.66 µg/m3 0.82 mg/m3 19.8 °C 67.38 % 1,021.73 mbar 1.02 m/s 214.67 Deg 100.31 µg/m3 9.55 µg/m3
2022-11-08 08:00 71.19 µg/m3 2.01 µg/m3 5.25 µg/m3 41.49 µg/m3 17.72 µg/m3 0.85 mg/m3 17.56 °C 74.79 % 1,021.36 mbar 0.75 m/s 219.1 Deg 96.59 µg/m3 8.4 µg/m3
2022-11-08 07:00 60.99 µg/m3 1.47 µg/m3 3.73 µg/m3 19.99 µg/m3 13.44 µg/m3 0.67 mg/m3 16.47 °C 78.03 % 1,021.06 mbar 0.73 m/s 226.13 Deg 67.29 µg/m3 5.04 µg/m3
2022-11-08 06:00 42.94 µg/m3 0.77 µg/m3 11.15 µg/m3 13.44 µg/m3 9.69 µg/m3 0.35 mg/m3 16.54 °C 77.79 % 1,021.08 mbar 1.08 m/s 233.33 Deg 22.01 µg/m3 2.78 µg/m3
2022-11-08 05:00 24.68 µg/m3 0.68 µg/m3 21.6 µg/m3 7.97 µg/m3 5.75 µg/m3 -0.09 mg/m3 16.67 °C 77.34 % 1,021.12 mbar 0.87 m/s 232.57 Deg 5.74 µg/m3 1.78 µg/m3
2022-11-08 04:00 14.95 µg/m3 0.54 µg/m3 32.82 µg/m3 8.02 µg/m3 5.99 µg/m3 0.06 mg/m3 16.8 °C 77.4 % 1,021.11 mbar 1.03 m/s 233.23 Deg 0.06 µg/m3 2.47 µg/m3
2022-11-08 03:00 19.73 µg/m3 0.56 µg/m3 28.32 µg/m3 8.54 µg/m3 6.26 µg/m3 0.21 mg/m3 17.05 °C 76.51 % 1,021.35 mbar 1.02 m/s 236.02 Deg 0.45 µg/m3 1.99 µg/m3
2022-11-08 02:00 22.92 µg/m3 0.55 µg/m3 29.31 µg/m3 8.05 µg/m3 5.69 µg/m3 0.23 mg/m3 17.25 °C 75.24 % 1,021.61 mbar 1 m/s 235.95 Deg 1.34 µg/m3 2.47 µg/m3
2022-11-08 01:00 31.7 µg/m3 0.66 µg/m3 21.53 µg/m3 10.24 µg/m3 7.08 µg/m3 0.28 mg/m3 17.48 °C 73.98 % 1,021.72 mbar 0.92 m/s 233.68 Deg 2.16 µg/m3 3.31 µg/m3
2022-11-08 00:00 40.09 µg/m3 0.67 µg/m3 17.59 µg/m3 12.07 µg/m3 8.16 µg/m3 0.36 mg/m3 17.77 °C 72.53 % 1,021.82 mbar 0.76 m/s 228.75 Deg 5.15 µg/m3 3.52 µg/m3
2022-11-07 23:00 48.69 µg/m3 0.73 µg/m3 13.86 µg/m3 17.46 µg/m3 9.75 µg/m3 0.4 mg/m3 18.12 °C 69.81 % 1,021.86 mbar 0.84 m/s 232.68 Deg 11.08 µg/m3 4.78 µg/m3
2022-11-07 22:00 61.25 µg/m3 0.88 µg/m3 7 µg/m3 30.26 µg/m3 13.9 µg/m3 0.51 mg/m3 18.47 °C 68.18 % 1,021.77 mbar 0.83 m/s 232.27 Deg 20.89 µg/m3 5.77 µg/m3
2022-11-07 21:00 68.4 µg/m3 0.91 µg/m3 5.61 µg/m3 33.43 µg/m3 12.18 µg/m3 0.58 mg/m3 18.96 °C 66.88 % 1,021.55 mbar 0.76 m/s 229.17 Deg 29.95 µg/m3 3.41 µg/m3
2022-11-07 20:00 56.49 µg/m3 0.64 µg/m3 20.62 µg/m3 20.98 µg/m3 7.92 µg/m3 0.42 mg/m3 19.45 °C 65.6 % 1,021.39 mbar 0.98 m/s 233.02 Deg 8.03 µg/m3 3.15 µg/m3
2022-11-07 19:00 64.22 µg/m3 0.72 µg/m3 18.82 µg/m3 24.78 µg/m3 9.71 µg/m3 0.43 mg/m3 19.83 °C 64.5 % 1,021.04 mbar 1.16 m/s 259.43 Deg 13.84 µg/m3 3.36 µg/m3
2022-11-07 18:00 64.99 µg/m3 0.76 µg/m3 18.15 µg/m3 24.56 µg/m3 8.8 µg/m3 0.46 mg/m3 20.28 °C 61.14 % 1,020.60 mbar 1.15 m/s 260.47 Deg 18.15 µg/m3 2.99 µg/m3
2022-11-07 17:00 42.56 µg/m3 0.62 µg/m3 41.01 µg/m3 22.45 µg/m3 7.23 µg/m3 0.32 mg/m3 21.13 °C 57.26 % 1,020.21 mbar 1.63 m/s 277.05 Deg 9.84 µg/m3 1.57 µg/m3
2022-11-07 16:00 26.56 µg/m3 0.55 µg/m3 55.9 µg/m3 12.56 µg/m3 4.42 µg/m3 0.19 mg/m3 21.52 °C 55.82 % 1,020.02 mbar 2.34 m/s 298.5 Deg 8.08 µg/m3 1.36 µg/m3
2022-11-07 15:00 24.76 µg/m3 0.57 µg/m3 60.62 µg/m3 12.13 µg/m3 4.14 µg/m3 0.19 mg/m3 21.62 °C 56.88 % 1,019.98 mbar 2.32 m/s 303.85 Deg 7.72 µg/m3 1.26 µg/m3
2022-11-07 14:00 23.34 µg/m3 0.55 µg/m3 60.2 µg/m3 13.72 µg/m3 4.49 µg/m3 0.19 mg/m3 21.76 °C 56.86 % 1,020.13 mbar 1.9 m/s 313.72 Deg 10.71 µg/m3 1.36 µg/m3
2022-11-07 13:00 26.16 µg/m3 0.65 µg/m3 58.66 µg/m3 12.19 µg/m3 4.23 µg/m3 0.19 mg/m3 21.66 °C 58.75 % 1,020.43 mbar 1.85 m/s 318.28 Deg 14.35 µg/m3 1.36 µg/m3
2022-11-07 12:00 23.47 µg/m3 0.57 µg/m3 55.48 µg/m3 9.99 µg/m3 4.13 µg/m3 0.18 mg/m3 21.58 °C 61.22 % 1,020.72 mbar 1.91 m/s 302.18 Deg 9.79 µg/m3 1.31 µg/m3
2022-11-07 11:00 21.95 µg/m3 0.64 µg/m3 56.04 µg/m3 11.62 µg/m3 4.37 µg/m3 0.2 mg/m3 21.55 °C 61.06 % 1,020.92 mbar 1.58 m/s 308.75 Deg 11.08 µg/m3 1.42 µg/m3
2022-11-07 10:00 23.63 µg/m3 0.66 µg/m3 52.51 µg/m3 14.39 µg/m3 4.87 µg/m3 0.22 mg/m3 21.36 °C 61.75 % 1,020.51 mbar 1.51 m/s 309.15 Deg 12.7 µg/m3 2.52 µg/m3
2022-11-07 09:00 52.37 µg/m3 1.1 µg/m3 27.76 µg/m3 29.71 µg/m3 9.26 µg/m3 0.48 mg/m3 20.64 °C 67.12 % 1,020.09 mbar 1.2 m/s 261.1 Deg 34.66 µg/m3 11.55 µg/m3
2022-11-07 08:00 72.2 µg/m3 2 µg/m3 4.96 µg/m3 27.28 µg/m3 15.92 µg/m3 0.89 mg/m3 18.41 °C 75.22 % 1,019.69 mbar 0.89 m/s 232.5 Deg 101.45 µg/m3 7.51 µg/m3
2022-11-07 07:00 56.34 µg/m3 1.06 µg/m3 4.05 µg/m3 17.53 µg/m3 11.88 µg/m3 0.59 mg/m3 17.62 °C 77.78 % 1,019.25 mbar 1 m/s 228.97 Deg 43.27 µg/m3 3.46 µg/m3
2022-11-07 06:00 40.61 µg/m3 0.72 µg/m3 17.64 µg/m3 10.13 µg/m3 6.71 µg/m3 0.38 mg/m3 18.33 °C 73.98 % 1,018.82 mbar 0.83 m/s 238.88 Deg 19.42 µg/m3 1.05 µg/m3
2022-11-07 05:00 9.96 µg/m3 0.41 µg/m3 52.06 µg/m3 5.92 µg/m3 3.76 µg/m3 0.14 mg/m3 19.16 °C 70.99 % 1,018.41 mbar 1.13 m/s 267.83 Deg -0.01 µg/m3 0.73 µg/m3
2022-11-07 04:00 5.92 µg/m3 0.51 µg/m3 58.94 µg/m3 6.08 µg/m3 3.37 µg/m3 0.14 mg/m3 19.33 °C 70.86 % 1,018.18 mbar 1.31 m/s 274.12 Deg -0.28 µg/m3 0.84 µg/m3
2022-11-07 03:00 5.45 µg/m3 0.48 µg/m3 58.9 µg/m3 6.21 µg/m3 3.64 µg/m3 0.18 mg/m3 19.44 °C 70.9 % 1,018.15 mbar 1.31 m/s 275.22 Deg -0.21 µg/m3 0.73 µg/m3
2022-11-07 02:00 7.43 µg/m3 0.41 µg/m3 59.32 µg/m3 6.03 µg/m3 3.3 µg/m3 0.17 mg/m3 19.64 °C 69.86 % 1,018.02 mbar 1.42 m/s 283.52 Deg -0.08 µg/m3 0.84 µg/m3
2022-11-07 01:00 7.32 µg/m3 0.45 µg/m3 58.77 µg/m3 6.85 µg/m3 3.87 µg/m3 0.2 mg/m3 19.75 °C 69.42 % 1,017.85 mbar 1.75 m/s 274.43 Deg -0.14 µg/m3 1.1 µg/m3
2022-11-07 00:00 9.45 µg/m3 0.43 µg/m3 57.08 µg/m3 8.06 µg/m3 4.78 µg/m3 0.2 mg/m3 19.88 °C 67.98 % 1,017.71 mbar 1.82 m/s 273.07 Deg 0.28 µg/m3 1.05 µg/m3
2022-11-06 23:00 11.79 µg/m3 0.46 µg/m3 54.56 µg/m3 9.91 µg/m3 5.98 µg/m3 0.23 mg/m3 20.17 °C 67.1 % 1,017.39 mbar 2.04 m/s 277.55 Deg 0.86 µg/m3 1.15 µg/m3
2022-11-06 22:00 13.31 µg/m3 0.48 µg/m3 54.55 µg/m3 9.25 µg/m3 5.41 µg/m3 0.23 mg/m3 20.24 °C 66.05 % 1,016.82 mbar 2.06 m/s 281.55 Deg 1.44 µg/m3 1.15 µg/m3
2022-11-06 21:00 14.64 µg/m3 0.53 µg/m3 54.19 µg/m3 11.26 µg/m3 6.37 µg/m3 0.24 mg/m3 20.32 °C 65.79 % 1,016.21 mbar 2.36 m/s 278.2 Deg 1.92 µg/m3 1.21 µg/m3
2022-11-06 20:00 15.3 µg/m3 0.49 µg/m3 54.41 µg/m3 16.16 µg/m3 10.13 µg/m3 0.27 mg/m3 20.29 °C 65.71 % 1,015.66 mbar 2.12 m/s 283.03 Deg 2.64 µg/m3 1.52 µg/m3
2022-11-06 19:00 17.16 µg/m3 0.52 µg/m3 53.9 µg/m3 14.04 µg/m3 7.91 µg/m3 0.26 mg/m3 20.15 °C 64.95 % 1,014.86 mbar 2.69 m/s 277.18 Deg 2.89 µg/m3 1.36 µg/m3
2022-11-06 18:00 16.77 µg/m3 0.49 µg/m3 55.05 µg/m3 14.81 µg/m3 7.69 µg/m3 0.24 mg/m3 19.93 °C 64.01 % 1,014.07 mbar 3.46 m/s 269.27 Deg 3.38 µg/m3 1.1 µg/m3
2022-11-06 17:00 14.69 µg/m3 0.49 µg/m3 58.82 µg/m3 13.26 µg/m3 6.99 µg/m3 0.21 mg/m3 20.16 °C 61.07 % 1,013.49 mbar 3.55 m/s 270.2 Deg 2.35 µg/m3 1 µg/m3
2022-11-06 16:00 12.17 µg/m3 0.48 µg/m3 63.41 µg/m3 14.73 µg/m3 6.87 µg/m3 0.18 mg/m3 20.77 °C 57.59 % 1,013.06 mbar 3.36 m/s 269.53 Deg 1.97 µg/m3 1 µg/m3
2022-11-06 15:00 9.47 µg/m3 0.52 µg/m3 66.67 µg/m3 15.82 µg/m3 7.81 µg/m3 0.16 mg/m3 21.06 °C 54.55 % 1,012.58 mbar 4.27 m/s 270.57 Deg 2.14 µg/m3 0.94 µg/m3
2022-11-06 14:00 10.43 µg/m3 0.55 µg/m3 66.94 µg/m3 15.87 µg/m3 6.96 µg/m3 0.15 mg/m3 21.12 °C 52.2 % 1,012.21 mbar 4.2 m/s 269.22 Deg 3.3 µg/m3 1.05 µg/m3
2022-11-06 13:00 11.09 µg/m3 0.49 µg/m3 65.64 µg/m3 13.43 µg/m3 5.88 µg/m3 0.15 mg/m3 21.39 °C 48.87 % 1,012.41 mbar 4.09 m/s 271.78 Deg 2.93 µg/m3 0.94 µg/m3
2022-11-06 12:00 10.64 µg/m3 0.49 µg/m3 66.24 µg/m3 13.42 µg/m3 5.23 µg/m3 0.14 mg/m3 21.26 °C 48.28 % 1,012.36 mbar 4.08 m/s 278.95 Deg 2.93 µg/m3 0.84 µg/m3
2022-11-06 11:00 8.87 µg/m3 0.47 µg/m3 67.1 µg/m3 14.4 µg/m3 5.19 µg/m3 0.14 mg/m3 20.94 °C 49.66 % 1,012.05 mbar 4.81 m/s 276.9 Deg 2.51 µg/m3 0.94 µg/m3
2022-11-06 10:00 8.89 µg/m3 0.48 µg/m3 65.82 µg/m3 14.67 µg/m3 5.22 µg/m3 0.15 mg/m3 20.6 °C 50.67 % 1,011.78 mbar 4.34 m/s 271.5 Deg 2.97 µg/m3 0.84 µg/m3
2022-11-06 09:00 8.43 µg/m3 0.44 µg/m3 65.63 µg/m3 11.58 µg/m3 4.57 µg/m3 0.13 mg/m3 20.12 °C 51.96 % 1,011.47 mbar 3.75 m/s 273.5 Deg 1.78 µg/m3 0.73 µg/m3
2022-11-06 08:00 7.3 µg/m3 0.46 µg/m3 65.63 µg/m3 11.86 µg/m3 4.63 µg/m3 0.13 mg/m3 19.45 °C 55.57 % 1,010.81 mbar 3.67 m/s 270.02 Deg 0.9 µg/m3 0.79 µg/m3
2022-11-06 07:00 8.46 µg/m3 0.46 µg/m3 63.18 µg/m3 12.02 µg/m3 5.27 µg/m3 0.14 mg/m3 19.13 °C 60.64 % 1,009.92 mbar 2.74 m/s 271.52 Deg 0.72 µg/m3 0.68 µg/m3
2022-11-06 06:00 6.56 µg/m3 0.4 µg/m3 63.69 µg/m3 9.58 µg/m3 4.69 µg/m3 0.14 mg/m3 18.88 °C 63.8 % 1,009.41 mbar 2.86 m/s 271.13 Deg 0.43 µg/m3 0.63 µg/m3
2022-11-06 05:00 6.33 µg/m3 0.36 µg/m3 65.14 µg/m3 5.88 µg/m3 2.99 µg/m3 0.13 mg/m3 18.46 °C 66 % 1,008.88 mbar 2.4 m/s 262.5 Deg -0.04 µg/m3 0.58 µg/m3
2022-11-06 04:00 6.26 µg/m3 0.44 µg/m3 69.92 µg/m3 5.24 µg/m3 2.62 µg/m3 0.12 mg/m3 18.23 °C 67.52 % 1,008.63 mbar 2.14 m/s 260.47 Deg -0.1 µg/m3 0.52 µg/m3
2022-11-06 03:00 4.73 µg/m3 0.39 µg/m3 71.71 µg/m3 4.64 µg/m3 2.54 µg/m3 0.15 mg/m3 18.22 °C 65.87 % 1,008.37 mbar 2.53 m/s 260.9 Deg -0.3 µg/m3 0.63 µg/m3
2022-11-06 02:00 8.15 µg/m3 0.4 µg/m3 65.61 µg/m3 6.35 µg/m3 3.46 µg/m3 0.16 mg/m3 18.11 °C 65.99 % 1,008.29 mbar 2.26 m/s 254.18 Deg -0.1 µg/m3 0.84 µg/m3
2022-11-06 01:00 10.55 µg/m3 0.36 µg/m3 69.55 µg/m3 6.94 µg/m3 3.83 µg/m3 0.19 mg/m3 17.86 °C 67.85 % 1,008.05 mbar 2.31 m/s 258.08 Deg 0.52 µg/m3 0.73 µg/m3
2022-11-06 00:00 10.14 µg/m3 0.44 µg/m3 69.67 µg/m3 6.94 µg/m3 4.21 µg/m3 0.18 mg/m3 18.17 °C 64.21 % 1,008.25 mbar 2.58 m/s 264.95 Deg 0.44 µg/m3 0.84 µg/m3
2022-11-05 23:00 13.28 µg/m3 0.41 µg/m3 66.47 µg/m3 6.72 µg/m3 4.17 µg/m3 0.19 mg/m3 17.58 °C 66.79 % 1,008.08 mbar 2.3 m/s 261.28 Deg 0.74 µg/m3 1.05 µg/m3
2022-11-05 22:00 18.66 µg/m3 0.4 µg/m3 60.41 µg/m3 8.37 µg/m3 5.47 µg/m3 0.24 mg/m3 17.63 °C 68.6 % 1,007.62 mbar 1.88 m/s 260.77 Deg 1.31 µg/m3 1.63 µg/m3
2022-11-05 21:00 30.96 µg/m3 0.55 µg/m3 46.96 µg/m3 9.07 µg/m3 6.57 µg/m3 0.31 mg/m3 16.92 °C 71.27 % 1,007.32 mbar 1.53 m/s 254.83 Deg 3.8 µg/m3 1.78 µg/m3
2022-11-05 20:00 35.36 µg/m3 0.43 µg/m3 44.78 µg/m3 8.66 µg/m3 6.23 µg/m3 0.31 mg/m3 16.37 °C 73.93 % 1,007.02 mbar 1.79 m/s 242.97 Deg 4.41 µg/m3 1.84 µg/m3
2022-11-05 19:00 27.85 µg/m3 0.48 µg/m3 52.2 µg/m3 9.03 µg/m3 6.85 µg/m3 0.27 mg/m3 16.16 °C 74.21 % 1,006.75 mbar 2.13 m/s 251.65 Deg 4.08 µg/m3 1.63 µg/m3
2022-11-05 18:00 30.65 µg/m3 0.53 µg/m3 46.15 µg/m3 8.35 µg/m3 5.81 µg/m3 0.28 mg/m3 16.08 °C 74.03 % 1,006.46 mbar 1.65 m/s 246.92 Deg 5.01 µg/m3 1.26 µg/m3
2022-11-05 17:00 17.44 µg/m3 0.47 µg/m3 60.25 µg/m3 7.16 µg/m3 5.51 µg/m3 0.21 mg/m3 15.28 °C 79.18 % 1,006.33 mbar 3.05 m/s 269.57 Deg 2.63 µg/m3 1 µg/m3
2022-11-05 16:00 12.91 µg/m3 0.41 µg/m3 65.18 µg/m3 11.15 µg/m3 6.39 µg/m3 0.15 mg/m3 17.07 °C 69.06 % 1,006.22 mbar 3.84 m/s 258.95 Deg 2.06 µg/m3 0.73 µg/m3
2022-11-05 15:00 9.89 µg/m3 0.39 µg/m3 72.95 µg/m3 13.92 µg/m3 4.74 µg/m3 0.12 mg/m3 19.46 °C 56.85 % 1,006.18 mbar 4.67 m/s 241.72 Deg 2.22 µg/m3 0.84 µg/m3
2022-11-05 14:00 14.54 µg/m3 0.38 µg/m3 68.85 µg/m3 8.7 µg/m3 3.97 µg/m3 0.15 mg/m3 18.46 °C 62.29 % 1,006.94 mbar 3.71 m/s 246.17 Deg 3.99 µg/m3 1.1 µg/m3
2022-11-05 13:00 17.25 µg/m3 0.43 µg/m3 62.95 µg/m3 20.15 µg/m3 5.8 µg/m3 0.15 mg/m3 19.02 °C 56.94 % 1,007.68 mbar 4.51 m/s 248.38 Deg 5.34 µg/m3 1 µg/m3
2022-11-05 12:00 16.93 µg/m3 0.38 µg/m3 63.55 µg/m3 16.15 µg/m3 4.37 µg/m3 0.13 mg/m3 20.39 °C 50.76 % 1,007.99 mbar 3.85 m/s 246.65 Deg 5.04 µg/m3 1 µg/m3
2022-11-05 11:00 18.55 µg/m3 0.34 µg/m3 64.29 µg/m3 10.45 µg/m3 3.71 µg/m3 0.15 mg/m3 19.86 °C 55.4 % 1,008.76 mbar 3.33 m/s 257.1 Deg 4.78 µg/m3 1.05 µg/m3
2022-11-05 10:00 20.02 µg/m3 0.41 µg/m3 62.86 µg/m3 9.22 µg/m3 3.92 µg/m3 0.15 mg/m3 18.82 °C 60.37 % 1,008.66 mbar 3.51 m/s 268.35 Deg 4.94 µg/m3 1.42 µg/m3
2022-11-05 09:00 35.64 µg/m3 0.47 µg/m3 43 µg/m3 9.99 µg/m3 6.35 µg/m3 0.23 mg/m3 17.16 °C 77.03 % 1,008.44 mbar 1.27 m/s 226.95 Deg 7.49 µg/m3 1.15 µg/m3
2022-11-05 08:00 30.53 µg/m3 0.38 µg/m3 46.38 µg/m3 6.8 µg/m3 4.69 µg/m3 0.17 mg/m3 17.08 °C 75.15 % 1,008.42 mbar 1.76 m/s 226.7 Deg 2.83 µg/m3 0.94 µg/m3
2022-11-05 07:00 15.83 µg/m3 0.32 µg/m3 64.98 µg/m3 4.92 µg/m3 3.03 µg/m3 0.13 mg/m3 16.86 °C 71.31 % 1,008.41 mbar 2.52 m/s 233.52 Deg 0.84 µg/m3 0.58 µg/m3
2022-11-05 06:00 5.41 µg/m3 0.28 µg/m3 76.14 µg/m3 9.44 µg/m3 3.12 µg/m3 0.1 mg/m3 18.29 °C 64.6 % 1,009.09 mbar 4.78 m/s 256.43 Deg 0.27 µg/m3 0.52 µg/m3
2022-11-05 05:00 6.57 µg/m3 0.27 µg/m3 71.58 µg/m3 8.61 µg/m3 3.51 µg/m3 0.11 mg/m3 19.7 °C 64.68 % 1,008.15 mbar 3.14 m/s 270.13 Deg 0.22 µg/m3 0.63 µg/m3
2022-11-05 04:00 11.37 µg/m3 0.24 µg/m3 55.41 µg/m3 8.54 µg/m3 5.95 µg/m3 0.12 mg/m3 19.68 °C 76.31 % 1,007.39 mbar 1.54 m/s 256.72 Deg -0.02 µg/m3 0.73 µg/m3
2022-11-05 03:00 15.06 µg/m3 0.31 µg/m3 52.63 µg/m3 11.7 µg/m3 7.89 µg/m3 0.16 mg/m3 19.95 °C 77.26 % 1,008.16 mbar 1.13 m/s 255.55 Deg -0.05 µg/m3 0.84 µg/m3
2022-11-05 02:00 6.99 µg/m3 0.27 µg/m3 67.16 µg/m3 34.22 µg/m3 16.23 µg/m3 0.15 mg/m3 21.25 °C 72.69 % 1,008.29 mbar 2.27 m/s 250.83 Deg -0.27 µg/m3 0.84 µg/m3
2022-11-05 01:00 4.28 µg/m3 0.26 µg/m3 74.89 µg/m3 36.66 µg/m3 13.51 µg/m3 0.14 mg/m3 23.85 °C 63.84 % 1,008.53 mbar 2.96 m/s 210.93 Deg -0.23 µg/m3 0.73 µg/m3
2022-11-05 00:00 5.15 µg/m3 0.31 µg/m3 78.17 µg/m3 26.74 µg/m3 12.08 µg/m3 0.14 mg/m3 23.66 °C 61.55 % 1,009.65 mbar 2.77 m/s 208.7 Deg -0.14 µg/m3 0.84 µg/m3
2022-11-04 23:00 4.88 µg/m3 0.32 µg/m3 79.94 µg/m3 25.43 µg/m3 11.64 µg/m3 0.13 mg/m3 23.54 °C 62.35 % 1,010.33 mbar 3.26 m/s 206.92 Deg 0.03 µg/m3 0.89 µg/m3
2022-11-04 22:00 7.38 µg/m3 0.24 µg/m3 78.42 µg/m3 24.27 µg/m3 11.58 µg/m3 0.14 mg/m3 23.55 °C 61.81 % 1,010.57 mbar 3.45 m/s 210.65 Deg 0.38 µg/m3 1.15 µg/m3
2022-11-04 21:00 11.26 µg/m3 0.35 µg/m3 73.48 µg/m3 31.41 µg/m3 12.35 µg/m3 0.16 mg/m3 23.49 °C 63.59 % 1,010.82 mbar 2.97 m/s 208.72 Deg 1.75 µg/m3 1.36 µg/m3
2022-11-04 20:00 17.92 µg/m3 0.35 µg/m3 67.44 µg/m3 28.02 µg/m3 11.97 µg/m3 0.18 mg/m3 23.39 °C 62.92 % 1,011.47 mbar 1.88 m/s 190.82 Deg 2.39 µg/m3 2.05 µg/m3
2022-11-04 19:00 23.84 µg/m3 0.35 µg/m3 76.16 µg/m3 26.95 µg/m3 13.92 µg/m3 0.26 mg/m3 23.13 °C 66.78 % 1,011.61 mbar 2.11 m/s 201.78 Deg 2.42 µg/m3 1.99 µg/m3
2022-11-04 18:00 28.32 µg/m3 0.43 µg/m3 74.83 µg/m3 30.57 µg/m3 13.99 µg/m3 0.29 mg/m3 23.07 °C 65.86 % 1,011.94 mbar 2.16 m/s 195.18 Deg 6.57 µg/m3 2.1 µg/m3
2022-11-04 17:00 22.43 µg/m3 0.42 µg/m3 -79.35 µg/m3 26.75 µg/m3 12.33 µg/m3 0.19 mg/m3 23.44 °C 63.42 % 1,012.58 mbar 2.93 m/s 198.82 Deg 1.75 µg/m3 1.73 µg/m3
2022-11-04 16:00 20.55 µg/m3 0.37 µg/m3 83.73 µg/m3 31.86 µg/m3 12.37 µg/m3 0.19 mg/m3 23.94 °C 60.83 % 1,012.85 mbar 3.51 m/s 206.78 Deg 3.18 µg/m3 1.63 µg/m3
2022-11-04 15:00 18.05 µg/m3 0.42 µg/m3 76.52 µg/m3 34.55 µg/m3 12.81 µg/m3 0.17 mg/m3 24.35 °C 60.59 % 1,013.58 mbar 3.64 m/s 207.47 Deg 2.93 µg/m3 1.42 µg/m3
2022-11-04 14:00 17.41 µg/m3 0.43 µg/m3 70.97 µg/m3 41.68 µg/m3 12.9 µg/m3 0.14 mg/m3 24.54 °C 58.82 % 1,014.18 mbar 3.93 m/s 219.72 Deg 3.62 µg/m3 1.26 µg/m3
2022-11-04 13:00 16.92 µg/m3 0.34 µg/m3 68.3 µg/m3 31.23 µg/m3 10.82 µg/m3 0.15 mg/m3 24.61 °C 58.67 % 1,014.94 mbar 3.51 m/s 211.52 Deg 4.83 µg/m3 1.1 µg/m3
2022-11-04 12:00 17.55 µg/m3 0.42 µg/m3 64.9 µg/m3 29.16 µg/m3 10.4 µg/m3 0.13 mg/m3 24.18 °C 59.6 % 1,015.98 mbar 3.65 m/s 214.77 Deg 4.2 µg/m3 1.15 µg/m3
2022-11-04 11:00 17.82 µg/m3 0.47 µg/m3 59.16 µg/m3 29.77 µg/m3 10.09 µg/m3 0.1 mg/m3 23.99 °C 60.2 % 1,016.74 mbar 3.45 m/s 216.08 Deg 4.62 µg/m3 16.43 µg/m3
2022-11-04 10:00 0 µg/m3 0 µg/m3 0 µg/m3 28.17 µg/m3 9.68 µg/m3 0 mg/m3 23.66 °C 61.89 % 1,017.15 mbar 3.26 m/s 213.53 Deg 0 µg/m3 56.21 µg/m3
2022-11-04 09:00 0 µg/m3 0 µg/m3 0 µg/m3 29.7 µg/m3 11.35 µg/m3 0 mg/m3 23.22 °C 64.01 % 1,017.36 mbar 2.48 m/s 213.95 Deg 0 µg/m3 3.57 µg/m3
2022-11-04 08:00 0 µg/m3 0 µg/m3 0 µg/m3 28.82 µg/m3 13.55 µg/m3 0 mg/m3 22.01 °C 67.6 % 1,017.33 mbar 1.09 m/s 206.65 Deg 0 µg/m3 12.6 µg/m3
2022-11-04 07:00 67.92 µg/m3 3.15 µg/m3 2.99 µg/m3 40.75 µg/m3 27.18 µg/m3 1.4 mg/m3 20.04 °C 75.98 % 1,017.34 mbar 0.46 m/s 240.05 Deg 202.18 µg/m3 9.24 µg/m3
2022-11-04 06:00 55.36 µg/m3 1.48 µg/m3 2.41 µg/m3 30.08 µg/m3 20.47 µg/m3 0.61 mg/m3 19.57 °C 77.87 % 1,017.42 mbar 0.39 m/s 252.09 Deg 77.82 µg/m3 4.15 µg/m3
2022-11-04 05:00 43.96 µg/m3 0.65 µg/m3 7.61 µg/m3 22.07 µg/m3 15.58 µg/m3 0.3 mg/m3 19.84 °C 76.66 % 1,017.44 mbar 0.68 m/s 235.36 Deg 12.27 µg/m3 2.62 µg/m3
2022-11-04 04:00 28.58 µg/m3 0.48 µg/m3 22.06 µg/m3 20.27 µg/m3 15.44 µg/m3 0.22 mg/m3 19.76 °C 76.61 % 1,017.41 mbar 0.85 m/s 229.32 Deg 2.7 µg/m3 3.2 µg/m3
2022-11-04 03:00 28.07 µg/m3 0.47 µg/m3 20.53 µg/m3 20.46 µg/m3 15.52 µg/m3 0.31 mg/m3 19.72 °C 76.81 % 1,018.04 mbar 0.76 m/s 235.38 Deg 1.23 µg/m3 3.67 µg/m3
2022-11-04 02:00 42.22 µg/m3 0.48 µg/m3 15.47 µg/m3 23.99 µg/m3 17.62 µg/m3 0.41 mg/m3 19.88 °C 76.33 % 1,018.59 mbar 0.74 m/s 230.45 Deg 5.75 µg/m3 4.46 µg/m3
2022-11-04 01:00 45.16 µg/m3 0.69 µg/m3 12.05 µg/m3 26.68 µg/m3 18.79 µg/m3 0.45 mg/m3 19.94 °C 75.98 % 1,019.10 mbar 0.84 m/s 234.57 Deg 5.44 µg/m3 4.04 µg/m3
2022-11-04 00:00 47.57 µg/m3 0.63 µg/m3 15.7 µg/m3 27.86 µg/m3 19.09 µg/m3 0.43 mg/m3 20.14 °C 74.87 % 1,019.41 mbar 0.71 m/s 232.62 Deg 6.74 µg/m3 4.51 µg/m3
2022-11-03 23:00 53.63 µg/m3 0.64 µg/m3 11.58 µg/m3 31.14 µg/m3 21.13 µg/m3 0.49 mg/m3 20.43 °C 73.85 % 1,019.71 mbar 0.74 m/s 238.65 Deg 12.97 µg/m3 3.94 µg/m3
2022-11-03 22:00 56.53 µg/m3 0.67 µg/m3 11.43 µg/m3 31.15 µg/m3 21.11 µg/m3 0.56 mg/m3 20.86 °C 72.5 % 1,020.01 mbar 0.79 m/s 230.92 Deg 14.53 µg/m3 4.46 µg/m3
2022-11-03 21:00 61.37 µg/m3 0.66 µg/m3 10.71 µg/m3 32.14 µg/m3 20.94 µg/m3 0.51 mg/m3 21.25 °C 71.08 % 1,020.00 mbar 0.84 m/s 228.17 Deg 14.26 µg/m3 5.04 µg/m3
2022-11-03 20:00 56.62 µg/m3 0.53 µg/m3 17.28 µg/m3 40.88 µg/m3 20.52 µg/m3 0.44 mg/m3 21.73 °C 69.33 % 1,020.00 mbar 0.83 m/s 214.17 Deg 5.42 µg/m3 3.25 µg/m3
2022-11-03 19:00 54.18 µg/m3 0.44 µg/m3 23.1 µg/m3 37.82 µg/m3 19.02 µg/m3 0.42 mg/m3 22.13 °C 68.52 % 1,020.10 mbar 0.82 m/s 216.18 Deg 5.55 µg/m3 3.25 µg/m3
2022-11-03 18:00 46.15 µg/m3 0.39 µg/m3 33.23 µg/m3 38.5 µg/m3 16.68 µg/m3 0.38 mg/m3 22.55 °C 67.56 % 1,019.94 mbar 1.32 m/s 227.12 Deg 5.55 µg/m3 1.94 µg/m3
2022-11-03 17:00 33.17 µg/m3 0.36 µg/m3 47.95 µg/m3 29.74 µg/m3 14.31 µg/m3 0.26 mg/m3 23.08 °C 65.31 % 1,020.04 mbar 2.03 m/s 234.37 Deg 6.65 µg/m3 1.52 µg/m3
2022-11-03 16:00 30.29 µg/m3 0.45 µg/m3 50.47 µg/m3 22.73 µg/m3 10.51 µg/m3 0.22 mg/m3 23.87 °C 62.45 % 1,020.24 mbar 2.32 m/s 241.47 Deg 7.49 µg/m3 1.42 µg/m3
2022-11-03 15:00 24.06 µg/m3 0.4 µg/m3 54.18 µg/m3 20.88 µg/m3 9.03 µg/m3 0.19 mg/m3 24.29 °C 60.37 % 1,020.35 mbar 2.42 m/s 238.03 Deg 6.87 µg/m3 1.15 µg/m3
2022-11-03 14:00 21.44 µg/m3 0.38 µg/m3 56.59 µg/m3 16.1 µg/m3 7.61 µg/m3 0.18 mg/m3 24.36 °C 60.16 % 1,020.75 mbar 2.54 m/s 256.17 Deg 7.11 µg/m3 1.15 µg/m3
2022-11-03 13:00 18.3 µg/m3 0.39 µg/m3 60.53 µg/m3 16.82 µg/m3 7.45 µg/m3 0.18 mg/m3 24.3 °C 59.52 % 1,021.41 mbar 2.53 m/s 246.25 Deg 4.96 µg/m3 1.21 µg/m3
2022-11-03 12:00 20.33 µg/m3 0.42 µg/m3 58.53 µg/m3 18.61 µg/m3 7.96 µg/m3 0.18 mg/m3 24.14 °C 61.39 % 1,022.16 mbar 2.51 m/s 240.55 Deg 5.97 µg/m3 1.26 µg/m3
2022-11-03 11:00 23.21 µg/m3 0.48 µg/m3 56.73 µg/m3 15.73 µg/m3 7.6 µg/m3 0.2 mg/m3 23.82 °C 63.21 % 1,022.74 mbar 2.23 m/s 251.68 Deg 7.09 µg/m3 1.47 µg/m3
2022-11-03 10:00 40.35 µg/m3 0.55 µg/m3 43.91 µg/m3 21.18 µg/m3 9.79 µg/m3 0.26 mg/m3 23.43 °C 65.02 % 1,022.90 mbar 1.57 m/s 256 Deg 13.94 µg/m3 4.2 µg/m3
2022-11-03 09:00 68.61 µg/m3 1.15 µg/m3 14.47 µg/m3 42.57 µg/m3 19.98 µg/m3 0.58 mg/m3 22.01 °C 73.34 % 1,022.93 mbar 0.95 m/s 210.62 Deg 48.92 µg/m3 7.3 µg/m3
2022-11-03 08:00 70.88 µg/m3 1.97 µg/m3 5.6 µg/m3 35.1 µg/m3 23.63 µg/m3 0.84 mg/m3 19.66 °C 80.15 % 1,022.56 mbar 1.01 m/s 225.72 Deg 96.38 µg/m3 8.87 µg/m3
2022-11-03 07:00 63.95 µg/m3 2.27 µg/m3 1.88 µg/m3 34.94 µg/m3 24.28 µg/m3 0.98 mg/m3 18.51 °C 83.51 % 1,022.13 mbar 0.85 m/s 241.43 Deg 119.65 µg/m3 7.35 µg/m3
2022-11-03 06:00 44.68 µg/m3 1.08 µg/m3 6.09 µg/m3 37.42 µg/m3 29.99 µg/m3 0.48 mg/m3 18.54 °C 82.98 % 1,021.94 mbar 0.75 m/s 222.08 Deg 35.55 µg/m3 4.83 µg/m3
2022-11-03 05:00 23.29 µg/m3 0.63 µg/m3 18.36 µg/m3 32.77 µg/m3 27.87 µg/m3 0.24 mg/m3 18.65 °C 82.47 % 1,021.95 mbar 0.89 m/s 229.13 Deg 2.36 µg/m3 2.36 µg/m3
2022-11-03 04:00 21.5 µg/m3 0.56 µg/m3 20.33 µg/m3 20.86 µg/m3 17.12 µg/m3 0.24 mg/m3 18.74 °C 81.37 % 1,022.09 mbar 0.85 m/s 239.17 Deg 1.85 µg/m3 3.73 µg/m3
2022-11-03 03:00 21.15 µg/m3 0.48 µg/m3 22.45 µg/m3 21.33 µg/m3 17.14 µg/m3 0.24 mg/m3 18.99 °C 80.31 % 1,022.46 mbar 0.93 m/s 239.47 Deg 0.45 µg/m3 2.41 µg/m3
2022-11-03 02:00 30.26 µg/m3 0.54 µg/m3 22.28 µg/m3 20.35 µg/m3 15.78 µg/m3 0.24 mg/m3 19.26 °C 79.77 % 1,022.60 mbar 0.79 m/s 243.67 Deg 7.33 µg/m3 3.99 µg/m3
2022-11-03 01:00 38.02 µg/m3 0.7 µg/m3 16.93 µg/m3 24.71 µg/m3 18.02 µg/m3 0.42 mg/m3 19.6 °C 78.72 % 1,022.67 mbar 0.78 m/s 238.83 Deg 5.89 µg/m3 3.67 µg/m3
2022-11-03 00:00 48.36 µg/m3 0.7 µg/m3 12.8 µg/m3 25.34 µg/m3 17.85 µg/m3 0.44 mg/m3 19.94 °C 77.18 % 1,022.79 mbar 0.8 m/s 243.23 Deg 8.38 µg/m3 4.78 µg/m3
2022-11-02 23:00 59.17 µg/m3 0.88 µg/m3 6.05 µg/m3 28.33 µg/m3 19.28 µg/m3 0.58 mg/m3 20.6 °C 74.81 % 1,022.86 mbar 0.62 m/s 237.78 Deg 22.72 µg/m3 4.51 µg/m3
2022-11-02 22:00 51.86 µg/m3 0.66 µg/m3 14.97 µg/m3 26.92 µg/m3 18.16 µg/m3 0.45 mg/m3 21 °C 73.89 % 1,022.80 mbar 0.58 m/s 214.93 Deg 8.17 µg/m3 3.04 µg/m3
2022-11-02 21:00 49.01 µg/m3 0.55 µg/m3 19.98 µg/m3 26.71 µg/m3 17.96 µg/m3 0.39 mg/m3 21.25 °C 74.65 % 1,022.81 mbar 0.6 m/s 214.45 Deg 3.65 µg/m3 2.99 µg/m3
2022-11-02 20:00 48.75 µg/m3 0.47 µg/m3 24.98 µg/m3 28.78 µg/m3 19.5 µg/m3 0.41 mg/m3 21.66 °C 73.58 % 1,022.70 mbar 0.8 m/s 251.55 Deg 5.76 µg/m3 3.2 µg/m3
2022-11-02 19:00 46.82 µg/m3 0.45 µg/m3 30.04 µg/m3 27.18 µg/m3 15.06 µg/m3 0.39 mg/m3 22.14 °C 71.33 % 1,022.50 mbar 1.36 m/s 251.7 Deg 8.44 µg/m3 3.36 µg/m3
2022-11-02 18:00 44.31 µg/m3 0.47 µg/m3 34.23 µg/m3 24.68 µg/m3 13.9 µg/m3 0.37 mg/m3 22.55 °C 69.76 % 1,022.25 mbar 1.71 m/s 251.6 Deg 11.56 µg/m3 2.47 µg/m3
2022-11-02 17:00 35.7 µg/m3 0.39 µg/m3 48.39 µg/m3 24.26 µg/m3 13.93 µg/m3 0.28 mg/m3 23.36 °C 66.07 % 1,022.15 mbar 2.09 m/s 258.9 Deg 6.97 µg/m3 1.73 µg/m3
2022-11-02 16:00 28.06 µg/m3 0.41 µg/m3 54.43 µg/m3 21.39 µg/m3 10.81 µg/m3 0.21 mg/m3 24.26 °C 61.59 % 1,022.18 mbar 2.03 m/s 261.32 Deg 6.48 µg/m3 1.21 µg/m3
2022-11-02 15:00 25.02 µg/m3 0.38 µg/m3 62.13 µg/m3 23.48 µg/m3 11.12 µg/m3 0.19 mg/m3 24.48 °C 62.15 % 1,022.24 mbar 2.11 m/s 280.48 Deg 5.66 µg/m3 1.42 µg/m3
2022-11-02 14:00 23.04 µg/m3 0.43 µg/m3 68.93 µg/m3 30.01 µg/m3 12.57 µg/m3 0.19 mg/m3 24.2 °C 65.14 % 1,022.57 mbar 2.06 m/s 315.75 Deg 8.24 µg/m3 1.36 µg/m3
2022-11-02 13:00 26.41 µg/m3 0.49 µg/m3 65.9 µg/m3 28.86 µg/m3 11.81 µg/m3 0.27 mg/m3 24.17 °C 65.39 % 1,023.20 mbar 1.94 m/s 333.32 Deg 14.16 µg/m3 1.63 µg/m3
2022-11-02 12:00 24.46 µg/m3 0.48 µg/m3 62.37 µg/m3 28.41 µg/m3 11.86 µg/m3 0.24 mg/m3 24.06 °C 65.88 % 1,023.74 mbar 1.81 m/s 323.68 Deg 17.04 µg/m3 1.26 µg/m3
2022-11-02 11:00 22.35 µg/m3 0.44 µg/m3 59.38 µg/m3 23.81 µg/m3 11.34 µg/m3 0.21 mg/m3 23.82 °C 66.5 % 1,024.07 mbar 1.94 m/s 309.5 Deg 8.7 µg/m3 1.63 µg/m3
2022-11-02 10:00 35.41 µg/m3 0.5 µg/m3 46.61 µg/m3 27.89 µg/m3 12.48 µg/m3 0.27 mg/m3 23.57 °C 67.8 % 1,024.07 mbar 1.73 m/s 284.75 Deg 12.8 µg/m3 3.41 µg/m3
2022-11-02 09:00 59.04 µg/m3 0.95 µg/m3 22.59 µg/m3 46.24 µg/m3 20.07 µg/m3 0.48 mg/m3 22.66 °C 72.54 % 1,024.15 mbar 1.2 m/s 242.97 Deg 36.54 µg/m3 7.93 µg/m3
2022-11-02 08:00 63.68 µg/m3 1.46 µg/m3 5.94 µg/m3 38.48 µg/m3 25.8 µg/m3 0.68 mg/m3 20.07 °C 80.08 % 1,023.76 mbar 1.21 m/s 220.5 Deg 57.56 µg/m3 7.3 µg/m3
2022-11-02 07:00 55.28 µg/m3 1.33 µg/m3 4.43 µg/m3 41.61 µg/m3 29.48 µg/m3 0.64 mg/m3 19.13 °C 81.52 % 1,023.22 mbar 1.15 m/s 231.57 Deg 53.37 µg/m3 8.03 µg/m3
2022-11-02 06:00 40.78 µg/m3 0.94 µg/m3 7.38 µg/m3 70.44 µg/m3 58.1 µg/m3 0.52 mg/m3 19 °C 81.44 % 1,022.90 mbar 0.88 m/s 232.95 Deg 24.82 µg/m3 5.77 µg/m3
2022-11-02 05:00 27.29 µg/m3 0.66 µg/m3 15.89 µg/m3 38.93 µg/m3 30.55 µg/m3 0.23 mg/m3 19.16 °C 80.91 % 1,022.67 mbar 0.94 m/s 236.12 Deg 4.62 µg/m3 2.57 µg/m3
2022-11-02 04:00 19.31 µg/m3 0.42 µg/m3 25.71 µg/m3 24.06 µg/m3 18.55 µg/m3 0.21 mg/m3 19.45 °C 80.21 % 1,022.68 mbar 0.92 m/s 235.32 Deg 0.1 µg/m3 3.1 µg/m3
2022-11-02 03:00 21.47 µg/m3 0.38 µg/m3 25.53 µg/m3 23.94 µg/m3 18.12 µg/m3 0.31 mg/m3 19.77 °C 79.28 % 1,022.96 mbar 0.87 m/s 239.93 Deg 0.17 µg/m3 2.31 µg/m3
2022-11-02 02:00 24.01 µg/m3 0.4 µg/m3 28.94 µg/m3 22.84 µg/m3 16.8 µg/m3 0.31 mg/m3 20.19 °C 77.87 % 1,023.32 mbar 0.76 m/s 241.07 Deg 0.03 µg/m3 2.26 µg/m3
2022-11-02 01:00 41.89 µg/m3 0.58 µg/m3 22.75 µg/m3 25.58 µg/m3 17.86 µg/m3 0.37 mg/m3 20.8 °C 76.22 % 1,023.43 mbar 0.67 m/s 228.77 Deg 3.89 µg/m3 2.41 µg/m3
2022-11-02 00:00 40.06 µg/m3 0.55 µg/m3 27.42 µg/m3 25.82 µg/m3 17.82 µg/m3 0.35 mg/m3 21 °C 75.23 % 1,023.70 mbar 0.73 m/s 225.75 Deg 2.58 µg/m3 2.83 µg/m3
2022-11-01 23:00 41.09 µg/m3 0.6 µg/m3 31.32 µg/m3 25.77 µg/m3 17.45 µg/m3 0.37 mg/m3 21.46 °C 72.97 % 1,023.87 mbar 0.67 m/s 224.68 Deg 2.42 µg/m3 2.15 µg/m3
2022-11-01 22:00 46.47 µg/m3 0.5 µg/m3 29.73 µg/m3 24.91 µg/m3 17.03 µg/m3 0.4 mg/m3 21.61 °C 72.69 % 1,023.96 mbar 0.81 m/s 233.75 Deg 3.89 µg/m3 2.83 µg/m3
2022-11-01 21:00 57.68 µg/m3 0.41 µg/m3 23.27 µg/m3 30.78 µg/m3 20.63 µg/m3 0.47 mg/m3 21.75 °C 72.85 % 1,023.88 mbar 1.13 m/s 242.77 Deg 9.21 µg/m3 3.15 µg/m3
2022-11-01 20:00 62.85 µg/m3 0.51 µg/m3 20.97 µg/m3 39.15 µg/m3 20.17 µg/m3 0.51 mg/m3 22.13 °C 71.27 % 1,023.72 mbar 0.94 m/s 242.38 Deg 9.41 µg/m3 3.15 µg/m3
2022-11-01 19:00 61.22 µg/m3 0.5 µg/m3 25.68 µg/m3 42.37 µg/m3 20.68 µg/m3 0.49 mg/m3 22.42 °C 69.68 % 1,023.37 mbar 1.27 m/s 249.32 Deg 10.39 µg/m3 3.36 µg/m3
2022-11-01 18:00 53.86 µg/m3 0.49 µg/m3 34.49 µg/m3 35.73 µg/m3 17.37 µg/m3 0.44 mg/m3 22.81 °C 67.68 % 1,022.85 mbar 1.16 m/s 257.75 Deg 8.92 µg/m3 2.31 µg/m3
2022-11-01 17:00 38.48 µg/m3 0.39 µg/m3 49.75 µg/m3 28.03 µg/m3 14.39 µg/m3 0.34 mg/m3 23.39 °C 64.92 % 1,022.46 mbar 1.67 m/s 292.8 Deg 7.54 µg/m3 1.52 µg/m3
2022-11-01 16:00 27.66 µg/m3 0.43 µg/m3 62.28 µg/m3 35.2 µg/m3 14.4 µg/m3 0.25 mg/m3 23.8 °C 63.13 % 1,022.33 mbar 1.96 m/s 306.23 Deg 8.01 µg/m3 1.31 µg/m3
2022-11-01 15:00 23.82 µg/m3 0.47 µg/m3 68.6 µg/m3 35.57 µg/m3 13.76 µg/m3 0.24 mg/m3 24.04 °C 61.27 % 1,022.33 mbar 2.3 m/s 301.58 Deg 9.01 µg/m3 1 µg/m3
2022-11-01 14:00 19.44 µg/m3 0.39 µg/m3 72.36 µg/m3 41.91 µg/m3 13.37 µg/m3 0.21 mg/m3 24.19 °C 59.15 % 1,022.49 mbar 2.37 m/s 307.87 Deg 10.03 µg/m3 1.05 µg/m3
2022-11-01 13:00 21.26 µg/m3 0.36 µg/m3 74.2 µg/m3 35.32 µg/m3 11.78 µg/m3 0.18 mg/m3 24.13 °C 58.96 % 1,022.89 mbar 2.67 m/s 307.32 Deg 7.05 µg/m3 1.26 µg/m3
2022-11-01 12:00 30.84 µg/m3 0.47 µg/m3 64.77 µg/m3 45.65 µg/m3 13.16 µg/m3 0.22 mg/m3 24.22 °C 59.24 % 1,023.31 mbar 2.36 m/s 312.83 Deg 15.65 µg/m3 1.42 µg/m3
2022-11-01 11:00 33.37 µg/m3 0.49 µg/m3 58.31 µg/m3 34.47 µg/m3 11.89 µg/m3 0.23 mg/m3 24.23 °C 59.68 % 1,023.60 mbar 1.96 m/s 295.1 Deg 15.73 µg/m3 1.84 µg/m3
2022-11-01 10:00 39.15 µg/m3 0.54 µg/m3 53.37 µg/m3 68.18 µg/m3 17.06 µg/m3 0.26 mg/m3 23.64 °C 62.45 % 1,023.51 mbar 2.06 m/s 285.48 Deg 16.54 µg/m3 1.99 µg/m3
2022-11-01 09:00 48.18 µg/m3 0.54 µg/m3 38.28 µg/m3 46.86 µg/m3 16.51 µg/m3 0.3 mg/m3 23.02 °C 66.32 % 1,023.31 mbar 1.66 m/s 270.05 Deg 18.03 µg/m3 3.83 µg/m3
2022-11-01 08:00 78.83 µg/m3 1.49 µg/m3 11.57 µg/m3 43.59 µg/m3 22.22 µg/m3 0.64 mg/m3 21.66 °C 72.21 % 1,022.93 mbar 1.1 m/s 251.6 Deg 66 µg/m3 11.76 µg/m3
2022-11-01 07:00 83.24 µg/m3 1.85 µg/m3 3.22 µg/m3 44.13 µg/m3 29.42 µg/m3 0.89 mg/m3 20.32 °C 76.2 % 1,022.49 mbar 0.68 m/s 233.47 Deg 99.93 µg/m3 4.09 µg/m3
2022-11-01 06:00 44.46 µg/m3 0.54 µg/m3 29.67 µg/m3 25.09 µg/m3 16.87 µg/m3 0.32 mg/m3 20.38 °C 75.64 % 1,022.16 mbar 0.76 m/s 237.87 Deg 8.03 µg/m3 1.1 µg/m3
2022-11-01 05:00 17.78 µg/m3 0.49 µg/m3 53.53 µg/m3 19.2 µg/m3 13.32 µg/m3 0.16 mg/m3 20.46 °C 75.98 % 1,022.08 mbar 0.88 m/s 244.7 Deg -0.02 µg/m3 0.73 µg/m3
2022-11-01 04:00 8.73 µg/m3 0.42 µg/m3 63.65 µg/m3 17.7 µg/m3 12.64 µg/m3 0.14 mg/m3 20.37 °C 76.86 % 1,021.96 mbar 0.9 m/s 239.87 Deg -0.4 µg/m3 0.84 µg/m3
2022-11-01 03:00 6.94 µg/m3 0.35 µg/m3 67.14 µg/m3 16.73 µg/m3 12.13 µg/m3 0.15 mg/m3 20.59 °C 75.87 % 1,021.89 mbar 0.94 m/s 242.6 Deg -0.37 µg/m3 0.79 µg/m3
2022-11-01 02:00 7.56 µg/m3 0.42 µg/m3 67.54 µg/m3 17.16 µg/m3 12.27 µg/m3 0.15 mg/m3 20.72 °C 75.36 % 1,022.02 mbar 0.99 m/s 249.38 Deg -0.09 µg/m3 0.94 µg/m3
2022-11-01 01:00 11.44 µg/m3 0.53 µg/m3 65.18 µg/m3 19.01 µg/m3 13.57 µg/m3 0.18 mg/m3 20.78 °C 75.18 % 1,022.14 mbar 1.01 m/s 243.45 Deg -0.1 µg/m3 1.15 µg/m3
2022-11-01 00:00 19.63 µg/m3 0.44 µg/m3 58.44 µg/m3 19.98 µg/m3 14.2 µg/m3 0.2 mg/m3 20.86 °C 74.09 % 1,022.28 mbar 1.1 m/s 238.48 Deg 0.39 µg/m3 1.36 µg/m3
2022-10-31 23:00 27.88 µg/m3 0.47 µg/m3 51.03 µg/m3 21.26 µg/m3 14.35 µg/m3 0.21 mg/m3 20.98 °C 72.44 % 1,022.34 mbar 1.12 m/s 233.27 Deg 1.04 µg/m3 1.47 µg/m3
2022-10-31 22:00 27.33 µg/m3 0.5 µg/m3 53.5 µg/m3 26.64 µg/m3 14.56 µg/m3 0.23 mg/m3 21.28 °C 69.74 % 1,022.30 mbar 1.37 m/s 242.07 Deg 1.06 µg/m3 1.68 µg/m3
2022-10-31 21:00 38.82 µg/m3 0.57 µg/m3 43.66 µg/m3 31.09 µg/m3 14.75 µg/m3 0.28 mg/m3 21.29 °C 67.25 % 1,022.15 mbar 1.01 m/s 238.27 Deg 2.99 µg/m3 2.89 µg/m3
2022-10-31 20:00 58.26 µg/m3 0.62 µg/m3 24.44 µg/m3 39.97 µg/m3 14.3 µg/m3 0.39 mg/m3 21.43 °C 60.49 % 1,022.16 mbar 1.24 m/s 241.45 Deg 8.5 µg/m3 3.2 µg/m3
2022-10-31 19:00 70.87 µg/m3 0.71 µg/m3 19.1 µg/m3 35.69 µg/m3 12.92 µg/m3 0.41 mg/m3 21.91 °C 56.12 % 1,021.95 mbar 1.42 m/s 244.98 Deg 17.76 µg/m3 3.46 µg/m3
2022-10-31 18:00 62.7 µg/m3 0.51 µg/m3 32.91 µg/m3 42.28 µg/m3 15.57 µg/m3 0.37 mg/m3 22.49 °C 59.09 % 1,021.46 mbar 1.16 m/s 274.75 Deg 12.83 µg/m3 1.89 µg/m3
2022-10-31 17:00 34.17 µg/m3 0.4 µg/m3 64.8 µg/m3 56.01 µg/m3 16.1 µg/m3 0.23 mg/m3 22.92 °C 63.08 % 1,021.19 mbar 1.75 m/s 309.38 Deg 6.26 µg/m3 1.26 µg/m3
2022-10-31 16:00 32.25 µg/m3 0.36 µg/m3 70.03 µg/m3 62.84 µg/m3 16.6 µg/m3 0.19 mg/m3 23.35 °C 63.93 % 1,021.11 mbar 1.85 m/s 306.25 Deg 8.63 µg/m3 1.26 µg/m3
2022-10-31 15:00 31.68 µg/m3 0.42 µg/m3 70.84 µg/m3 143.7 µg/m3 27.3 µg/m3 0.19 mg/m3 23.99 °C 58.55 % 1,021.04 mbar 2 m/s 316.5 Deg 11.13 µg/m3 1.26 µg/m3
2022-10-31 14:00 27.48 µg/m3 0.43 µg/m3 73.49 µg/m3 37.69 µg/m3 13.23 µg/m3 0.15 mg/m3 23.92 °C 57.39 % 1,021.11 mbar 2.38 m/s 315.18 Deg 12.43 µg/m3 1.05 µg/m3
2022-10-31 13:00 27.08 µg/m3 0.53 µg/m3 70.99 µg/m3 38.23 µg/m3 12.3 µg/m3 0.16 mg/m3 24.09 °C 56.47 % 1,021.52 mbar 2.1 m/s 321.67 Deg 15.73 µg/m3 1.21 µg/m3
2022-10-31 12:00 34.04 µg/m3 0.53 µg/m3 65.7 µg/m3 40.88 µg/m3 13.84 µg/m3 0.19 mg/m3 24.01 °C 58.69 % 1,021.94 mbar 1.88 m/s 320.95 Deg 17.32 µg/m3 1.36 µg/m3
2022-10-31 11:00 29.11 µg/m3 0.54 µg/m3 64.63 µg/m3 39.01 µg/m3 13.93 µg/m3 0.18 mg/m3 23.74 °C 60.51 % 1,022.22 mbar 1.83 m/s 300.62 Deg 13.14 µg/m3 1.63 µg/m3
2022-10-31 10:00 31.46 µg/m3 0.52 µg/m3 59.5 µg/m3 37.88 µg/m3 14.59 µg/m3 0.23 mg/m3 23.19 °C 63.63 % 1,022.29 mbar 1.57 m/s 311.12 Deg 12.77 µg/m3 2.36 µg/m3
2022-10-31 09:00 47.62 µg/m3 0.73 µg/m3 46.75 µg/m3 68.75 µg/m3 19.51 µg/m3 0.3 mg/m3 22.92 °C 65.33 % 1,022.01 mbar 1.05 m/s 308.83 Deg 22.35 µg/m3 9.13 µg/m3
2022-10-31 08:00 89.5 µg/m3 1.95 µg/m3 6.73 µg/m3 111.82 µg/m3 34.72 µg/m3 0.96 mg/m3 21.66 °C 69.76 % 1,021.62 mbar 0.4 m/s 232.53 Deg 97.99 µg/m3 13.59 µg/m3
2022-10-31 07:00 68.71 µg/m3 2.39 µg/m3 3.41 µg/m3 52.02 µg/m3 34.69 µg/m3 1.14 mg/m3 20.44 °C 73.46 % 1,021.18 mbar 0.36 m/s 228.06 Deg 130.88 µg/m3 9.34 µg/m3
2022-10-31 06:00 51.65 µg/m3 1.24 µg/m3 2.87 µg/m3 35.85 µg/m3 24.12 µg/m3 0.47 mg/m3 20.03 °C 73.32 % 1,020.87 mbar 0.23 m/s 270.92 Deg 42.93 µg/m3 6.4 µg/m3
2022-10-31 05:00 43.4 µg/m3 0.87 µg/m3 5.77 µg/m3 31.28 µg/m3 21.26 µg/m3 0.21 mg/m3 19.68 °C 73.8 % 1,020.68 mbar 0.1 m/s 240.27 Deg 17.83 µg/m3 2.99 µg/m3
2022-10-31 04:00 30.06 µg/m3 0.68 µg/m3 22.33 µg/m3 27.66 µg/m3 19.54 µg/m3 0.2 mg/m3 19.55 °C 72.69 % 1,020.71 mbar 0.39 m/s 239.77 Deg 1.9 µg/m3 2.78 µg/m3
2022-10-31 03:00 32.23 µg/m3 0.58 µg/m3 26.22 µg/m3 29.12 µg/m3 21.07 µg/m3 0.2 mg/m3 19.4 °C 72.76 % 1,020.95 mbar 0.46 m/s 233.08 Deg 0.6 µg/m3 2.52 µg/m3
2022-10-31 02:00 29.15 µg/m3 0.46 µg/m3 30.9 µg/m3 30.99 µg/m3 22.21 µg/m3 0.23 mg/m3 19.57 °C 72.18 % 1,021.18 mbar 0.44 m/s 173.81 Deg 0.44 µg/m3 2.99 µg/m3
2022-10-31 01:00 28.6 µg/m3 0.59 µg/m3 41.26 µg/m3 29.08 µg/m3 21.26 µg/m3 0.23 mg/m3 19.9 °C 71.3 % 1,021.36 mbar 0.67 m/s 166.47 Deg 0.07 µg/m3 4.88 µg/m3
2022-10-31 00:00 57.8 µg/m3 0.82 µg/m3 15.24 µg/m3 39.27 µg/m3 26.92 µg/m3 0.48 mg/m3 20.42 °C 71.17 % 1,021.49 mbar 0.35 m/s 199.42 Deg 7.88 µg/m3 6.04 µg/m3
2022-10-30 23:00 68.76 µg/m3 0.86 µg/m3 11.01 µg/m3 51.04 µg/m3 30.32 µg/m3 0.61 mg/m3 20.96 °C 69.63 % 1,021.59 mbar 0.66 m/s 233.82 Deg 13.28 µg/m3 4.36 µg/m3
2022-10-30 22:00 59.25 µg/m3 0.61 µg/m3 27.93 µg/m3 47.66 µg/m3 24.34 µg/m3 0.43 mg/m3 21.44 °C 66.74 % 1,021.65 mbar 0.64 m/s 223.53 Deg 3.27 µg/m3 3.2 µg/m3
2022-10-30 21:00 56.75 µg/m3 0.83 µg/m3 39.47 µg/m3 45.9 µg/m3 20.89 µg/m3 0.45 mg/m3 21.68 °C 64.63 % 1,021.58 mbar 0.62 m/s 150.18 Deg 10.82 µg/m3 4.25 µg/m3
2022-10-30 20:00 40.98 µg/m3 0.89 µg/m3 61.56 µg/m3 34.75 µg/m3 16.73 µg/m3 0.46 mg/m3 21.82 °C 63.01 % 1,021.42 mbar 1.06 m/s 56.03 Deg 24.87 µg/m3 3.36 µg/m3
2022-10-30 19:00 47.92 µg/m3 0.9 µg/m3 61.09 µg/m3 32.82 µg/m3 15.62 µg/m3 0.44 mg/m3 21.98 °C 59.47 % 1,021.08 mbar 1.27 m/s 51.13 Deg 27.89 µg/m3 4.88 µg/m3
2022-10-30 18:00 49.21 µg/m3 0.9 µg/m3 54.35 µg/m3 38.06 µg/m3 14.6 µg/m3 0.47 mg/m3 22.41 °C 52.05 % 1,020.63 mbar 1.03 m/s 23.82 Deg 26.46 µg/m3 2.36 µg/m3
2022-10-30 17:00 25.01 µg/m3 0.59 µg/m3 78.59 µg/m3 19.01 µg/m3 9.95 µg/m3 0.21 mg/m3 22.76 °C 48.84 % 1,020.49 mbar 1.95 m/s 38.78 Deg 14.56 µg/m3 1.68 µg/m3
2022-10-30 16:00 23.5 µg/m3 0.48 µg/m3 81.33 µg/m3 28.11 µg/m3 10.51 µg/m3 0.2 mg/m3 23.07 °C 50.86 % 1,020.54 mbar 1.7 m/s 111.02 Deg 12.71 µg/m3 1.73 µg/m3
2022-10-30 15:00 22.82 µg/m3 0.51 µg/m3 83.07 µg/m3 13.64 µg/m3 8.46 µg/m3 0.18 mg/m3 22.96 °C 51.41 % 1,020.72 mbar 2.52 m/s 39.52 Deg 13.31 µg/m3 1.57 µg/m3
2022-10-30 14:00 16.39 µg/m3 0.45 µg/m3 83.45 µg/m3 13.73 µg/m3 8.28 µg/m3 0.17 mg/m3 22.81 °C 55.41 % 1,020.82 mbar 2.8 m/s 45.22 Deg 13.71 µg/m3 1.94 µg/m3
2022-10-30 13:00 20.27 µg/m3 0.49 µg/m3 81.74 µg/m3 16.12 µg/m3 9.42 µg/m3 0.25 mg/m3 22.87 °C 59.06 % 1,021.26 mbar 2.5 m/s 38.45 Deg 13 µg/m3 2.2 µg/m3
2022-10-30 12:00 17.64 µg/m3 0.43 µg/m3 83.09 µg/m3 16.06 µg/m3 10.32 µg/m3 0.24 mg/m3 22.65 °C 63.01 % 1,021.62 mbar 2.85 m/s 39.35 Deg 13.58 µg/m3 1.84 µg/m3
2022-10-30 11:00 14.51 µg/m3 0.48 µg/m3 80.26 µg/m3 15.8 µg/m3 10.15 µg/m3 0.3 mg/m3 22.31 °C 65.25 % 1,021.79 mbar 3.54 m/s 54.48 Deg 17.53 µg/m3 2.47 µg/m3
2022-10-30 10:00 19.43 µg/m3 0.57 µg/m3 77.78 µg/m3 18.87 µg/m3 11.04 µg/m3 0.29 mg/m3 22.15 °C 67.69 % 1,021.72 mbar 3.57 m/s 54.42 Deg 16.39 µg/m3 2.2 µg/m3
2022-10-30 09:00 12.77 µg/m3 0.54 µg/m3 76.19 µg/m3 19 µg/m3 11.16 µg/m3 0.23 mg/m3 22.01 °C 67.82 % 1,021.54 mbar 3.05 m/s 48.07 Deg 11.88 µg/m3 1.89 µg/m3
2022-10-30 08:00 14.98 µg/m3 0.62 µg/m3 75.99 µg/m3 18.85 µg/m3 11.41 µg/m3 0.21 mg/m3 21.76 °C 67.02 % 1,021.26 mbar 2.21 m/s 38.52 Deg 7.47 µg/m3 1.63 µg/m3
2022-10-30 07:00 20.59 µg/m3 0.66 µg/m3 72.47 µg/m3 19.77 µg/m3 11.95 µg/m3 0.21 mg/m3 21.31 °C 65.7 % 1,021.08 mbar 2.22 m/s 42.27 Deg 6.79 µg/m3 1.47 µg/m3
2022-10-30 06:00 6.51 µg/m3 0.56 µg/m3 81.49 µg/m3 16.52 µg/m3 11.16 µg/m3 0.16 mg/m3 21.29 °C 65.69 % 1,021.07 mbar 2.73 m/s 44.7 Deg 7.03 µg/m3 1.42 µg/m3
2022-10-30 05:00 5.28 µg/m3 0.56 µg/m3 84.23 µg/m3 14.55 µg/m3 10.68 µg/m3 0.13 mg/m3 21.34 °C 66.39 % 1,021.05 mbar 3.03 m/s 46.98 Deg 2.48 µg/m3 1.26 µg/m3
2022-10-30 04:00 5.55 µg/m3 0.51 µg/m3 79.51 µg/m3 15.89 µg/m3 11.27 µg/m3 0.13 mg/m3 21.28 °C 70.79 % 1,020.96 mbar 2.34 m/s 42.92 Deg 1.31 µg/m3 1.47 µg/m3
2022-10-30 03:00 8.34 µg/m3 0.45 µg/m3 80.02 µg/m3 16.38 µg/m3 11.49 µg/m3 0.15 mg/m3 21.35 °C 70.7 % 1,021.23 mbar 2.24 m/s 37.13 Deg 2.8 µg/m3 1.68 µg/m3
2022-10-30 02:00 7.2 µg/m3 0.45 µg/m3 81.55 µg/m3 15.49 µg/m3 10.89 µg/m3 0.15 mg/m3 21.55 °C 68.45 % 1,021.62 mbar 2.68 m/s 43.47 Deg 1.63 µg/m3 1.47 µg/m3
2022-10-30 01:00 10.66 µg/m3 0.55 µg/m3 78.68 µg/m3 16.97 µg/m3 11.18 µg/m3 0.18 mg/m3 21.62 °C 68.24 % 1,021.96 mbar 2.25 m/s 43.35 Deg 6.03 µg/m3 1.68 µg/m3
2022-10-30 00:00 11.28 µg/m3 0.62 µg/m3 79.02 µg/m3 18.42 µg/m3 11.82 µg/m3 0.18 mg/m3 21.67 °C 67.88 % 1,022.15 mbar 2.41 m/s 47.07 Deg 6.11 µg/m3 2.15 µg/m3
2022-10-29 23:00 18.38 µg/m3 0.65 µg/m3 73.74 µg/m3 21.96 µg/m3 13.4 µg/m3 0.25 mg/m3 21.85 °C 67.34 % 1,022.25 mbar 2.8 m/s 48.12 Deg 13.44 µg/m3 2.15 µg/m3
2022-10-29 22:00 21.68 µg/m3 0.66 µg/m3 69.16 µg/m3 22.43 µg/m3 13.77 µg/m3 0.25 mg/m3 21.9 °C 67.58 % 1,022.27 mbar 2.74 m/s 46.83 Deg 13.06 µg/m3 2.15 µg/m3
2022-10-29 21:00 18.54 µg/m3 0.64 µg/m3 73.27 µg/m3 23.56 µg/m3 14.48 µg/m3 0.24 mg/m3 21.96 °C 68.43 % 1,022.15 mbar 2.93 m/s 49 Deg 15.78 µg/m3 2.57 µg/m3
2022-10-29 20:00 18.76 µg/m3 0.58 µg/m3 71.83 µg/m3 26.27 µg/m3 15.94 µg/m3 0.33 mg/m3 22.08 °C 69.47 % 1,022.11 mbar 3.07 m/s 48.93 Deg 18.69 µg/m3 2.89 µg/m3
2022-10-29 19:00 24.63 µg/m3 0.6 µg/m3 71.12 µg/m3 27.61 µg/m3 16.04 µg/m3 0.33 mg/m3 22.14 °C 69.31 % 1,021.89 mbar 2.92 m/s 47.89 Deg 19.4 µg/m3 0 µg/m3
2022-10-29 18:00 24.8 µg/m3 0.71 µg/m3 72.25 µg/m3 26.45 µg/m3 15.67 µg/m3 0.3 mg/m3 22.28 °C 69.03 % 1,021.46 mbar 3.02 m/s 49.91 Deg 20.87 µg/m3 3.36 µg/m3
2022-10-29 17:00 19.03 µg/m3 0.51 µg/m3 77.15 µg/m3 23.78 µg/m3 14.78 µg/m3 0.26 mg/m3 22.65 °C 67.68 % 1,021.38 mbar 3.25 m/s 47.75 Deg 15.68 µg/m3 3.36 µg/m3
2022-10-29 16:00 12.66 µg/m3 0.44 µg/m3 79.72 µg/m3 19.8 µg/m3 12.89 µg/m3 0.21 mg/m3 22.75 °C 68.52 % 1,021.53 mbar 4.11 m/s 50.93 Deg 11.51 µg/m3 3.36 µg/m3
2022-10-29 15:00 17.39 µg/m3 0.48 µg/m3 78.39 µg/m3 19.32 µg/m3 12.2 µg/m3 0.21 mg/m3 22.85 °C 67.06 % 1,021.76 mbar 4.23 m/s 53.28 Deg 15.02 µg/m3 3.36 µg/m3
2022-10-29 14:00 16.66 µg/m3 0.47 µg/m3 78.25 µg/m3 19.61 µg/m3 11.18 µg/m3 0.24 mg/m3 23.01 °C 65.42 % 1,022.04 mbar 4.09 m/s 49.57 Deg 14.3 µg/m3 3.36 µg/m3
2022-10-29 13:00 16.25 µg/m3 0.48 µg/m3 77.95 µg/m3 16.18 µg/m3 9.02 µg/m3 0.24 mg/m3 22.93 °C 64.53 % 1,022.63 mbar 4.49 m/s 50.43 Deg 15.26 µg/m3 3.36 µg/m3
2022-10-29 12:00 20.77 µg/m3 0.63 µg/m3 77.42 µg/m3 16.5 µg/m3 9.3 µg/m3 0.23 mg/m3 22.96 °C 64.83 % 1,023.13 mbar 4.8 m/s 52.15 Deg 16.05 µg/m3 3.36 µg/m3
2022-10-29 11:00 18.85 µg/m3 0.78 µg/m3 73.28 µg/m3 21.26 µg/m3 10.66 µg/m3 0.32 mg/m3 22.8 °C 65.69 % 1,023.39 mbar 4.72 m/s 49.07 Deg 22.36 µg/m3 3.36 µg/m3
2022-10-29 10:00 18.42 µg/m3 0.69 µg/m3 69.14 µg/m3 23.95 µg/m3 12.87 µg/m3 0.32 mg/m3 22.51 °C 72.39 % 1,023.39 mbar 3.96 m/s 45.38 Deg 20.94 µg/m3 3.36 µg/m3
2022-10-29 09:00 27.8 µg/m3 0.73 µg/m3 68.69 µg/m3 23.22 µg/m3 13.27 µg/m3 0.36 mg/m3 22.25 °C 73.97 % 1,023.19 mbar 3.6 m/s 46.32 Deg 20.44 µg/m3 3.36 µg/m3
2022-10-29 08:00 20.6 µg/m3 0.67 µg/m3 67.69 µg/m3 20.44 µg/m3 13.41 µg/m3 0.33 mg/m3 21.86 °C 75.3 % 1,022.88 mbar 3.03 m/s 43.93 Deg 16.39 µg/m3 3.36 µg/m3
2022-10-29 07:00 20.61 µg/m3 0.58 µg/m3 69.28 µg/m3 20.94 µg/m3 13.12 µg/m3 0.23 mg/m3 21.76 °C 73.67 % 1,022.57 mbar 3.05 m/s 44.23 Deg 11.9 µg/m3 3.36 µg/m3
2022-10-29 06:00 18.39 µg/m3 0.62 µg/m3 73.88 µg/m3 19.16 µg/m3 12.47 µg/m3 0.18 mg/m3 21.73 °C 73.15 % 1,022.58 mbar 3.14 m/s 46.22 Deg 10.23 µg/m3 3.36 µg/m3
2022-10-29 05:00 8.66 µg/m3 0.63 µg/m3 76.61 µg/m3 20.07 µg/m3 12.46 µg/m3 0.18 mg/m3 21.72 °C 72.49 % 1,022.61 mbar 2.81 m/s 45.17 Deg 7.48 µg/m3 3.36 µg/m3
2022-10-29 04:00 6.72 µg/m3 0.56 µg/m3 73.83 µg/m3 17.79 µg/m3 12.26 µg/m3 0.16 mg/m3 21.64 °C 73.23 % 1,022.64 mbar 2.43 m/s 44 Deg 4.99 µg/m3 3.36 µg/m3
2022-10-29 03:00 7 µg/m3 0.52 µg/m3 78.33 µg/m3 18.03 µg/m3 11.93 µg/m3 0.13 mg/m3 21.69 °C 72.79 % 1,023.16 mbar 1.95 m/s 41.62 Deg 1.24 µg/m3 3.36 µg/m3
2022-10-29 02:00 5.55 µg/m3 0.44 µg/m3 78.73 µg/m3 17.73 µg/m3 12.2 µg/m3 0.17 mg/m3 21.78 °C 74.2 % 1,023.53 mbar 2.15 m/s 43.73 Deg 2.38 µg/m3 3.36 µg/m3
2022-10-29 01:00 17.07 µg/m3 0.57 µg/m3 64.99 µg/m3 20.19 µg/m3 13.81 µg/m3 0.21 mg/m3 21.88 °C 74.54 % 1,023.82 mbar 1.65 m/s 42.85 Deg 4.99 µg/m3 3.36 µg/m3
2022-10-29 00:00 14.15 µg/m3 0.56 µg/m3 67.45 µg/m3 21.21 µg/m3 13.2 µg/m3 0.24 mg/m3 22.07 °C 72.72 % 1,024.07 mbar 1.68 m/s 45.53 Deg 7.87 µg/m3 3.36 µg/m3
2022-10-28 23:00 21.05 µg/m3 0.61 µg/m3 65.7 µg/m3 20.95 µg/m3 14.13 µg/m3 0.27 mg/m3 22.1 °C 74.01 % 1,024.24 mbar 1.68 m/s 45.32 Deg 10.81 µg/m3 3.36 µg/m3
2022-10-28 22:00 25.89 µg/m3 0.67 µg/m3 57.82 µg/m3 23.7 µg/m3 16.15 µg/m3 0.34 mg/m3 22.14 °C 74.49 % 1,024.35 mbar 1.19 m/s 51.78 Deg 13.19 µg/m3 3.36 µg/m3
2022-10-28 21:00 26.49 µg/m3 0.73 µg/m3 61.02 µg/m3 23.4 µg/m3 15.82 µg/m3 0.38 mg/m3 22.28 °C 74.02 % 1,024.28 mbar 1.66 m/s 54.72 Deg 19.05 µg/m3 3.36 µg/m3
2022-10-28 20:00 28.17 µg/m3 0.74 µg/m3 62.14 µg/m3 25.89 µg/m3 17.43 µg/m3 0.39 mg/m3 22.35 °C 74.6 % 1,024.16 mbar 1.85 m/s 50.48 Deg 24.73 µg/m3 5.25 µg/m3
2022-10-28 19:00 37.21 µg/m3 0.78 µg/m3 65.41 µg/m3 26.86 µg/m3 18.07 µg/m3 0.46 mg/m3 22.39 °C 74.6 % 1,023.97 mbar 2.29 m/s 50.12 Deg 27.19 µg/m3 4.04 µg/m3
2022-10-28 18:00 33.44 µg/m3 0.65 µg/m3 67.47 µg/m3 34.15 µg/m3 18.73 µg/m3 0.45 mg/m3 22.5 °C 73.88 % 1,023.75 mbar 2.47 m/s 52.38 Deg 32.05 µg/m3 3.25 µg/m3
2022-10-28 17:00 35.01 µg/m3 0.6 µg/m3 73.59 µg/m3 35.59 µg/m3 17.83 µg/m3 0.36 mg/m3 22.8 °C 71.94 % 1,023.70 mbar 3.06 m/s 52.23 Deg 26.86 µg/m3 2.73 µg/m3
2022-10-28 16:00 28.05 µg/m3 0.71 µg/m3 72.72 µg/m3 30.94 µg/m3 15.71 µg/m3 0.37 mg/m3 23.18 °C 68.37 % 1,023.81 mbar 3.22 m/s 54.03 Deg 40.88 µg/m3 3.25 µg/m3
2022-10-28 15:00 32.1 µg/m3 0.8 µg/m3 70.1 µg/m3 30.29 µg/m3 15.25 µg/m3 0.39 mg/m3 23.33 °C 69.04 % 1,023.84 mbar 3.41 m/s 52.4 Deg 47.16 µg/m3 2.68 µg/m3
2022-10-28 14:00 32.75 µg/m3 0.68 µg/m3 69.2 µg/m3 37.87 µg/m3 17.43 µg/m3 0.31 mg/m3 23.28 °C 70.24 % 1,024.37 mbar 3.19 m/s 55.7 Deg 38.24 µg/m3 2.26 µg/m3
2022-10-28 13:00 31.93 µg/m3 0.61 µg/m3 69.62 µg/m3 34.39 µg/m3 16.98 µg/m3 0.33 mg/m3 23.41 °C 72.01 % 1,024.95 mbar 3.19 m/s 54.45 Deg 35.86 µg/m3 2.62 µg/m3
2022-10-28 12:00 31.16 µg/m3 0.59 µg/m3 71.06 µg/m3 32.23 µg/m3 16.89 µg/m3 0.36 mg/m3 23.47 °C 72.42 % 1,025.32 mbar 3.05 m/s 55.6 Deg 26.47 µg/m3 2.83 µg/m3
2022-10-28 11:00 30.62 µg/m3 0.63 µg/m3 64.36 µg/m3 33.49 µg/m3 16.59 µg/m3 0.35 mg/m3 23.37 °C 73.4 % 1,025.46 mbar 3.28 m/s 60.08 Deg 30.66 µg/m3 2.73 µg/m3
2022-10-28 10:00 34.96 µg/m3 0.68 µg/m3 57.86 µg/m3 37.81 µg/m3 17.51 µg/m3 0.35 mg/m3 23.22 °C 75.1 % 1,025.30 mbar 3.01 m/s 64.02 Deg 33.47 µg/m3 3.31 µg/m3
2022-10-28 09:00 77.72 µg/m3 1.54 µg/m3 27.14 µg/m3 59.8 µg/m3 23.83 µg/m3 0.6 mg/m3 23.17 °C 73.73 % 1,025.08 mbar 1.71 m/s 67.18 Deg 86.13 µg/m3 16.74 µg/m3
2022-10-28 08:00 97.58 µg/m3 3.53 µg/m3 3.98 µg/m3 75.31 µg/m3 46.8 µg/m3 1.5 mg/m3 21.62 °C 78.23 % 1,024.61 mbar 0.4 m/s 252.22 Deg 220 µg/m3 17.95 µg/m3
2022-10-28 07:00 80.2 µg/m3 2.94 µg/m3 3.72 µg/m3 64.15 µg/m3 42.77 µg/m3 1.41 mg/m3 20.26 °C 83.47 % 1,024.15 mbar 0.52 m/s 229.93 Deg 179.7 µg/m3 14.8 µg/m3
2022-10-28 06:00 61.73 µg/m3 1.82 µg/m3 4.37 µg/m3 58.58 µg/m3 39.06 µg/m3 1 mg/m3 20.11 °C 83.81 % 1,024.12 mbar 0.57 m/s 235.83 Deg 104.9 µg/m3 11.34 µg/m3
2022-10-28 05:00 49.76 µg/m3 1.15 µg/m3 3.69 µg/m3 54.96 µg/m3 36.64 µg/m3 0.55 mg/m3 20.12 °C 83.06 % 1,024.06 mbar 0.58 m/s 244.28 Deg 55.7 µg/m3 5.46 µg/m3
2022-10-28 04:00 43.54 µg/m3 0.8 µg/m3 3.74 µg/m3 47.5 µg/m3 31.66 µg/m3 0.35 mg/m3 20.23 °C 81.88 % 1,024.06 mbar 0.58 m/s 240.12 Deg 23.48 µg/m3 4.2 µg/m3
2022-10-28 03:00 38.68 µg/m3 0.49 µg/m3 5.49 µg/m3 43.42 µg/m3 29.02 µg/m3 0.35 mg/m3 20.37 °C 81.93 % 1,024.14 mbar 0.73 m/s 236.13 Deg 7.89 µg/m3 7.09 µg/m3
2022-10-28 02:00 43.65 µg/m3 0.76 µg/m3 3.26 µg/m3 43.73 µg/m3 29.24 µg/m3 0.54 mg/m3 20.69 °C 82.48 % 1,024.45 mbar 0.41 m/s 242.05 Deg 15.38 µg/m3 6.46 µg/m3
2022-10-28 01:00 50.07 µg/m3 0.67 µg/m3 3.58 µg/m3 40.59 µg/m3 27.13 µg/m3 0.62 mg/m3 21.1 °C 81.79 % 1,024.66 mbar 0.57 m/s 237.3 Deg 21.13 µg/m3 7.77 µg/m3
2022-10-28 00:00 56.45 µg/m3 0.8 µg/m3 2.29 µg/m3 43.39 µg/m3 28.94 µg/m3 0.71 mg/m3 21.47 °C 81.06 % 1,024.73 mbar 0.55 m/s 235.89 Deg 30.81 µg/m3 7.51 µg/m3
2022-10-27 23:00 61.45 µg/m3 0.78 µg/m3 3.76 µg/m3 42.47 µg/m3 28.35 µg/m3 0.71 mg/m3 21.9 °C 79.38 % 1,024.81 mbar 0.66 m/s 233.23 Deg 25.69 µg/m3 10.97 µg/m3
2022-10-27 22:00 73.22 µg/m3 1.11 µg/m3 2.21 µg/m3 46.94 µg/m3 31.32 µg/m3 0.78 mg/m3 22.55 °C 76.89 % 1,024.79 mbar 0.52 m/s 164.83 Deg 51.01 µg/m3 11.28 µg/m3
2022-10-27 21:00 71.07 µg/m3 1.15 µg/m3 8.55 µg/m3 38.94 µg/m3 26 µg/m3 0.87 mg/m3 23.26 °C 77.24 % 1,024.81 mbar 0.4 m/s 106.69 Deg 59.35 µg/m3 3.36 µg/m3
2022-10-27 20:00 48.33 µg/m3 0.39 µg/m3 39.25 µg/m3 28.8 µg/m3 19.25 µg/m3 0.41 mg/m3 23.81 °C 74.71 % 1,024.61 mbar 0.83 m/s 310.57 Deg 7.14 µg/m3 2.52 µg/m3
2022-10-27 19:00 55.53 µg/m3 0.41 µg/m3 37.58 µg/m3 28.82 µg/m3 19.25 µg/m3 0.42 mg/m3 24.08 °C 74.23 % 1,024.31 mbar 0.72 m/s 311.72 Deg 8.13 µg/m3 4.04 µg/m3
2022-10-27 18:00 59.4 µg/m3 0.63 µg/m3 38.06 µg/m3 45.33 µg/m3 21.25 µg/m3 0.49 mg/m3 24.35 °C 72.55 % 1,023.93 mbar 0.72 m/s 175.22 Deg 26.48 µg/m3 4.2 µg/m3
2022-10-27 17:00 50.39 µg/m3 0.62 µg/m3 51.5 µg/m3 62.1 µg/m3 20.71 µg/m3 0.54 mg/m3 24.9 °C 68.15 % 1,023.96 mbar 1.34 m/s 39.2 Deg 28.45 µg/m3 4.41 µg/m3
2022-10-27 16:00 50.1 µg/m3 0.71 µg/m3 57.55 µg/m3 52.55 µg/m3 20 µg/m3 0.43 mg/m3 25.19 °C 64.72 % 1,023.96 mbar 2.19 m/s 53.02 Deg 34.74 µg/m3 3.25 µg/m3
2022-10-27 15:00 40.56 µg/m3 0.66 µg/m3 59.31 µg/m3 45.32 µg/m3 18.12 µg/m3 0.4 mg/m3 25.32 °C 65.73 % 1,023.95 mbar 2.16 m/s 56.18 Deg 38.72 µg/m3 3.36 µg/m3
2022-10-27 14:00 45.89 µg/m3 0.8 µg/m3 57.8 µg/m3 46.28 µg/m3 18.28 µg/m3 0.44 mg/m3 25.3 °C 69.1 % 1,024.25 mbar 2.31 m/s 56.35 Deg 43.02 µg/m3 3.36 µg/m3
2022-10-27 13:00 38.36 µg/m3 0.72 µg/m3 52.99 µg/m3 42.35 µg/m3 18.13 µg/m3 0.42 mg/m3 25.26 °C 66.23 % 1,024.71 mbar 2.55 m/s 57.9 Deg 39.36 µg/m3 3.52 µg/m3
2022-10-27 12:00 43.28 µg/m3 0.72 µg/m3 53.76 µg/m3 47.52 µg/m3 18.05 µg/m3 0.41 mg/m3 25.71 °C 55.89 % 1,025.16 mbar 2.26 m/s 55.93 Deg 34.05 µg/m3 3.78 µg/m3
2022-10-27 11:00 55.78 µg/m3 0.88 µg/m3 43.74 µg/m3 47.85 µg/m3 17.07 µg/m3 0.44 mg/m3 25.82 °C 50.07 % 1,025.33 mbar 1.79 m/s 58.15 Deg 47 µg/m3 5.2 µg/m3
2022-10-27 10:00 89.54 µg/m3 1.55 µg/m3 18.35 µg/m3 86.03 µg/m3 24 µg/m3 0.63 mg/m3 25.98 °C 42.56 % 1,025.09 mbar 0.98 m/s 126.73 Deg 89.26 µg/m3 11.28 µg/m3
2022-10-27 09:00 108.6 µg/m3 1.78 µg/m3 9.34 µg/m3 131.88 µg/m3 36.52 µg/m3 0.81 mg/m3 23.88 °C 55.2 % 1,024.92 mbar 0.76 m/s 203.68 Deg 93.89 µg/m3 15.17 µg/m3
2022-10-27 08:00 82.52 µg/m3 2.67 µg/m3 3.71 µg/m3 86.15 µg/m3 42.88 µg/m3 1.22 mg/m3 20.7 °C 78.32 % 1,024.41 mbar 0.78 m/s 217.98 Deg 170.74 µg/m3 11.81 µg/m3
2022-10-27 07:00 52.93 µg/m3 1.83 µg/m3 2.26 µg/m3 61.43 µg/m3 41.5 µg/m3 0.96 mg/m3 19.35 °C 91.87 % 1,023.95 mbar 0.7 m/s 212.3 Deg 98.95 µg/m3 9.55 µg/m3
2022-10-27 06:00 45.78 µg/m3 1.07 µg/m3 2.04 µg/m3 55.9 µg/m3 38.69 µg/m3 0.59 mg/m3 19.74 °C 89.26 % 1,023.77 mbar 0.77 m/s 223.35 Deg 50.41 µg/m3 4.57 µg/m3
2022-10-27 05:00 39.59 µg/m3 0.82 µg/m3 3.33 µg/m3 44.08 µg/m3 30.55 µg/m3 0.33 mg/m3 19.88 °C 85.1 % 1,023.55 mbar 0.86 m/s 230.75 Deg 30.74 µg/m3 3.88 µg/m3
2022-10-27 04:00 31.52 µg/m3 0.55 µg/m3 6.3 µg/m3 43.4 µg/m3 30.51 µg/m3 0.26 mg/m3 20.03 °C 84.41 % 1,023.46 mbar 0.66 m/s 229.02 Deg 7.97 µg/m3 3.31 µg/m3
2022-10-27 03:00 30.3 µg/m3 0.58 µg/m3 7.07 µg/m3 43.46 µg/m3 31.11 µg/m3 0.26 mg/m3 20.32 °C 84.33 % 1,023.47 mbar 0.41 m/s 236.38 Deg 6.62 µg/m3 3.99 µg/m3
2022-10-27 02:00 32.07 µg/m3 0.47 µg/m3 10.43 µg/m3 37.11 µg/m3 25.69 µg/m3 0.25 mg/m3 20.63 °C 83.01 % 1,023.38 mbar 0.34 m/s 237.9 Deg 2.73 µg/m3 3.41 µg/m3
2022-10-27 01:00 43.64 µg/m3 0.53 µg/m3 6.55 µg/m3 34.91 µg/m3 23.56 µg/m3 0.39 mg/m3 20.98 °C 80.96 % 1,023.41 mbar 0.68 m/s 235.3 Deg 8.52 µg/m3 5.72 µg/m3
2022-10-27 00:00 49.95 µg/m3 0.7 µg/m3 4.06 µg/m3 35.83 µg/m3 23.96 µg/m3 0.52 mg/m3 21.36 °C 79.15 % 1,023.60 mbar 0.82 m/s 236.1 Deg 12.59 µg/m3 10.24 µg/m3
2022-10-26 23:00 62.16 µg/m3 1.34 µg/m3 4.32 µg/m3 44.13 µg/m3 29.43 µg/m3 0.99 mg/m3 21.89 °C 75.84 % 1,023.67 mbar 0.58 m/s 234.75 Deg 55.32 µg/m3 12.86 µg/m3
2022-10-26 22:00 73.34 µg/m3 1.82 µg/m3 5.97 µg/m3 63.52 µg/m3 36.21 µg/m3 1.19 mg/m3 22.4 °C 70.94 % 1,023.43 mbar 0.45 m/s 240.21 Deg 91.16 µg/m3 18.53 µg/m3
2022-10-26 21:00 87.08 µg/m3 2.63 µg/m3 5.39 µg/m3 139.52 µg/m3 42.54 µg/m3 1.5 mg/m3 22.97 °C 63.8 % 1,023.03 mbar 0.35 m/s 239.38 Deg 150.91 µg/m3 18 µg/m3
2022-10-26 20:00 104.84 µg/m3 2.94 µg/m3 5.26 µg/m3 154.02 µg/m3 43.48 µg/m3 1.66 mg/m3 23.66 °C 58.8 % 1,022.60 mbar 0.65 m/s 240.2 Deg 174 µg/m3 17.69 µg/m3
2022-10-26 19:00 105.22 µg/m3 2.26 µg/m3 2.91 µg/m3 127.73 µg/m3 32.92 µg/m3 1.29 mg/m3 24.54 °C 56.99 % 1,022.21 mbar 0.29 m/s 129.57 Deg 134.06 µg/m3 12.49 µg/m3
2022-10-26 18:00 88.45 µg/m3 1.41 µg/m3 18.9 µg/m3 100.32 µg/m3 24.52 µg/m3 1.11 mg/m3 25.48 °C 48.75 % 1,021.79 mbar 0.46 m/s 45.67 Deg 72.58 µg/m3 8.87 µg/m3
2022-10-26 17:00 59.02 µg/m3 0.84 µg/m3 51.7 µg/m3 63.62 µg/m3 16.98 µg/m3 0.45 mg/m3 26.31 °C 44.17 % 1,021.64 mbar 1.01 m/s 40.2 Deg 37.97 µg/m3 3.57 µg/m3
2022-10-26 16:00 37.03 µg/m3 0.63 µg/m3 69.03 µg/m3 37.43 µg/m3 13.33 µg/m3 0.31 mg/m3 26.73 °C 41.61 % 1,021.55 mbar 1.94 m/s 42.32 Deg 28.46 µg/m3 2.62 µg/m3
2022-10-26 15:00 39.65 µg/m3 0.75 µg/m3 65.49 µg/m3 39.7 µg/m3 13.45 µg/m3 0.25 mg/m3 27.35 °C 35.29 % 1,021.52 mbar 2.02 m/s 43.77 Deg 38.49 µg/m3 2.52 µg/m3
2022-10-26 14:00 36.45 µg/m3 0.71 µg/m3 52.98 µg/m3 44.59 µg/m3 14.13 µg/m3 0.27 mg/m3 27.52 °C 40.88 % 1,021.60 mbar 1.87 m/s 49.92 Deg 42.53 µg/m3 2.83 µg/m3
2022-10-26 13:00 40.36 µg/m3 0.71 µg/m3 54.7 µg/m3 37.94 µg/m3 13.83 µg/m3 0.32 mg/m3 26.66 °C 54.85 % 1,021.81 mbar 1.93 m/s 51.82 Deg 36.66 µg/m3 2.83 µg/m3
2022-10-26 12:00 38.76 µg/m3 0.52 µg/m3 51.56 µg/m3 43.25 µg/m3 13.3 µg/m3 0.27 mg/m3 26.45 °C 60 % 1,022.13 mbar 1.39 m/s 105.68 Deg 25.81 µg/m3 2.36 µg/m3

It is to be noted that the data is provisional and subject to quality assurance procedures. For validated data kindly refer your request to contact.air@era.org.mt